<?xml version="1.0" encoding="UTF-8" standalone="no" ?>
<gpx xmlns="http://www.topografix.com/GPX/1/1" xmlns:xsi="http://www.w3.org/2001/XMLSchema-instance" xsi:schemaLocation="http://www.topografix.com/GPX/1/1 http://www.topografix.com/GPX/1/1/gpx.xsd" version="1.1" creator="VisuGPX - https://www.visugpx.com">
  <metadata>
    <name>ST_RAD-LAY-MONA_19km  -400m</name>
    <desc><![CDATA[19km vi layoule et le monastere]]></desc>
  </metadata>
  <trk>
    <name><![CDATA[st RA 18km -]]></name>
    <trkseg>
      <trkpt lat="44.33573" lon="2.62923">
        <ele>613.4584961</ele>
        <time>2014-03-26T06:45:41Z</time>
      </trkpt>
      <trkpt lat="44.33572" lon="2.62922">
        <ele>616.822998</ele>
        <time>2014-03-26T06:45:42Z</time>
      </trkpt>
      <trkpt lat="44.33562" lon="2.6292">
        <ele>627.8781738</ele>
        <time>2014-03-26T06:45:47Z</time>
      </trkpt>
      <trkpt lat="44.3356" lon="2.6292">
        <ele>631.7233887</ele>
        <time>2014-03-26T06:45:48Z</time>
      </trkpt>
      <trkpt lat="44.3355" lon="2.62905">
        <ele>641.8173828</ele>
        <time>2014-03-26T06:45:54Z</time>
      </trkpt>
      <trkpt lat="44.33545" lon="2.62889">
        <ele>646.6240234</ele>
        <time>2014-03-26T06:45:59Z</time>
      </trkpt>
      <trkpt lat="44.33541" lon="2.62879">
        <ele>648.5463867</ele>
        <time>2014-03-26T06:46:03Z</time>
      </trkpt>
      <trkpt lat="44.33543" lon="2.62869">
        <ele>650.949707</ele>
        <time>2014-03-26T06:46:07Z</time>
      </trkpt>
      <trkpt lat="44.33548" lon="2.62859">
        <ele>651.9111328</ele>
        <time>2014-03-26T06:46:11Z</time>
      </trkpt>
      <trkpt lat="44.33552" lon="2.62852">
        <ele>650.949707</ele>
        <time>2014-03-26T06:46:14Z</time>
      </trkpt>
      <trkpt lat="44.33561" lon="2.62839">
        <ele>650.4692383</ele>
        <time>2014-03-26T06:46:20Z</time>
      </trkpt>
      <trkpt lat="44.33569" lon="2.62828">
        <ele>649.5078125</ele>
        <time>2014-03-26T06:46:26Z</time>
      </trkpt>
      <trkpt lat="44.33577" lon="2.62819">
        <ele>649.9885254</ele>
        <time>2014-03-26T06:46:31Z</time>
      </trkpt>
      <trkpt lat="44.33585" lon="2.62813">
        <ele>650.4692383</ele>
        <time>2014-03-26T06:46:36Z</time>
      </trkpt>
      <trkpt lat="44.33593" lon="2.62808">
        <ele>653.8339844</ele>
        <time>2014-03-26T06:46:42Z</time>
      </trkpt>
      <trkpt lat="44.33605" lon="2.62805">
        <ele>656.2370605</ele>
        <time>2014-03-26T06:46:49Z</time>
      </trkpt>
      <trkpt lat="44.33618" lon="2.62801">
        <ele>657.6791992</ele>
        <time>2014-03-26T06:46:56Z</time>
      </trkpt>
      <trkpt lat="44.33628" lon="2.62799">
        <ele>657.6791992</ele>
        <time>2014-03-26T06:47:01Z</time>
      </trkpt>
      <trkpt lat="44.33643" lon="2.62796">
        <ele>658.6403809</ele>
        <time>2014-03-26T06:47:08Z</time>
      </trkpt>
      <trkpt lat="44.33652" lon="2.62789">
        <ele>660.5629883</ele>
        <time>2014-03-26T06:47:14Z</time>
      </trkpt>
      <trkpt lat="44.3366" lon="2.62786">
        <ele>662.005127</ele>
        <time>2014-03-26T06:47:18Z</time>
      </trkpt>
      <trkpt lat="44.3367" lon="2.62779">
        <ele>664.4082031</ele>
        <time>2014-03-26T06:47:23Z</time>
      </trkpt>
      <trkpt lat="44.33676" lon="2.6277">
        <ele>664.888916</ele>
        <time>2014-03-26T06:47:27Z</time>
      </trkpt>
      <trkpt lat="44.33683" lon="2.62758">
        <ele>665.3696289</ele>
        <time>2014-03-26T06:47:32Z</time>
      </trkpt>
      <trkpt lat="44.33693" lon="2.6275">
        <ele>665.3696289</ele>
        <time>2014-03-26T06:47:37Z</time>
      </trkpt>
      <trkpt lat="44.337" lon="2.62729">
        <ele>662.9663086</ele>
        <time>2014-03-26T06:47:44Z</time>
      </trkpt>
      <trkpt lat="44.33707" lon="2.62711">
        <ele>662.4855957</ele>
        <time>2014-03-26T06:47:51Z</time>
      </trkpt>
      <trkpt lat="44.33717" lon="2.62698">
        <ele>664.888916</ele>
        <time>2014-03-26T06:47:57Z</time>
      </trkpt>
      <trkpt lat="44.33734" lon="2.62687">
        <ele>667.7727051</ele>
        <time>2014-03-26T06:48:04Z</time>
      </trkpt>
      <trkpt lat="44.33743" lon="2.62673">
        <ele>668.734375</ele>
        <time>2014-03-26T06:48:10Z</time>
      </trkpt>
      <trkpt lat="44.33751" lon="2.6266">
        <ele>668.2536621</ele>
        <time>2014-03-26T06:48:15Z</time>
      </trkpt>
      <trkpt lat="44.33752" lon="2.62657">
        <ele>668.2536621</ele>
        <time>2014-03-26T06:48:16Z</time>
      </trkpt>
      <trkpt lat="44.3376" lon="2.62638">
        <ele>669.6958008</ele>
        <time>2014-03-26T06:48:22Z</time>
      </trkpt>
      <trkpt lat="44.33766" lon="2.62619">
        <ele>669.2150879</ele>
        <time>2014-03-26T06:48:28Z</time>
      </trkpt>
      <trkpt lat="44.33771" lon="2.62603">
        <ele>668.734375</ele>
        <time>2014-03-26T06:48:33Z</time>
      </trkpt>
      <trkpt lat="44.33775" lon="2.62598">
        <ele>668.2536621</ele>
        <time>2014-03-26T06:48:35Z</time>
      </trkpt>
      <trkpt lat="44.33782" lon="2.62593">
        <ele>668.734375</ele>
        <time>2014-03-26T06:48:39Z</time>
      </trkpt>
      <trkpt lat="44.33797" lon="2.62591">
        <ele>668.734375</ele>
        <time>2014-03-26T06:48:45Z</time>
      </trkpt>
      <trkpt lat="44.33812" lon="2.62595">
        <ele>668.734375</ele>
        <time>2014-03-26T06:48:51Z</time>
      </trkpt>
      <trkpt lat="44.3382" lon="2.62595">
        <ele>669.6958008</ele>
        <time>2014-03-26T06:48:54Z</time>
      </trkpt>
      <trkpt lat="44.33829" lon="2.62599">
        <ele>671.1376953</ele>
        <time>2014-03-26T06:48:59Z</time>
      </trkpt>
      <trkpt lat="44.33832" lon="2.62603">
        <ele>674.5021973</ele>
        <time>2014-03-26T06:49:05Z</time>
      </trkpt>
      <trkpt lat="44.33831" lon="2.62604">
        <ele>675.9440918</ele>
        <time>2014-03-26T06:49:12Z</time>
      </trkpt>
      <trkpt lat="44.33833" lon="2.626">
        <ele>675.9440918</ele>
        <time>2014-03-26T06:49:18Z</time>
      </trkpt>
      <trkpt lat="44.33838" lon="2.62593">
        <ele>675.4633789</ele>
        <time>2014-03-26T06:49:22Z</time>
      </trkpt>
      <trkpt lat="44.33854" lon="2.6258">
        <ele>674.0214844</ele>
        <time>2014-03-26T06:49:29Z</time>
      </trkpt>
      <trkpt lat="44.33867" lon="2.62568">
        <ele>673.0603027</ele>
        <time>2014-03-26T06:49:35Z</time>
      </trkpt>
      <trkpt lat="44.33879" lon="2.62561">
        <ele>671.6181641</ele>
        <time>2014-03-26T06:49:40Z</time>
      </trkpt>
      <trkpt lat="44.33889" lon="2.62552">
        <ele>669.6958008</ele>
        <time>2014-03-26T06:49:45Z</time>
      </trkpt>
      <trkpt lat="44.33898" lon="2.62538">
        <ele>668.734375</ele>
        <time>2014-03-26T06:49:50Z</time>
      </trkpt>
      <trkpt lat="44.33907" lon="2.62524">
        <ele>666.8115234</ele>
        <time>2014-03-26T06:49:55Z</time>
      </trkpt>
      <trkpt lat="44.33916" lon="2.62509">
        <ele>665.3696289</ele>
        <time>2014-03-26T06:50:00Z</time>
      </trkpt>
      <trkpt lat="44.33925" lon="2.62495">
        <ele>663.4470215</ele>
        <time>2014-03-26T06:50:05Z</time>
      </trkpt>
      <trkpt lat="44.33933" lon="2.6248">
        <ele>661.5244141</ele>
        <time>2014-03-26T06:50:10Z</time>
      </trkpt>
      <trkpt lat="44.33945" lon="2.62465">
        <ele>660.0822754</ele>
        <time>2014-03-26T06:50:16Z</time>
      </trkpt>
      <trkpt lat="44.33958" lon="2.62457">
        <ele>660.0822754</ele>
        <time>2014-03-26T06:50:21Z</time>
      </trkpt>
      <trkpt lat="44.33973" lon="2.62455">
        <ele>660.5629883</ele>
        <time>2014-03-26T06:50:27Z</time>
      </trkpt>
      <trkpt lat="44.33985" lon="2.62453">
        <ele>661.5244141</ele>
        <time>2014-03-26T06:50:32Z</time>
      </trkpt>
      <trkpt lat="44.33998" lon="2.62453">
        <ele>662.005127</ele>
        <time>2014-03-26T06:50:37Z</time>
      </trkpt>
      <trkpt lat="44.34009" lon="2.62454">
        <ele>662.9663086</ele>
        <time>2014-03-26T06:50:41Z</time>
      </trkpt>
      <trkpt lat="44.34029" lon="2.62454">
        <ele>663.4470215</ele>
        <time>2014-03-26T06:50:49Z</time>
      </trkpt>
      <trkpt lat="44.34045" lon="2.62454">
        <ele>663.4470215</ele>
        <time>2014-03-26T06:50:55Z</time>
      </trkpt>
      <trkpt lat="44.3406" lon="2.62458">
        <ele>662.4855957</ele>
        <time>2014-03-26T06:51:01Z</time>
      </trkpt>
      <trkpt lat="44.34077" lon="2.62465">
        <ele>661.5244141</ele>
        <time>2014-03-26T06:51:08Z</time>
      </trkpt>
      <trkpt lat="44.34094" lon="2.62473">
        <ele>658.1599121</ele>
        <time>2014-03-26T06:51:15Z</time>
      </trkpt>
      <trkpt lat="44.3411" lon="2.6248">
        <ele>657.6791992</ele>
        <time>2014-03-26T06:51:22Z</time>
      </trkpt>
      <trkpt lat="44.34125" lon="2.62485">
        <ele>657.1984863</ele>
        <time>2014-03-26T06:51:28Z</time>
      </trkpt>
      <trkpt lat="44.34138" lon="2.62486">
        <ele>657.1984863</ele>
        <time>2014-03-26T06:51:33Z</time>
      </trkpt>
      <trkpt lat="44.3415" lon="2.62482">
        <ele>657.1984863</ele>
        <time>2014-03-26T06:51:38Z</time>
      </trkpt>
      <trkpt lat="44.34167" lon="2.62478">
        <ele>654.3146973</ele>
        <time>2014-03-26T06:51:44Z</time>
      </trkpt>
      <trkpt lat="44.34186" lon="2.62474">
        <ele>653.3532715</ele>
        <time>2014-03-26T06:51:51Z</time>
      </trkpt>
      <trkpt lat="44.342" lon="2.62472">
        <ele>651.4304199</ele>
        <time>2014-03-26T06:51:56Z</time>
      </trkpt>
      <trkpt lat="44.34222" lon="2.62464">
        <ele>648.065918</ele>
        <time>2014-03-26T06:52:04Z</time>
      </trkpt>
      <trkpt lat="44.34239" lon="2.62456">
        <ele>645.6625977</ele>
        <time>2014-03-26T06:52:10Z</time>
      </trkpt>
      <trkpt lat="44.34255" lon="2.62449">
        <ele>643.2592773</ele>
        <time>2014-03-26T06:52:16Z</time>
      </trkpt>
      <trkpt lat="44.34269" lon="2.62442">
        <ele>641.3366699</ele>
        <time>2014-03-26T06:52:21Z</time>
      </trkpt>
      <trkpt lat="44.34288" lon="2.62435">
        <ele>639.4140625</ele>
        <time>2014-03-26T06:52:27Z</time>
      </trkpt>
      <trkpt lat="44.34304" lon="2.62429">
        <ele>636.5302734</ele>
        <time>2014-03-26T06:52:33Z</time>
      </trkpt>
      <trkpt lat="44.34309" lon="2.62428">
        <ele>635.5686035</ele>
        <time>2014-03-26T06:52:35Z</time>
      </trkpt>
      <trkpt lat="44.34313" lon="2.62435">
        <ele>635.0881348</ele>
        <time>2014-03-26T06:52:38Z</time>
      </trkpt>
      <trkpt lat="44.34321" lon="2.62435">
        <ele>634.6074219</ele>
        <time>2014-03-26T06:52:42Z</time>
      </trkpt>
      <trkpt lat="44.34323" lon="2.62433">
        <ele>634.126709</ele>
        <time>2014-03-26T06:52:43Z</time>
      </trkpt>
      <trkpt lat="44.34334" lon="2.62416">
        <ele>633.6459961</ele>
        <time>2014-03-26T06:52:49Z</time>
      </trkpt>
      <trkpt lat="44.34343" lon="2.62403">
        <ele>633.6459961</ele>
        <time>2014-03-26T06:52:54Z</time>
      </trkpt>
      <trkpt lat="44.34356" lon="2.6239">
        <ele>633.6459961</ele>
        <time>2014-03-26T06:53:00Z</time>
      </trkpt>
      <trkpt lat="44.34369" lon="2.62376">
        <ele>634.126709</ele>
        <time>2014-03-26T06:53:06Z</time>
      </trkpt>
      <trkpt lat="44.34382" lon="2.62363">
        <ele>634.6074219</ele>
        <time>2014-03-26T06:53:12Z</time>
      </trkpt>
      <trkpt lat="44.344" lon="2.62353">
        <ele>635.0881348</ele>
        <time>2014-03-26T06:53:19Z</time>
      </trkpt>
      <trkpt lat="44.34415" lon="2.62347">
        <ele>635.5686035</ele>
        <time>2014-03-26T06:53:25Z</time>
      </trkpt>
      <trkpt lat="44.34428" lon="2.62341">
        <ele>635.5686035</ele>
        <time>2014-03-26T06:53:30Z</time>
      </trkpt>
      <trkpt lat="44.34439" lon="2.62331">
        <ele>635.0881348</ele>
        <time>2014-03-26T06:53:35Z</time>
      </trkpt>
      <trkpt lat="44.34454" lon="2.62324">
        <ele>635.5686035</ele>
        <time>2014-03-26T06:53:41Z</time>
      </trkpt>
      <trkpt lat="44.3447" lon="2.6232">
        <ele>635.5686035</ele>
        <time>2014-03-26T06:53:47Z</time>
      </trkpt>
      <trkpt lat="44.34486" lon="2.62315">
        <ele>636.0495605</ele>
        <time>2014-03-26T06:53:54Z</time>
      </trkpt>
      <trkpt lat="44.34504" lon="2.62309">
        <ele>635.5686035</ele>
        <time>2014-03-26T06:54:01Z</time>
      </trkpt>
      <trkpt lat="44.34514" lon="2.623">
        <ele>635.5686035</ele>
        <time>2014-03-26T06:54:06Z</time>
      </trkpt>
      <trkpt lat="44.34518" lon="2.62281">
        <ele>635.0881348</ele>
        <time>2014-03-26T06:54:11Z</time>
      </trkpt>
      <trkpt lat="44.3452" lon="2.62263">
        <ele>633.1652832</ele>
        <time>2014-03-26T06:54:16Z</time>
      </trkpt>
      <trkpt lat="44.34522" lon="2.62245">
        <ele>631.7233887</ele>
        <time>2014-03-26T06:54:21Z</time>
      </trkpt>
      <trkpt lat="44.34525" lon="2.62229">
        <ele>631.2429199</ele>
        <time>2014-03-26T06:54:26Z</time>
      </trkpt>
      <trkpt lat="44.34527" lon="2.62211">
        <ele>629.8007813</ele>
        <time>2014-03-26T06:54:31Z</time>
      </trkpt>
      <trkpt lat="44.34529" lon="2.62191">
        <ele>629.8007813</ele>
        <time>2014-03-26T06:54:37Z</time>
      </trkpt>
      <trkpt lat="44.3453" lon="2.62177">
        <ele>629.3200684</ele>
        <time>2014-03-26T06:54:41Z</time>
      </trkpt>
      <trkpt lat="44.34532" lon="2.62159">
        <ele>627.8781738</ele>
        <time>2014-03-26T06:54:46Z</time>
      </trkpt>
      <trkpt lat="44.34532" lon="2.62142">
        <ele>628.3588867</ele>
        <time>2014-03-26T06:54:51Z</time>
      </trkpt>
      <trkpt lat="44.34534" lon="2.62117">
        <ele>627.8781738</ele>
        <time>2014-03-26T06:54:58Z</time>
      </trkpt>
      <trkpt lat="44.34535" lon="2.62095">
        <ele>627.8781738</ele>
        <time>2014-03-26T06:55:04Z</time>
      </trkpt>
      <trkpt lat="44.34534" lon="2.62073">
        <ele>626.9169922</ele>
        <time>2014-03-26T06:55:10Z</time>
      </trkpt>
      <trkpt lat="44.34533" lon="2.62048">
        <ele>625.9555664</ele>
        <time>2014-03-26T06:55:17Z</time>
      </trkpt>
      <trkpt lat="44.34531" lon="2.6203">
        <ele>625.9555664</ele>
        <time>2014-03-26T06:55:22Z</time>
      </trkpt>
      <trkpt lat="44.34528" lon="2.6201">
        <ele>625.9555664</ele>
        <time>2014-03-26T06:55:28Z</time>
      </trkpt>
      <trkpt lat="44.34525" lon="2.61988">
        <ele>626.4362793</ele>
        <time>2014-03-26T06:55:34Z</time>
      </trkpt>
      <trkpt lat="44.34522" lon="2.61966">
        <ele>627.3977051</ele>
        <time>2014-03-26T06:55:40Z</time>
      </trkpt>
      <trkpt lat="44.34521" lon="2.61949">
        <ele>628.8395996</ele>
        <time>2014-03-26T06:55:45Z</time>
      </trkpt>
      <trkpt lat="44.34522" lon="2.61929">
        <ele>628.8395996</ele>
        <time>2014-03-26T06:55:51Z</time>
      </trkpt>
      <trkpt lat="44.34525" lon="2.61909">
        <ele>628.3588867</ele>
        <time>2014-03-26T06:55:57Z</time>
      </trkpt>
      <trkpt lat="44.34528" lon="2.61891">
        <ele>628.3588867</ele>
        <time>2014-03-26T06:56:02Z</time>
      </trkpt>
      <trkpt lat="44.34532" lon="2.61866">
        <ele>628.3588867</ele>
        <time>2014-03-26T06:56:10Z</time>
      </trkpt>
      <trkpt lat="44.34536" lon="2.61842">
        <ele>628.3588867</ele>
        <time>2014-03-26T06:56:17Z</time>
      </trkpt>
      <trkpt lat="44.3454" lon="2.61822">
        <ele>628.8395996</ele>
        <time>2014-03-26T06:56:23Z</time>
      </trkpt>
      <trkpt lat="44.34544" lon="2.61801">
        <ele>628.8395996</ele>
        <time>2014-03-26T06:56:29Z</time>
      </trkpt>
      <trkpt lat="44.3455" lon="2.61781">
        <ele>629.3200684</ele>
        <time>2014-03-26T06:56:35Z</time>
      </trkpt>
      <trkpt lat="44.34558" lon="2.61762">
        <ele>629.8007813</ele>
        <time>2014-03-26T06:56:41Z</time>
      </trkpt>
      <trkpt lat="44.34566" lon="2.61744">
        <ele>628.3588867</ele>
        <time>2014-03-26T06:56:47Z</time>
      </trkpt>
      <trkpt lat="44.34574" lon="2.61725">
        <ele>628.8395996</ele>
        <time>2014-03-26T06:56:53Z</time>
      </trkpt>
      <trkpt lat="44.34583" lon="2.61704">
        <ele>630.2814941</ele>
        <time>2014-03-26T06:57:00Z</time>
      </trkpt>
      <trkpt lat="44.3459" lon="2.61686">
        <ele>631.2429199</ele>
        <time>2014-03-26T06:57:06Z</time>
      </trkpt>
      <trkpt lat="44.34591" lon="2.61681">
        <ele>630.762207</ele>
        <time>2014-03-26T06:57:11Z</time>
      </trkpt>
      <trkpt lat="44.34591" lon="2.61681">
        <ele>630.2814941</ele>
        <time>2014-03-26T06:57:20Z</time>
      </trkpt>
      <trkpt lat="44.34589" lon="2.61679">
        <ele>630.762207</ele>
        <time>2014-03-26T06:57:37Z</time>
      </trkpt>
      <trkpt lat="44.34595" lon="2.61693">
        <ele>629.8007813</ele>
        <time>2014-03-26T06:57:43Z</time>
      </trkpt>
      <trkpt lat="44.34595" lon="2.61695">
        <ele>629.3200684</ele>
        <time>2014-03-26T06:57:47Z</time>
      </trkpt>
      <trkpt lat="44.34595" lon="2.61694">
        <ele>628.8395996</ele>
        <time>2014-03-26T06:57:52Z</time>
      </trkpt>
      <trkpt lat="44.34594" lon="2.61693">
        <ele>628.8395996</ele>
        <time>2014-03-26T06:57:53Z</time>
      </trkpt>
      <trkpt lat="44.34591" lon="2.61678">
        <ele>629.8007813</ele>
        <time>2014-03-26T06:57:58Z</time>
      </trkpt>
      <trkpt lat="44.34592" lon="2.61671">
        <ele>629.8007813</ele>
        <time>2014-03-26T06:58:00Z</time>
      </trkpt>
      <trkpt lat="44.346" lon="2.61645">
        <ele>629.8007813</ele>
        <time>2014-03-26T06:58:08Z</time>
      </trkpt>
      <trkpt lat="44.34607" lon="2.61626">
        <ele>630.2814941</ele>
        <time>2014-03-26T06:58:14Z</time>
      </trkpt>
      <trkpt lat="44.3461" lon="2.61618">
        <ele>628.8395996</ele>
        <time>2014-03-26T06:58:19Z</time>
      </trkpt>
      <trkpt lat="44.34612" lon="2.61611">
        <ele>627.8781738</ele>
        <time>2014-03-26T06:58:26Z</time>
      </trkpt>
      <trkpt lat="44.34615" lon="2.61601">
        <ele>626.9169922</ele>
        <time>2014-03-26T06:58:37Z</time>
      </trkpt>
      <trkpt lat="44.34617" lon="2.61596">
        <ele>626.4362793</ele>
        <time>2014-03-26T06:58:55Z</time>
      </trkpt>
      <trkpt lat="44.34619" lon="2.6158">
        <ele>626.9169922</ele>
        <time>2014-03-26T06:59:01Z</time>
      </trkpt>
      <trkpt lat="44.34623" lon="2.61561">
        <ele>625.9555664</ele>
        <time>2014-03-26T06:59:07Z</time>
      </trkpt>
      <trkpt lat="44.34623" lon="2.61558">
        <ele>626.4362793</ele>
        <time>2014-03-26T06:59:08Z</time>
      </trkpt>
      <trkpt lat="44.34626" lon="2.61557">
        <ele>625.9555664</ele>
        <time>2014-03-26T06:59:14Z</time>
      </trkpt>
      <trkpt lat="44.34625" lon="2.61556">
        <ele>625.4748535</ele>
        <time>2014-03-26T06:59:17Z</time>
      </trkpt>
      <trkpt lat="44.34626" lon="2.61545">
        <ele>624.9943848</ele>
        <time>2014-03-26T06:59:21Z</time>
      </trkpt>
      <trkpt lat="44.34628" lon="2.61532">
        <ele>625.9555664</ele>
        <time>2014-03-26T06:59:27Z</time>
      </trkpt>
      <trkpt lat="44.3463" lon="2.61519">
        <ele>626.4362793</ele>
        <time>2014-03-26T06:59:34Z</time>
      </trkpt>
      <trkpt lat="44.34629" lon="2.61512">
        <ele>626.9169922</ele>
        <time>2014-03-26T06:59:38Z</time>
      </trkpt>
      <trkpt lat="44.34623" lon="2.61504">
        <ele>627.8781738</ele>
        <time>2014-03-26T06:59:46Z</time>
      </trkpt>
      <trkpt lat="44.34623" lon="2.61505">
        <ele>629.3200684</ele>
        <time>2014-03-26T06:59:56Z</time>
      </trkpt>
      <trkpt lat="44.34623" lon="2.61505">
        <ele>629.8007813</ele>
        <time>2014-03-26T07:00:01Z</time>
      </trkpt>
      <trkpt lat="44.34632" lon="2.61503">
        <ele>626.9169922</ele>
        <time>2014-03-26T07:00:06Z</time>
      </trkpt>
      <trkpt lat="44.34637" lon="2.61476">
        <ele>624.5136719</ele>
        <time>2014-03-26T07:00:14Z</time>
      </trkpt>
      <trkpt lat="44.34639" lon="2.61461">
        <ele>626.4362793</ele>
        <time>2014-03-26T07:00:18Z</time>
      </trkpt>
      <trkpt lat="44.34631" lon="2.61452">
        <ele>628.3588867</ele>
        <time>2014-03-26T07:00:23Z</time>
      </trkpt>
      <trkpt lat="44.34628" lon="2.61453">
        <ele>628.3588867</ele>
        <time>2014-03-26T07:00:27Z</time>
      </trkpt>
      <trkpt lat="44.34629" lon="2.61451">
        <ele>628.3588867</ele>
        <time>2014-03-26T07:00:34Z</time>
      </trkpt>
      <trkpt lat="44.3464" lon="2.61446">
        <ele>628.3588867</ele>
        <time>2014-03-26T07:00:39Z</time>
      </trkpt>
      <trkpt lat="44.34643" lon="2.61434">
        <ele>629.8007813</ele>
        <time>2014-03-26T07:00:42Z</time>
      </trkpt>
      <trkpt lat="44.34643" lon="2.6143">
        <ele>629.8007813</ele>
        <time>2014-03-26T07:00:43Z</time>
      </trkpt>
      <trkpt lat="44.34645" lon="2.61409">
        <ele>631.7233887</ele>
        <time>2014-03-26T07:00:49Z</time>
      </trkpt>
      <trkpt lat="44.34647" lon="2.61387">
        <ele>634.126709</ele>
        <time>2014-03-26T07:00:55Z</time>
      </trkpt>
      <trkpt lat="44.34648" lon="2.61364">
        <ele>634.6074219</ele>
        <time>2014-03-26T07:01:01Z</time>
      </trkpt>
      <trkpt lat="44.3465" lon="2.61341">
        <ele>632.2041016</ele>
        <time>2014-03-26T07:01:07Z</time>
      </trkpt>
      <trkpt lat="44.34651" lon="2.61319">
        <ele>631.7233887</ele>
        <time>2014-03-26T07:01:13Z</time>
      </trkpt>
      <trkpt lat="44.34653" lon="2.61299">
        <ele>630.762207</ele>
        <time>2014-03-26T07:01:18Z</time>
      </trkpt>
      <trkpt lat="44.34653" lon="2.61279">
        <ele>629.3200684</ele>
        <time>2014-03-26T07:01:23Z</time>
      </trkpt>
      <trkpt lat="44.34649" lon="2.61259">
        <ele>628.8395996</ele>
        <time>2014-03-26T07:01:29Z</time>
      </trkpt>
      <trkpt lat="44.34645" lon="2.61241">
        <ele>629.3200684</ele>
        <time>2014-03-26T07:01:34Z</time>
      </trkpt>
      <trkpt lat="44.34642" lon="2.61224">
        <ele>630.2814941</ele>
        <time>2014-03-26T07:01:39Z</time>
      </trkpt>
      <trkpt lat="44.3464" lon="2.61207">
        <ele>630.2814941</ele>
        <time>2014-03-26T07:01:44Z</time>
      </trkpt>
      <trkpt lat="44.34639" lon="2.61187">
        <ele>630.762207</ele>
        <time>2014-03-26T07:01:50Z</time>
      </trkpt>
      <trkpt lat="44.34637" lon="2.61163">
        <ele>629.8007813</ele>
        <time>2014-03-26T07:01:57Z</time>
      </trkpt>
      <trkpt lat="44.34635" lon="2.61142">
        <ele>630.2814941</ele>
        <time>2014-03-26T07:02:03Z</time>
      </trkpt>
      <trkpt lat="44.34634" lon="2.61124">
        <ele>630.2814941</ele>
        <time>2014-03-26T07:02:08Z</time>
      </trkpt>
      <trkpt lat="44.34633" lon="2.61103">
        <ele>630.762207</ele>
        <time>2014-03-26T07:02:14Z</time>
      </trkpt>
      <trkpt lat="44.3463" lon="2.6109">
        <ele>631.7233887</ele>
        <time>2014-03-26T07:02:18Z</time>
      </trkpt>
      <trkpt lat="44.3462" lon="2.61086">
        <ele>632.6848145</ele>
        <time>2014-03-26T07:02:22Z</time>
      </trkpt>
      <trkpt lat="44.34602" lon="2.61089">
        <ele>633.6459961</ele>
        <time>2014-03-26T07:02:29Z</time>
      </trkpt>
      <trkpt lat="44.3459" lon="2.61091">
        <ele>634.126709</ele>
        <time>2014-03-26T07:02:34Z</time>
      </trkpt>
      <trkpt lat="44.34576" lon="2.61093">
        <ele>634.126709</ele>
        <time>2014-03-26T07:02:39Z</time>
      </trkpt>
      <trkpt lat="44.34569" lon="2.61095">
        <ele>634.126709</ele>
        <time>2014-03-26T07:02:42Z</time>
      </trkpt>
      <trkpt lat="44.34567" lon="2.61096">
        <ele>634.6074219</ele>
        <time>2014-03-26T07:02:49Z</time>
      </trkpt>
      <trkpt lat="44.34567" lon="2.61095">
        <ele>634.6074219</ele>
        <time>2014-03-26T07:02:56Z</time>
      </trkpt>
      <trkpt lat="44.3458" lon="2.61092">
        <ele>635.0881348</ele>
        <time>2014-03-26T07:03:01Z</time>
      </trkpt>
      <trkpt lat="44.346" lon="2.61088">
        <ele>633.6459961</ele>
        <time>2014-03-26T07:03:08Z</time>
      </trkpt>
      <trkpt lat="44.34616" lon="2.61085">
        <ele>633.6459961</ele>
        <time>2014-03-26T07:03:14Z</time>
      </trkpt>
      <trkpt lat="44.34624" lon="2.61082">
        <ele>633.6459961</ele>
        <time>2014-03-26T07:03:17Z</time>
      </trkpt>
      <trkpt lat="44.34624" lon="2.61063">
        <ele>634.6074219</ele>
        <time>2014-03-26T07:03:22Z</time>
      </trkpt>
      <trkpt lat="44.34622" lon="2.6104">
        <ele>634.6074219</ele>
        <time>2014-03-26T07:03:28Z</time>
      </trkpt>
      <trkpt lat="44.34618" lon="2.61022">
        <ele>634.6074219</ele>
        <time>2014-03-26T07:03:33Z</time>
      </trkpt>
      <trkpt lat="44.34612" lon="2.60999">
        <ele>635.0881348</ele>
        <time>2014-03-26T07:03:40Z</time>
      </trkpt>
      <trkpt lat="44.34608" lon="2.60977">
        <ele>635.0881348</ele>
        <time>2014-03-26T07:03:46Z</time>
      </trkpt>
      <trkpt lat="44.34604" lon="2.60956">
        <ele>635.5686035</ele>
        <time>2014-03-26T07:03:52Z</time>
      </trkpt>
      <trkpt lat="44.34599" lon="2.60934">
        <ele>634.6074219</ele>
        <time>2014-03-26T07:03:58Z</time>
      </trkpt>
      <trkpt lat="44.34593" lon="2.60912">
        <ele>634.6074219</ele>
        <time>2014-03-26T07:04:04Z</time>
      </trkpt>
      <trkpt lat="44.34586" lon="2.60887">
        <ele>635.0881348</ele>
        <time>2014-03-26T07:04:11Z</time>
      </trkpt>
      <trkpt lat="44.3458" lon="2.60863">
        <ele>634.6074219</ele>
        <time>2014-03-26T07:04:18Z</time>
      </trkpt>
      <trkpt lat="44.34576" lon="2.60839">
        <ele>634.6074219</ele>
        <time>2014-03-26T07:04:25Z</time>
      </trkpt>
      <trkpt lat="44.34573" lon="2.60821">
        <ele>634.6074219</ele>
        <time>2014-03-26T07:04:30Z</time>
      </trkpt>
      <trkpt lat="44.3457" lon="2.60801">
        <ele>635.0881348</ele>
        <time>2014-03-26T07:04:36Z</time>
      </trkpt>
      <trkpt lat="44.34568" lon="2.6079">
        <ele>635.0881348</ele>
        <time>2014-03-26T07:04:39Z</time>
      </trkpt>
      <trkpt lat="44.34562" lon="2.60785">
        <ele>634.6074219</ele>
        <time>2014-03-26T07:04:45Z</time>
      </trkpt>
      <trkpt lat="44.34561" lon="2.60786">
        <ele>634.6074219</ele>
        <time>2014-03-26T07:04:50Z</time>
      </trkpt>
      <trkpt lat="44.34561" lon="2.60784">
        <ele>634.126709</ele>
        <time>2014-03-26T07:04:56Z</time>
      </trkpt>
      <trkpt lat="44.34568" lon="2.60772">
        <ele>633.1652832</ele>
        <time>2014-03-26T07:05:01Z</time>
      </trkpt>
      <trkpt lat="44.34565" lon="2.60747">
        <ele>633.1652832</ele>
        <time>2014-03-26T07:05:08Z</time>
      </trkpt>
      <trkpt lat="44.34563" lon="2.60728">
        <ele>634.6074219</ele>
        <time>2014-03-26T07:05:13Z</time>
      </trkpt>
      <trkpt lat="44.34559" lon="2.60699">
        <ele>636.0495605</ele>
        <time>2014-03-26T07:05:21Z</time>
      </trkpt>
      <trkpt lat="44.34555" lon="2.60678">
        <ele>637.0107422</ele>
        <time>2014-03-26T07:05:27Z</time>
      </trkpt>
      <trkpt lat="44.34552" lon="2.60663">
        <ele>637.972168</ele>
        <time>2014-03-26T07:05:31Z</time>
      </trkpt>
      <trkpt lat="44.34544" lon="2.60662">
        <ele>638.4528809</ele>
        <time>2014-03-26T07:05:35Z</time>
      </trkpt>
      <trkpt lat="44.34532" lon="2.60681">
        <ele>637.972168</ele>
        <time>2014-03-26T07:05:42Z</time>
      </trkpt>
      <trkpt lat="44.3452" lon="2.60693">
        <ele>636.5302734</ele>
        <time>2014-03-26T07:05:48Z</time>
      </trkpt>
      <trkpt lat="44.34508" lon="2.60707">
        <ele>634.6074219</ele>
        <time>2014-03-26T07:05:54Z</time>
      </trkpt>
      <trkpt lat="44.34497" lon="2.60722">
        <ele>634.6074219</ele>
        <time>2014-03-26T07:06:00Z</time>
      </trkpt>
      <trkpt lat="44.34488" lon="2.60741">
        <ele>637.0107422</ele>
        <time>2014-03-26T07:06:06Z</time>
      </trkpt>
      <trkpt lat="44.34481" lon="2.60759">
        <ele>637.4914551</ele>
        <time>2014-03-26T07:06:11Z</time>
      </trkpt>
      <trkpt lat="44.34475" lon="2.60776">
        <ele>637.0107422</ele>
        <time>2014-03-26T07:06:16Z</time>
      </trkpt>
      <trkpt lat="44.34471" lon="2.60793">
        <ele>636.0495605</ele>
        <time>2014-03-26T07:06:21Z</time>
      </trkpt>
      <trkpt lat="44.34465" lon="2.6081">
        <ele>635.0881348</ele>
        <time>2014-03-26T07:06:26Z</time>
      </trkpt>
      <trkpt lat="44.34459" lon="2.60827">
        <ele>634.126709</ele>
        <time>2014-03-26T07:06:31Z</time>
      </trkpt>
      <trkpt lat="44.34452" lon="2.60849">
        <ele>633.6459961</ele>
        <time>2014-03-26T07:06:37Z</time>
      </trkpt>
      <trkpt lat="44.34449" lon="2.60856">
        <ele>632.6848145</ele>
        <time>2014-03-26T07:06:40Z</time>
      </trkpt>
      <trkpt lat="44.34448" lon="2.60856">
        <ele>631.7233887</ele>
        <time>2014-03-26T07:06:45Z</time>
      </trkpt>
      <trkpt lat="44.34453" lon="2.60841">
        <ele>631.7233887</ele>
        <time>2014-03-26T07:06:50Z</time>
      </trkpt>
      <trkpt lat="44.34461" lon="2.60821">
        <ele>632.6848145</ele>
        <time>2014-03-26T07:06:56Z</time>
      </trkpt>
      <trkpt lat="44.34468" lon="2.60801">
        <ele>633.6459961</ele>
        <time>2014-03-26T07:07:02Z</time>
      </trkpt>
      <trkpt lat="44.34472" lon="2.60784">
        <ele>633.6459961</ele>
        <time>2014-03-26T07:07:07Z</time>
      </trkpt>
      <trkpt lat="44.34477" lon="2.60771">
        <ele>633.6459961</ele>
        <time>2014-03-26T07:07:12Z</time>
      </trkpt>
      <trkpt lat="44.34477" lon="2.60769">
        <ele>632.6848145</ele>
        <time>2014-03-26T07:07:17Z</time>
      </trkpt>
      <trkpt lat="44.34479" lon="2.60764">
        <ele>632.2041016</ele>
        <time>2014-03-26T07:07:22Z</time>
      </trkpt>
      <trkpt lat="44.34485" lon="2.60749">
        <ele>631.2429199</ele>
        <time>2014-03-26T07:07:27Z</time>
      </trkpt>
      <trkpt lat="44.34489" lon="2.6074">
        <ele>630.762207</ele>
        <time>2014-03-26T07:07:30Z</time>
      </trkpt>
      <trkpt lat="44.34486" lon="2.60729">
        <ele>631.7233887</ele>
        <time>2014-03-26T07:07:35Z</time>
      </trkpt>
      <trkpt lat="44.34469" lon="2.6074">
        <ele>630.2814941</ele>
        <time>2014-03-26T07:07:43Z</time>
      </trkpt>
      <trkpt lat="44.34456" lon="2.60753">
        <ele>629.8007813</ele>
        <time>2014-03-26T07:07:49Z</time>
      </trkpt>
      <trkpt lat="44.34451" lon="2.60756">
        <ele>629.3200684</ele>
        <time>2014-03-26T07:07:52Z</time>
      </trkpt>
      <trkpt lat="44.34446" lon="2.60758">
        <ele>633.1652832</ele>
        <time>2014-03-26T07:08:01Z</time>
      </trkpt>
      <trkpt lat="44.34447" lon="2.60758">
        <ele>633.6459961</ele>
        <time>2014-03-26T07:08:03Z</time>
      </trkpt>
      <trkpt lat="44.3446" lon="2.60747">
        <ele>633.1652832</ele>
        <time>2014-03-26T07:08:10Z</time>
      </trkpt>
      <trkpt lat="44.34471" lon="2.60738">
        <ele>634.6074219</ele>
        <time>2014-03-26T07:08:15Z</time>
      </trkpt>
      <trkpt lat="44.34478" lon="2.60731">
        <ele>634.6074219</ele>
        <time>2014-03-26T07:08:19Z</time>
      </trkpt>
      <trkpt lat="44.34482" lon="2.60729">
        <ele>634.6074219</ele>
        <time>2014-03-26T07:08:22Z</time>
      </trkpt>
      <trkpt lat="44.34482" lon="2.60728">
        <ele>634.6074219</ele>
        <time>2014-03-26T07:08:29Z</time>
      </trkpt>
      <trkpt lat="44.34481" lon="2.60727">
        <ele>634.6074219</ele>
        <time>2014-03-26T07:08:32Z</time>
      </trkpt>
      <trkpt lat="44.34489" lon="2.60719">
        <ele>634.126709</ele>
        <time>2014-03-26T07:08:37Z</time>
      </trkpt>
      <trkpt lat="44.34503" lon="2.60709">
        <ele>635.0881348</ele>
        <time>2014-03-26T07:08:43Z</time>
      </trkpt>
      <trkpt lat="44.34517" lon="2.60696">
        <ele>637.972168</ele>
        <time>2014-03-26T07:08:49Z</time>
      </trkpt>
      <trkpt lat="44.34527" lon="2.60685">
        <ele>637.972168</ele>
        <time>2014-03-26T07:08:54Z</time>
      </trkpt>
      <trkpt lat="44.34537" lon="2.60668">
        <ele>639.8947754</ele>
        <time>2014-03-26T07:09:00Z</time>
      </trkpt>
      <trkpt lat="44.34546" lon="2.60649">
        <ele>641.3366699</ele>
        <time>2014-03-26T07:09:06Z</time>
      </trkpt>
      <trkpt lat="44.34558" lon="2.60635">
        <ele>642.2980957</ele>
        <time>2014-03-26T07:09:12Z</time>
      </trkpt>
      <trkpt lat="44.34574" lon="2.60625">
        <ele>642.7788086</ele>
        <time>2014-03-26T07:09:19Z</time>
      </trkpt>
      <trkpt lat="44.34588" lon="2.60618">
        <ele>643.2592773</ele>
        <time>2014-03-26T07:09:25Z</time>
      </trkpt>
      <trkpt lat="44.34599" lon="2.60612">
        <ele>643.2592773</ele>
        <time>2014-03-26T07:09:30Z</time>
      </trkpt>
      <trkpt lat="44.34614" lon="2.60605">
        <ele>642.7788086</ele>
        <time>2014-03-26T07:09:36Z</time>
      </trkpt>
      <trkpt lat="44.34623" lon="2.60601">
        <ele>642.2980957</ele>
        <time>2014-03-26T07:09:40Z</time>
      </trkpt>
      <trkpt lat="44.34636" lon="2.60596">
        <ele>643.2592773</ele>
        <time>2014-03-26T07:09:45Z</time>
      </trkpt>
      <trkpt lat="44.34646" lon="2.60591">
        <ele>643.7399902</ele>
        <time>2014-03-26T07:09:50Z</time>
      </trkpt>
      <trkpt lat="44.34649" lon="2.60592">
        <ele>643.2592773</ele>
        <time>2014-03-26T07:09:56Z</time>
      </trkpt>
      <trkpt lat="44.3465" lon="2.60592">
        <ele>642.7788086</ele>
        <time>2014-03-26T07:10:00Z</time>
      </trkpt>
      <trkpt lat="44.34663" lon="2.60586">
        <ele>641.8173828</ele>
        <time>2014-03-26T07:10:06Z</time>
      </trkpt>
      <trkpt lat="44.34679" lon="2.6058">
        <ele>639.8947754</ele>
        <time>2014-03-26T07:10:12Z</time>
      </trkpt>
      <trkpt lat="44.34696" lon="2.60571">
        <ele>637.4914551</ele>
        <time>2014-03-26T07:10:18Z</time>
      </trkpt>
      <trkpt lat="44.34712" lon="2.6056">
        <ele>637.4914551</ele>
        <time>2014-03-26T07:10:24Z</time>
      </trkpt>
      <trkpt lat="44.34727" lon="2.60546">
        <ele>638.4528809</ele>
        <time>2014-03-26T07:10:30Z</time>
      </trkpt>
      <trkpt lat="44.34743" lon="2.60529">
        <ele>638.9335938</ele>
        <time>2014-03-26T07:10:37Z</time>
      </trkpt>
      <trkpt lat="44.34755" lon="2.60517">
        <ele>637.0107422</ele>
        <time>2014-03-26T07:10:42Z</time>
      </trkpt>
      <trkpt lat="44.3477" lon="2.6051">
        <ele>634.6074219</ele>
        <time>2014-03-26T07:10:47Z</time>
      </trkpt>
      <trkpt lat="44.34782" lon="2.6051">
        <ele>632.2041016</ele>
        <time>2014-03-26T07:10:51Z</time>
      </trkpt>
      <trkpt lat="44.34795" lon="2.6051">
        <ele>630.2814941</ele>
        <time>2014-03-26T07:10:56Z</time>
      </trkpt>
      <trkpt lat="44.34815" lon="2.60509">
        <ele>625.9555664</ele>
        <time>2014-03-26T07:11:03Z</time>
      </trkpt>
      <trkpt lat="44.34826" lon="2.6051">
        <ele>623.5524902</ele>
        <time>2014-03-26T07:11:07Z</time>
      </trkpt>
      <trkpt lat="44.34834" lon="2.60518">
        <ele>620.1877441</ele>
        <time>2014-03-26T07:11:11Z</time>
      </trkpt>
      <trkpt lat="44.34846" lon="2.60517">
        <ele>616.3422852</ele>
        <time>2014-03-26T07:11:16Z</time>
      </trkpt>
      <trkpt lat="44.34861" lon="2.60501">
        <ele>612.9777832</ele>
        <time>2014-03-26T07:11:22Z</time>
      </trkpt>
      <trkpt lat="44.34874" lon="2.60485">
        <ele>611.5358887</ele>
        <time>2014-03-26T07:11:28Z</time>
      </trkpt>
      <trkpt lat="44.34886" lon="2.60478">
        <ele>610.5744629</ele>
        <time>2014-03-26T07:11:32Z</time>
      </trkpt>
      <trkpt lat="44.34896" lon="2.60471">
        <ele>609.1325684</ele>
        <time>2014-03-26T07:11:36Z</time>
      </trkpt>
      <trkpt lat="44.3491" lon="2.60465">
        <ele>607.2099609</ele>
        <time>2014-03-26T07:11:41Z</time>
      </trkpt>
      <trkpt lat="44.34924" lon="2.60456">
        <ele>604.8066406</ele>
        <time>2014-03-26T07:11:46Z</time>
      </trkpt>
      <trkpt lat="44.34926" lon="2.60454">
        <ele>604.8066406</ele>
        <time>2014-03-26T07:11:47Z</time>
      </trkpt>
      <trkpt lat="44.34935" lon="2.60454">
        <ele>603.364502</ele>
        <time>2014-03-26T07:11:52Z</time>
      </trkpt>
      <trkpt lat="44.34946" lon="2.60456">
        <ele>604.3261719</ele>
        <time>2014-03-26T07:11:58Z</time>
      </trkpt>
      <trkpt lat="44.34949" lon="2.60457">
        <ele>607.2099609</ele>
        <time>2014-03-26T07:12:03Z</time>
      </trkpt>
      <trkpt lat="44.34949" lon="2.60459">
        <ele>609.1325684</ele>
        <time>2014-03-26T07:12:07Z</time>
      </trkpt>
      <trkpt lat="44.34953" lon="2.60459">
        <ele>609.6132813</ele>
        <time>2014-03-26T07:12:12Z</time>
      </trkpt>
      <trkpt lat="44.3496" lon="2.60462">
        <ele>610.5744629</ele>
        <time>2014-03-26T07:12:17Z</time>
      </trkpt>
      <trkpt lat="44.34962" lon="2.60463">
        <ele>610.5744629</ele>
        <time>2014-03-26T07:12:19Z</time>
      </trkpt>
      <trkpt lat="44.34965" lon="2.60463">
        <ele>610.5744629</ele>
        <time>2014-03-26T07:12:23Z</time>
      </trkpt>
      <trkpt lat="44.34972" lon="2.60467">
        <ele>610.09375</ele>
        <time>2014-03-26T07:12:28Z</time>
      </trkpt>
      <trkpt lat="44.34978" lon="2.60464">
        <ele>609.6132813</ele>
        <time>2014-03-26T07:12:31Z</time>
      </trkpt>
      <trkpt lat="44.34991" lon="2.60454">
        <ele>611.0551758</ele>
        <time>2014-03-26T07:12:38Z</time>
      </trkpt>
      <trkpt lat="44.35005" lon="2.60445">
        <ele>612.4970703</ele>
        <time>2014-03-26T07:12:44Z</time>
      </trkpt>
      <trkpt lat="44.3502" lon="2.60433">
        <ele>614.9003906</ele>
        <time>2014-03-26T07:12:52Z</time>
      </trkpt>
      <trkpt lat="44.35033" lon="2.60433">
        <ele>615.8618164</ele>
        <time>2014-03-26T07:12:58Z</time>
      </trkpt>
      <trkpt lat="44.35047" lon="2.60435">
        <ele>616.822998</ele>
        <time>2014-03-26T07:13:04Z</time>
      </trkpt>
      <trkpt lat="44.35061" lon="2.60438">
        <ele>616.3422852</ele>
        <time>2014-03-26T07:13:10Z</time>
      </trkpt>
      <trkpt lat="44.35064" lon="2.60438">
        <ele>616.822998</ele>
        <time>2014-03-26T07:13:11Z</time>
      </trkpt>
      <trkpt lat="44.35075" lon="2.60436">
        <ele>617.7841797</ele>
        <time>2014-03-26T07:13:16Z</time>
      </trkpt>
      <trkpt lat="44.35078" lon="2.60435">
        <ele>616.3422852</ele>
        <time>2014-03-26T07:13:21Z</time>
      </trkpt>
      <trkpt lat="44.35079" lon="2.60435">
        <ele>617.3037109</ele>
        <time>2014-03-26T07:13:24Z</time>
      </trkpt>
      <trkpt lat="44.35091" lon="2.60436">
        <ele>615.8618164</ele>
        <time>2014-03-26T07:13:30Z</time>
      </trkpt>
      <trkpt lat="44.35101" lon="2.60436">
        <ele>616.822998</ele>
        <time>2014-03-26T07:13:36Z</time>
      </trkpt>
      <trkpt lat="44.35103" lon="2.60436">
        <ele>617.7841797</ele>
        <time>2014-03-26T07:13:41Z</time>
      </trkpt>
      <trkpt lat="44.35111" lon="2.60429">
        <ele>618.2648926</ele>
        <time>2014-03-26T07:13:46Z</time>
      </trkpt>
      <trkpt lat="44.35125" lon="2.60424">
        <ele>617.3037109</ele>
        <time>2014-03-26T07:13:52Z</time>
      </trkpt>
      <trkpt lat="44.35135" lon="2.60415">
        <ele>618.2648926</ele>
        <time>2014-03-26T07:13:58Z</time>
      </trkpt>
      <trkpt lat="44.35135" lon="2.60414">
        <ele>618.7456055</ele>
        <time>2014-03-26T07:14:06Z</time>
      </trkpt>
      <trkpt lat="44.35136" lon="2.60415">
        <ele>619.2263184</ele>
        <time>2014-03-26T07:14:13Z</time>
      </trkpt>
      <trkpt lat="44.35136" lon="2.60415">
        <ele>619.7070313</ele>
        <time>2014-03-26T07:14:21Z</time>
      </trkpt>
      <trkpt lat="44.35137" lon="2.60415">
        <ele>620.1877441</ele>
        <time>2014-03-26T07:14:31Z</time>
      </trkpt>
      <trkpt lat="44.35137" lon="2.60416">
        <ele>620.1877441</ele>
        <time>2014-03-26T07:14:38Z</time>
      </trkpt>
      <trkpt lat="44.35138" lon="2.60415">
        <ele>620.1877441</ele>
        <time>2014-03-26T07:14:39Z</time>
      </trkpt>
      <trkpt lat="44.35143" lon="2.60415">
        <ele>619.7070313</ele>
        <time>2014-03-26T07:14:43Z</time>
      </trkpt>
      <trkpt lat="44.35156" lon="2.60407">
        <ele>618.2648926</ele>
        <time>2014-03-26T07:14:53Z</time>
      </trkpt>
      <trkpt lat="44.3517" lon="2.60398">
        <ele>617.7841797</ele>
        <time>2014-03-26T07:14:59Z</time>
      </trkpt>
      <trkpt lat="44.3518" lon="2.60391">
        <ele>617.3037109</ele>
        <time>2014-03-26T07:15:03Z</time>
      </trkpt>
      <trkpt lat="44.35192" lon="2.60383">
        <ele>616.3422852</ele>
        <time>2014-03-26T07:15:08Z</time>
      </trkpt>
      <trkpt lat="44.35198" lon="2.60378">
        <ele>616.3422852</ele>
        <time>2014-03-26T07:15:12Z</time>
      </trkpt>
      <trkpt lat="44.35206" lon="2.60373">
        <ele>616.3422852</ele>
        <time>2014-03-26T07:15:18Z</time>
      </trkpt>
      <trkpt lat="44.35209" lon="2.60365">
        <ele>615.3811035</ele>
        <time>2014-03-26T07:15:21Z</time>
      </trkpt>
      <trkpt lat="44.35207" lon="2.60361">
        <ele>615.3811035</ele>
        <time>2014-03-26T07:15:25Z</time>
      </trkpt>
      <trkpt lat="44.35208" lon="2.60361">
        <ele>614.9003906</ele>
        <time>2014-03-26T07:15:32Z</time>
      </trkpt>
      <trkpt lat="44.35212" lon="2.60361">
        <ele>614.4196777</ele>
        <time>2014-03-26T07:15:37Z</time>
      </trkpt>
      <trkpt lat="44.35213" lon="2.60364">
        <ele>614.9003906</ele>
        <time>2014-03-26T07:15:41Z</time>
      </trkpt>
      <trkpt lat="44.35223" lon="2.60359">
        <ele>613.9389648</ele>
        <time>2014-03-26T07:15:46Z</time>
      </trkpt>
      <trkpt lat="44.35226" lon="2.60358">
        <ele>613.4584961</ele>
        <time>2014-03-26T07:15:47Z</time>
      </trkpt>
      <trkpt lat="44.3524" lon="2.60346">
        <ele>612.0166016</ele>
        <time>2014-03-26T07:15:53Z</time>
      </trkpt>
      <trkpt lat="44.35255" lon="2.60333">
        <ele>612.0166016</ele>
        <time>2014-03-26T07:15:59Z</time>
      </trkpt>
      <trkpt lat="44.35267" lon="2.60319">
        <ele>612.9777832</ele>
        <time>2014-03-26T07:16:05Z</time>
      </trkpt>
      <trkpt lat="44.35269" lon="2.60317">
        <ele>612.9777832</ele>
        <time>2014-03-26T07:16:06Z</time>
      </trkpt>
      <trkpt lat="44.35269" lon="2.60314">
        <ele>612.9777832</ele>
        <time>2014-03-26T07:16:14Z</time>
      </trkpt>
      <trkpt lat="44.35281" lon="2.60302">
        <ele>612.4970703</ele>
        <time>2014-03-26T07:16:20Z</time>
      </trkpt>
      <trkpt lat="44.35292" lon="2.60289">
        <ele>612.9777832</ele>
        <time>2014-03-26T07:16:25Z</time>
      </trkpt>
      <trkpt lat="44.35303" lon="2.60273">
        <ele>612.0166016</ele>
        <time>2014-03-26T07:16:31Z</time>
      </trkpt>
      <trkpt lat="44.35303" lon="2.60271">
        <ele>611.5358887</ele>
        <time>2014-03-26T07:16:33Z</time>
      </trkpt>
      <trkpt lat="44.35304" lon="2.6027">
        <ele>611.0551758</ele>
        <time>2014-03-26T07:16:38Z</time>
      </trkpt>
      <trkpt lat="44.35306" lon="2.60267">
        <ele>610.09375</ele>
        <time>2014-03-26T07:16:40Z</time>
      </trkpt>
      <trkpt lat="44.35313" lon="2.60254">
        <ele>609.1325684</ele>
        <time>2014-03-26T07:16:49Z</time>
      </trkpt>
      <trkpt lat="44.35319" lon="2.60243">
        <ele>609.6132813</ele>
        <time>2014-03-26T07:16:59Z</time>
      </trkpt>
      <trkpt lat="44.35326" lon="2.60232">
        <ele>609.1325684</ele>
        <time>2014-03-26T07:17:08Z</time>
      </trkpt>
      <trkpt lat="44.3533" lon="2.60225">
        <ele>609.1325684</ele>
        <time>2014-03-26T07:17:14Z</time>
      </trkpt>
      <trkpt lat="44.35328" lon="2.60222">
        <ele>611.5358887</ele>
        <time>2014-03-26T07:17:22Z</time>
      </trkpt>
      <trkpt lat="44.35328" lon="2.60209">
        <ele>610.5744629</ele>
        <time>2014-03-26T07:17:28Z</time>
      </trkpt>
      <trkpt lat="44.35328" lon="2.60208">
        <ele>611.0551758</ele>
        <time>2014-03-26T07:17:33Z</time>
      </trkpt>
      <trkpt lat="44.35335" lon="2.60195">
        <ele>609.6132813</ele>
        <time>2014-03-26T07:17:38Z</time>
      </trkpt>
      <trkpt lat="44.3534" lon="2.60179">
        <ele>607.6906738</ele>
        <time>2014-03-26T07:17:43Z</time>
      </trkpt>
      <trkpt lat="44.35342" lon="2.60163">
        <ele>606.729248</ele>
        <time>2014-03-26T07:17:47Z</time>
      </trkpt>
      <trkpt lat="44.35342" lon="2.60143">
        <ele>605.2873535</ele>
        <time>2014-03-26T07:17:52Z</time>
      </trkpt>
      <trkpt lat="44.35341" lon="2.60136">
        <ele>605.2873535</ele>
        <time>2014-03-26T07:17:54Z</time>
      </trkpt>
      <trkpt lat="44.35335" lon="2.6013">
        <ele>604.3261719</ele>
        <time>2014-03-26T07:17:58Z</time>
      </trkpt>
      <trkpt lat="44.35328" lon="2.60138">
        <ele>603.8452148</ele>
        <time>2014-03-26T07:18:02Z</time>
      </trkpt>
      <trkpt lat="44.35326" lon="2.6014">
        <ele>603.8452148</ele>
        <time>2014-03-26T07:18:03Z</time>
      </trkpt>
      <trkpt lat="44.35311" lon="2.60158">
        <ele>604.8066406</ele>
        <time>2014-03-26T07:18:10Z</time>
      </trkpt>
      <trkpt lat="44.353" lon="2.60172">
        <ele>605.2873535</ele>
        <time>2014-03-26T07:18:16Z</time>
      </trkpt>
      <trkpt lat="44.35288" lon="2.60187">
        <ele>605.2873535</ele>
        <time>2014-03-26T07:18:22Z</time>
      </trkpt>
      <trkpt lat="44.35277" lon="2.60196">
        <ele>605.2873535</ele>
        <time>2014-03-26T07:18:28Z</time>
      </trkpt>
      <trkpt lat="44.35274" lon="2.60198">
        <ele>605.2873535</ele>
        <time>2014-03-26T07:18:30Z</time>
      </trkpt>
      <trkpt lat="44.35271" lon="2.60207">
        <ele>605.7680664</ele>
        <time>2014-03-26T07:18:35Z</time>
      </trkpt>
      <trkpt lat="44.35269" lon="2.60199">
        <ele>605.7680664</ele>
        <time>2014-03-26T07:18:41Z</time>
      </trkpt>
      <trkpt lat="44.35269" lon="2.60199">
        <ele>605.7680664</ele>
        <time>2014-03-26T07:18:46Z</time>
      </trkpt>
      <trkpt lat="44.35275" lon="2.60199">
        <ele>605.7680664</ele>
        <time>2014-03-26T07:18:50Z</time>
      </trkpt>
      <trkpt lat="44.35281" lon="2.60189">
        <ele>605.2873535</ele>
        <time>2014-03-26T07:18:56Z</time>
      </trkpt>
      <trkpt lat="44.35286" lon="2.60183">
        <ele>605.7680664</ele>
        <time>2014-03-26T07:19:01Z</time>
      </trkpt>
      <trkpt lat="44.35296" lon="2.6017">
        <ele>605.2873535</ele>
        <time>2014-03-26T07:19:06Z</time>
      </trkpt>
      <trkpt lat="44.35311" lon="2.60152">
        <ele>605.7680664</ele>
        <time>2014-03-26T07:19:13Z</time>
      </trkpt>
      <trkpt lat="44.35319" lon="2.60143">
        <ele>605.2873535</ele>
        <time>2014-03-26T07:19:18Z</time>
      </trkpt>
      <trkpt lat="44.35321" lon="2.6014">
        <ele>603.364502</ele>
        <time>2014-03-26T07:19:23Z</time>
      </trkpt>
      <trkpt lat="44.35331" lon="2.60129">
        <ele>602.8837891</ele>
        <time>2014-03-26T07:19:28Z</time>
      </trkpt>
      <trkpt lat="44.3534" lon="2.60119">
        <ele>601.9226074</ele>
        <time>2014-03-26T07:19:32Z</time>
      </trkpt>
      <trkpt lat="44.35342" lon="2.60096">
        <ele>599.0385742</ele>
        <time>2014-03-26T07:19:38Z</time>
      </trkpt>
      <trkpt lat="44.35343" lon="2.60076">
        <ele>597.5966797</ele>
        <time>2014-03-26T07:19:43Z</time>
      </trkpt>
      <trkpt lat="44.35344" lon="2.60073">
        <ele>596.635498</ele>
        <time>2014-03-26T07:19:44Z</time>
      </trkpt>
      <trkpt lat="44.35343" lon="2.6007">
        <ele>597.5966797</ele>
        <time>2014-03-26T07:19:52Z</time>
      </trkpt>
      <trkpt lat="44.35343" lon="2.60069">
        <ele>597.5966797</ele>
        <time>2014-03-26T07:19:53Z</time>
      </trkpt>
      <trkpt lat="44.35346" lon="2.60046">
        <ele>596.635498</ele>
        <time>2014-03-26T07:19:59Z</time>
      </trkpt>
      <trkpt lat="44.35352" lon="2.60027">
        <ele>595.6740723</ele>
        <time>2014-03-26T07:20:04Z</time>
      </trkpt>
      <trkpt lat="44.3536" lon="2.60008">
        <ele>593.270752</ele>
        <time>2014-03-26T07:20:10Z</time>
      </trkpt>
      <trkpt lat="44.35359" lon="2.59999">
        <ele>592.3095703</ele>
        <time>2014-03-26T07:20:13Z</time>
      </trkpt>
      <trkpt lat="44.35351" lon="2.59996">
        <ele>591.8288574</ele>
        <time>2014-03-26T07:20:18Z</time>
      </trkpt>
      <trkpt lat="44.35351" lon="2.59995">
        <ele>591.8288574</ele>
        <time>2014-03-26T07:20:21Z</time>
      </trkpt>
      <trkpt lat="44.35348" lon="2.59985">
        <ele>591.8288574</ele>
        <time>2014-03-26T07:20:25Z</time>
      </trkpt>
      <trkpt lat="44.35335" lon="2.59976">
        <ele>593.270752</ele>
        <time>2014-03-26T07:20:31Z</time>
      </trkpt>
      <trkpt lat="44.35333" lon="2.59977">
        <ele>593.270752</ele>
        <time>2014-03-26T07:20:32Z</time>
      </trkpt>
      <trkpt lat="44.35322" lon="2.5999">
        <ele>593.270752</ele>
        <time>2014-03-26T07:20:38Z</time>
      </trkpt>
      <trkpt lat="44.35314" lon="2.60006">
        <ele>592.3095703</ele>
        <time>2014-03-26T07:20:43Z</time>
      </trkpt>
      <trkpt lat="44.35307" lon="2.60022">
        <ele>592.7902832</ele>
        <time>2014-03-26T07:20:48Z</time>
      </trkpt>
      <trkpt lat="44.35304" lon="2.60027">
        <ele>593.7514648</ele>
        <time>2014-03-26T07:20:51Z</time>
      </trkpt>
      <trkpt lat="44.353" lon="2.60031">
        <ele>593.7514648</ele>
        <time>2014-03-26T07:20:56Z</time>
      </trkpt>
      <trkpt lat="44.35294" lon="2.60036">
        <ele>593.7514648</ele>
        <time>2014-03-26T07:21:02Z</time>
      </trkpt>
      <trkpt lat="44.35295" lon="2.60036">
        <ele>594.7126465</ele>
        <time>2014-03-26T07:21:04Z</time>
      </trkpt>
      <trkpt lat="44.35303" lon="2.60023">
        <ele>595.1933594</ele>
        <time>2014-03-26T07:21:10Z</time>
      </trkpt>
      <trkpt lat="44.35311" lon="2.60005">
        <ele>595.6740723</ele>
        <time>2014-03-26T07:21:16Z</time>
      </trkpt>
      <trkpt lat="44.35315" lon="2.59989">
        <ele>596.635498</ele>
        <time>2014-03-26T07:21:21Z</time>
      </trkpt>
      <trkpt lat="44.35314" lon="2.59973">
        <ele>596.1547852</ele>
        <time>2014-03-26T07:21:27Z</time>
      </trkpt>
      <trkpt lat="44.35314" lon="2.59972">
        <ele>596.1547852</ele>
        <time>2014-03-26T07:21:28Z</time>
      </trkpt>
      <trkpt lat="44.3531" lon="2.59967">
        <ele>595.6740723</ele>
        <time>2014-03-26T07:21:32Z</time>
      </trkpt>
      <trkpt lat="44.35308" lon="2.59968">
        <ele>596.1547852</ele>
        <time>2014-03-26T07:21:39Z</time>
      </trkpt>
      <trkpt lat="44.35308" lon="2.59968">
        <ele>596.635498</ele>
        <time>2014-03-26T07:22:01Z</time>
      </trkpt>
      <trkpt lat="44.35308" lon="2.59969">
        <ele>595.6740723</ele>
        <time>2014-03-26T07:22:09Z</time>
      </trkpt>
      <trkpt lat="44.35308" lon="2.59968">
        <ele>595.1933594</ele>
        <time>2014-03-26T07:22:10Z</time>
      </trkpt>
      <trkpt lat="44.35313" lon="2.59954">
        <ele>596.635498</ele>
        <time>2014-03-26T07:22:16Z</time>
      </trkpt>
      <trkpt lat="44.3531" lon="2.59951">
        <ele>596.635498</ele>
        <time>2014-03-26T07:22:21Z</time>
      </trkpt>
      <trkpt lat="44.35313" lon="2.59952">
        <ele>596.635498</ele>
        <time>2014-03-26T07:22:26Z</time>
      </trkpt>
      <trkpt lat="44.35325" lon="2.59962">
        <ele>595.1933594</ele>
        <time>2014-03-26T07:22:34Z</time>
      </trkpt>
      <trkpt lat="44.35329" lon="2.59963">
        <ele>596.1547852</ele>
        <time>2014-03-26T07:22:40Z</time>
      </trkpt>
      <trkpt lat="44.35329" lon="2.59963">
        <ele>597.5966797</ele>
        <time>2014-03-26T07:22:47Z</time>
      </trkpt>
      <trkpt lat="44.3534" lon="2.59976">
        <ele>597.5966797</ele>
        <time>2014-03-26T07:22:54Z</time>
      </trkpt>
      <trkpt lat="44.35343" lon="2.59977">
        <ele>597.5966797</ele>
        <time>2014-03-26T07:22:55Z</time>
      </trkpt>
      <trkpt lat="44.3535" lon="2.59981">
        <ele>597.1159668</ele>
        <time>2014-03-26T07:22:59Z</time>
      </trkpt>
      <trkpt lat="44.35351" lon="2.59981">
        <ele>596.635498</ele>
        <time>2014-03-26T07:23:02Z</time>
      </trkpt>
      <trkpt lat="44.35363" lon="2.59992">
        <ele>596.635498</ele>
        <time>2014-03-26T07:23:09Z</time>
      </trkpt>
      <trkpt lat="44.35367" lon="2.59994">
        <ele>596.635498</ele>
        <time>2014-03-26T07:23:11Z</time>
      </trkpt>
      <trkpt lat="44.35379" lon="2.59985">
        <ele>595.6740723</ele>
        <time>2014-03-26T07:23:17Z</time>
      </trkpt>
      <trkpt lat="44.35388" lon="2.59972">
        <ele>592.7902832</ele>
        <time>2014-03-26T07:23:22Z</time>
      </trkpt>
      <trkpt lat="44.35397" lon="2.59959">
        <ele>590.3869629</ele>
        <time>2014-03-26T07:23:27Z</time>
      </trkpt>
      <trkpt lat="44.35406" lon="2.59949">
        <ele>587.9833984</ele>
        <time>2014-03-26T07:23:31Z</time>
      </trkpt>
      <trkpt lat="44.35416" lon="2.5994">
        <ele>586.5415039</ele>
        <time>2014-03-26T07:23:35Z</time>
      </trkpt>
      <trkpt lat="44.35426" lon="2.59932">
        <ele>585.0996094</ele>
        <time>2014-03-26T07:23:39Z</time>
      </trkpt>
      <trkpt lat="44.35439" lon="2.59921">
        <ele>584.6188965</ele>
        <time>2014-03-26T07:23:44Z</time>
      </trkpt>
      <trkpt lat="44.35452" lon="2.59908">
        <ele>581.7348633</ele>
        <time>2014-03-26T07:23:49Z</time>
      </trkpt>
      <trkpt lat="44.35462" lon="2.59892">
        <ele>578.3703613</ele>
        <time>2014-03-26T07:23:54Z</time>
      </trkpt>
      <trkpt lat="44.35472" lon="2.59873">
        <ele>576.4477539</ele>
        <time>2014-03-26T07:24:00Z</time>
      </trkpt>
      <trkpt lat="44.3548" lon="2.59855">
        <ele>574.5251465</ele>
        <time>2014-03-26T07:24:05Z</time>
      </trkpt>
      <trkpt lat="44.35489" lon="2.5984">
        <ele>571.6408691</ele>
        <time>2014-03-26T07:24:10Z</time>
      </trkpt>
      <trkpt lat="44.35501" lon="2.59828">
        <ele>569.7185059</ele>
        <time>2014-03-26T07:24:15Z</time>
      </trkpt>
      <trkpt lat="44.35517" lon="2.59819">
        <ele>564.9118652</ele>
        <time>2014-03-26T07:24:21Z</time>
      </trkpt>
      <trkpt lat="44.35533" lon="2.59808">
        <ele>560.1052246</ele>
        <time>2014-03-26T07:24:27Z</time>
      </trkpt>
      <trkpt lat="44.35549" lon="2.59799">
        <ele>556.2600098</ele>
        <time>2014-03-26T07:24:33Z</time>
      </trkpt>
      <trkpt lat="44.35553" lon="2.59796">
        <ele>555.7792969</ele>
        <time>2014-03-26T07:24:35Z</time>
      </trkpt>
      <trkpt lat="44.35564" lon="2.59787">
        <ele>551.4533691</ele>
        <time>2014-03-26T07:24:40Z</time>
      </trkpt>
      <trkpt lat="44.35577" lon="2.59776">
        <ele>547.6081543</ele>
        <time>2014-03-26T07:24:46Z</time>
      </trkpt>
      <trkpt lat="44.35593" lon="2.59764">
        <ele>543.2821045</ele>
        <time>2014-03-26T07:24:52Z</time>
      </trkpt>
      <trkpt lat="44.35606" lon="2.59752">
        <ele>540.3983154</ele>
        <time>2014-03-26T07:24:57Z</time>
      </trkpt>
      <trkpt lat="44.35617" lon="2.59739">
        <ele>537.5142822</ele>
        <time>2014-03-26T07:25:02Z</time>
      </trkpt>
      <trkpt lat="44.35632" lon="2.59724">
        <ele>536.5531006</ele>
        <time>2014-03-26T07:25:08Z</time>
      </trkpt>
      <trkpt lat="44.35642" lon="2.59713">
        <ele>533.1883545</ele>
        <time>2014-03-26T07:25:13Z</time>
      </trkpt>
      <trkpt lat="44.3564" lon="2.59696">
        <ele>530.3044434</ele>
        <time>2014-03-26T07:25:18Z</time>
      </trkpt>
      <trkpt lat="44.35639" lon="2.59689">
        <ele>529.3431396</ele>
        <time>2014-03-26T07:25:20Z</time>
      </trkpt>
      <trkpt lat="44.35639" lon="2.59669">
        <ele>529.8237305</ele>
        <time>2014-03-26T07:25:25Z</time>
      </trkpt>
      <trkpt lat="44.35638" lon="2.59641">
        <ele>532.2270508</ele>
        <time>2014-03-26T07:25:32Z</time>
      </trkpt>
      <trkpt lat="44.35638" lon="2.59613">
        <ele>534.6303711</ele>
        <time>2014-03-26T07:25:39Z</time>
      </trkpt>
      <trkpt lat="44.35637" lon="2.59593">
        <ele>534.1496582</ele>
        <time>2014-03-26T07:25:44Z</time>
      </trkpt>
      <trkpt lat="44.35634" lon="2.59571">
        <ele>534.6303711</ele>
        <time>2014-03-26T07:25:50Z</time>
      </trkpt>
      <trkpt lat="44.35631" lon="2.59547">
        <ele>535.5915527</ele>
        <time>2014-03-26T07:25:56Z</time>
      </trkpt>
      <trkpt lat="44.35626" lon="2.59523">
        <ele>535.5915527</ele>
        <time>2014-03-26T07:26:02Z</time>
      </trkpt>
      <trkpt lat="44.35621" lon="2.59496">
        <ele>537.5142822</ele>
        <time>2014-03-26T07:26:09Z</time>
      </trkpt>
      <trkpt lat="44.35617" lon="2.59474">
        <ele>538.475708</ele>
        <time>2014-03-26T07:26:15Z</time>
      </trkpt>
      <trkpt lat="44.35613" lon="2.59456">
        <ele>538.9562988</ele>
        <time>2014-03-26T07:26:20Z</time>
      </trkpt>
      <trkpt lat="44.3561" lon="2.59439">
        <ele>537.5142822</ele>
        <time>2014-03-26T07:26:25Z</time>
      </trkpt>
      <trkpt lat="44.35604" lon="2.59424">
        <ele>535.5915527</ele>
        <time>2014-03-26T07:26:30Z</time>
      </trkpt>
      <trkpt lat="44.35597" lon="2.59408">
        <ele>534.1496582</ele>
        <time>2014-03-26T07:26:35Z</time>
      </trkpt>
      <trkpt lat="44.35589" lon="2.59392">
        <ele>532.2270508</ele>
        <time>2014-03-26T07:26:40Z</time>
      </trkpt>
      <trkpt lat="44.35581" lon="2.59377">
        <ele>532.2270508</ele>
        <time>2014-03-26T07:26:45Z</time>
      </trkpt>
      <trkpt lat="44.35572" lon="2.59364">
        <ele>531.2657471</ele>
        <time>2014-03-26T07:26:50Z</time>
      </trkpt>
      <trkpt lat="44.35561" lon="2.59347">
        <ele>532.7077637</ele>
        <time>2014-03-26T07:26:56Z</time>
      </trkpt>
      <trkpt lat="44.3555" lon="2.5933">
        <ele>532.2270508</ele>
        <time>2014-03-26T07:27:02Z</time>
      </trkpt>
      <trkpt lat="44.35539" lon="2.5932">
        <ele>533.1883545</ele>
        <time>2014-03-26T07:27:07Z</time>
      </trkpt>
      <trkpt lat="44.35521" lon="2.59308">
        <ele>534.6303711</ele>
        <time>2014-03-26T07:27:14Z</time>
      </trkpt>
      <trkpt lat="44.35508" lon="2.59303">
        <ele>536.5531006</ele>
        <time>2014-03-26T07:27:20Z</time>
      </trkpt>
      <trkpt lat="44.35495" lon="2.59302">
        <ele>536.5531006</ele>
        <time>2014-03-26T07:27:25Z</time>
      </trkpt>
      <trkpt lat="44.35485" lon="2.59304">
        <ele>537.5142822</ele>
        <time>2014-03-26T07:27:29Z</time>
      </trkpt>
      <trkpt lat="44.3547" lon="2.59313">
        <ele>538.475708</ele>
        <time>2014-03-26T07:27:36Z</time>
      </trkpt>
      <trkpt lat="44.35461" lon="2.59322">
        <ele>537.9949951</ele>
        <time>2014-03-26T07:27:41Z</time>
      </trkpt>
      <trkpt lat="44.35449" lon="2.5933">
        <ele>537.5142822</ele>
        <time>2014-03-26T07:27:47Z</time>
      </trkpt>
      <trkpt lat="44.35436" lon="2.59338">
        <ele>537.0336914</ele>
        <time>2014-03-26T07:27:53Z</time>
      </trkpt>
      <trkpt lat="44.3542" lon="2.59351">
        <ele>536.5531006</ele>
        <time>2014-03-26T07:28:00Z</time>
      </trkpt>
      <trkpt lat="44.35407" lon="2.59363">
        <ele>536.0723877</ele>
        <time>2014-03-26T07:28:05Z</time>
      </trkpt>
      <trkpt lat="44.35393" lon="2.59379">
        <ele>534.6303711</ele>
        <time>2014-03-26T07:28:12Z</time>
      </trkpt>
      <trkpt lat="44.35379" lon="2.59393">
        <ele>535.1109619</ele>
        <time>2014-03-26T07:28:18Z</time>
      </trkpt>
      <trkpt lat="44.35367" lon="2.59407">
        <ele>535.5915527</ele>
        <time>2014-03-26T07:28:24Z</time>
      </trkpt>
      <trkpt lat="44.35356" lon="2.59419">
        <ele>534.6303711</ele>
        <time>2014-03-26T07:28:29Z</time>
      </trkpt>
      <trkpt lat="44.35347" lon="2.5943">
        <ele>534.1496582</ele>
        <time>2014-03-26T07:28:34Z</time>
      </trkpt>
      <trkpt lat="44.35335" lon="2.59446">
        <ele>535.1109619</ele>
        <time>2014-03-26T07:28:40Z</time>
      </trkpt>
      <trkpt lat="44.35323" lon="2.59459">
        <ele>536.0723877</ele>
        <time>2014-03-26T07:28:46Z</time>
      </trkpt>
      <trkpt lat="44.35312" lon="2.59473">
        <ele>537.5142822</ele>
        <time>2014-03-26T07:28:52Z</time>
      </trkpt>
      <trkpt lat="44.35299" lon="2.59488">
        <ele>535.1109619</ele>
        <time>2014-03-26T07:28:58Z</time>
      </trkpt>
      <trkpt lat="44.3529" lon="2.59497">
        <ele>533.1883545</ele>
        <time>2014-03-26T07:29:02Z</time>
      </trkpt>
      <trkpt lat="44.35275" lon="2.59513">
        <ele>532.2270508</ele>
        <time>2014-03-26T07:29:08Z</time>
      </trkpt>
      <trkpt lat="44.35261" lon="2.59531">
        <ele>530.7851563</ele>
        <time>2014-03-26T07:29:15Z</time>
      </trkpt>
      <trkpt lat="44.35254" lon="2.59543">
        <ele>528.8625488</ele>
        <time>2014-03-26T07:29:19Z</time>
      </trkpt>
      <trkpt lat="44.35245" lon="2.59557">
        <ele>527.901001</ele>
        <time>2014-03-26T07:29:24Z</time>
      </trkpt>
      <trkpt lat="44.35239" lon="2.59568">
        <ele>526.9398193</ele>
        <time>2014-03-26T07:29:28Z</time>
      </trkpt>
      <trkpt lat="44.35226" lon="2.59586">
        <ele>526.9398193</ele>
        <time>2014-03-26T07:29:34Z</time>
      </trkpt>
      <trkpt lat="44.35214" lon="2.59604">
        <ele>525.9783936</ele>
        <time>2014-03-26T07:29:40Z</time>
      </trkpt>
      <trkpt lat="44.35202" lon="2.59618">
        <ele>525.0172119</ele>
        <time>2014-03-26T07:29:46Z</time>
      </trkpt>
      <trkpt lat="44.35191" lon="2.5963">
        <ele>526.4591064</ele>
        <time>2014-03-26T07:29:51Z</time>
      </trkpt>
      <trkpt lat="44.35177" lon="2.59644">
        <ele>527.4204102</ele>
        <time>2014-03-26T07:29:57Z</time>
      </trkpt>
      <trkpt lat="44.35161" lon="2.59661">
        <ele>528.8625488</ele>
        <time>2014-03-26T07:30:04Z</time>
      </trkpt>
      <trkpt lat="44.35147" lon="2.59675">
        <ele>528.8625488</ele>
        <time>2014-03-26T07:30:10Z</time>
      </trkpt>
      <trkpt lat="44.35137" lon="2.59688">
        <ele>528.3818359</ele>
        <time>2014-03-26T07:30:15Z</time>
      </trkpt>
      <trkpt lat="44.35126" lon="2.59701">
        <ele>527.901001</ele>
        <time>2014-03-26T07:30:21Z</time>
      </trkpt>
      <trkpt lat="44.35114" lon="2.59714">
        <ele>527.901001</ele>
        <time>2014-03-26T07:30:27Z</time>
      </trkpt>
      <trkpt lat="44.35101" lon="2.59728">
        <ele>528.8625488</ele>
        <time>2014-03-26T07:30:33Z</time>
      </trkpt>
      <trkpt lat="44.35086" lon="2.59742">
        <ele>530.7851563</ele>
        <time>2014-03-26T07:30:39Z</time>
      </trkpt>
      <trkpt lat="44.35069" lon="2.59752">
        <ele>530.3044434</ele>
        <time>2014-03-26T07:30:46Z</time>
      </trkpt>
      <trkpt lat="44.35055" lon="2.59762">
        <ele>529.8237305</ele>
        <time>2014-03-26T07:30:52Z</time>
      </trkpt>
      <trkpt lat="44.35043" lon="2.59766">
        <ele>529.3431396</ele>
        <time>2014-03-26T07:30:57Z</time>
      </trkpt>
      <trkpt lat="44.35031" lon="2.5977">
        <ele>532.2270508</ele>
        <time>2014-03-26T07:31:02Z</time>
      </trkpt>
      <trkpt lat="44.35013" lon="2.59771">
        <ele>535.5915527</ele>
        <time>2014-03-26T07:31:09Z</time>
      </trkpt>
      <trkpt lat="44.34999" lon="2.59768">
        <ele>538.475708</ele>
        <time>2014-03-26T07:31:14Z</time>
      </trkpt>
      <trkpt lat="44.34994" lon="2.59767">
        <ele>539.4368896</ele>
        <time>2014-03-26T07:31:16Z</time>
      </trkpt>
      <trkpt lat="44.3498" lon="2.59756">
        <ele>540.3983154</ele>
        <time>2014-03-26T07:31:22Z</time>
      </trkpt>
      <trkpt lat="44.34973" lon="2.59745">
        <ele>539.4368896</ele>
        <time>2014-03-26T07:31:26Z</time>
      </trkpt>
      <trkpt lat="44.34963" lon="2.59725">
        <ele>539.9176025</ele>
        <time>2014-03-26T07:31:32Z</time>
      </trkpt>
      <trkpt lat="44.34956" lon="2.5971">
        <ele>541.3594971</ele>
        <time>2014-03-26T07:31:37Z</time>
      </trkpt>
      <trkpt lat="44.34949" lon="2.59697">
        <ele>542.8015137</ele>
        <time>2014-03-26T07:31:42Z</time>
      </trkpt>
      <trkpt lat="44.3494" lon="2.59684">
        <ele>540.3983154</ele>
        <time>2014-03-26T07:31:47Z</time>
      </trkpt>
      <trkpt lat="44.34938" lon="2.59677">
        <ele>540.3983154</ele>
        <time>2014-03-26T07:31:49Z</time>
      </trkpt>
      <trkpt lat="44.3493" lon="2.59654">
        <ele>537.9949951</ele>
        <time>2014-03-26T07:31:56Z</time>
      </trkpt>
      <trkpt lat="44.34925" lon="2.59637">
        <ele>537.9949951</ele>
        <time>2014-03-26T07:32:01Z</time>
      </trkpt>
      <trkpt lat="44.3492" lon="2.59609">
        <ele>539.4368896</ele>
        <time>2014-03-26T07:32:08Z</time>
      </trkpt>
      <trkpt lat="44.34918" lon="2.5959">
        <ele>540.3983154</ele>
        <time>2014-03-26T07:32:13Z</time>
      </trkpt>
      <trkpt lat="44.34913" lon="2.59575">
        <ele>540.8789063</ele>
        <time>2014-03-26T07:32:17Z</time>
      </trkpt>
      <trkpt lat="44.34909" lon="2.59557">
        <ele>539.4368896</ele>
        <time>2014-03-26T07:32:22Z</time>
      </trkpt>
      <trkpt lat="44.34907" lon="2.59543">
        <ele>540.3983154</ele>
        <time>2014-03-26T07:32:26Z</time>
      </trkpt>
      <trkpt lat="44.34904" lon="2.59524">
        <ele>538.9562988</ele>
        <time>2014-03-26T07:32:31Z</time>
      </trkpt>
      <trkpt lat="44.34901" lon="2.59506">
        <ele>537.5142822</ele>
        <time>2014-03-26T07:32:36Z</time>
      </trkpt>
      <trkpt lat="44.34899" lon="2.5949">
        <ele>537.9949951</ele>
        <time>2014-03-26T07:32:40Z</time>
      </trkpt>
      <trkpt lat="44.34899" lon="2.59468">
        <ele>537.9949951</ele>
        <time>2014-03-26T07:32:46Z</time>
      </trkpt>
      <trkpt lat="44.34897" lon="2.59443">
        <ele>537.9949951</ele>
        <time>2014-03-26T07:32:52Z</time>
      </trkpt>
      <trkpt lat="44.34896" lon="2.59426">
        <ele>536.5531006</ele>
        <time>2014-03-26T07:32:57Z</time>
      </trkpt>
      <trkpt lat="44.34895" lon="2.59407">
        <ele>535.5915527</ele>
        <time>2014-03-26T07:33:02Z</time>
      </trkpt>
      <trkpt lat="44.34895" lon="2.59387">
        <ele>533.6689453</ele>
        <time>2014-03-26T07:33:08Z</time>
      </trkpt>
      <trkpt lat="44.34894" lon="2.59384">
        <ele>533.6689453</ele>
        <time>2014-03-26T07:33:09Z</time>
      </trkpt>
      <trkpt lat="44.34898" lon="2.59362">
        <ele>530.3044434</ele>
        <time>2014-03-26T07:33:15Z</time>
      </trkpt>
      <trkpt lat="44.34902" lon="2.59345">
        <ele>528.8625488</ele>
        <time>2014-03-26T07:33:20Z</time>
      </trkpt>
      <trkpt lat="44.34907" lon="2.59327">
        <ele>525.9783936</ele>
        <time>2014-03-26T07:33:25Z</time>
      </trkpt>
      <trkpt lat="44.34912" lon="2.59313">
        <ele>523.5751953</ele>
        <time>2014-03-26T07:33:29Z</time>
      </trkpt>
      <trkpt lat="44.34917" lon="2.59295">
        <ele>519.2492676</ele>
        <time>2014-03-26T07:33:34Z</time>
      </trkpt>
      <trkpt lat="44.34919" lon="2.59289">
        <ele>518.7685547</ele>
        <time>2014-03-26T07:33:36Z</time>
      </trkpt>
      <trkpt lat="44.34922" lon="2.59276">
        <ele>516.8459473</ele>
        <time>2014-03-26T07:33:40Z</time>
      </trkpt>
      <trkpt lat="44.34928" lon="2.59258">
        <ele>513.0007324</ele>
        <time>2014-03-26T07:33:46Z</time>
      </trkpt>
      <trkpt lat="44.3493" lon="2.5924">
        <ele>511.5587158</ele>
        <time>2014-03-26T07:33:51Z</time>
      </trkpt>
      <trkpt lat="44.34932" lon="2.59238">
        <ele>512.5200195</ele>
        <time>2014-03-26T07:33:52Z</time>
      </trkpt>
      <trkpt lat="44.34935" lon="2.59222">
        <ele>509.1553955</ele>
        <time>2014-03-26T07:33:56Z</time>
      </trkpt>
      <trkpt lat="44.34943" lon="2.59201">
        <ele>509.6361084</ele>
        <time>2014-03-26T07:34:02Z</time>
      </trkpt>
      <trkpt lat="44.34947" lon="2.59184">
        <ele>506.2714844</ele>
        <time>2014-03-26T07:34:07Z</time>
      </trkpt>
      <trkpt lat="44.34954" lon="2.59166">
        <ele>504.8294678</ele>
        <time>2014-03-26T07:34:12Z</time>
      </trkpt>
      <trkpt lat="44.34956" lon="2.59159">
        <ele>507.713501</ele>
        <time>2014-03-26T07:34:14Z</time>
      </trkpt>
      <trkpt lat="44.34963" lon="2.59147">
        <ele>508.6746826</ele>
        <time>2014-03-26T07:34:18Z</time>
      </trkpt>
      <trkpt lat="44.34967" lon="2.59124">
        <ele>506.7520752</ele>
        <time>2014-03-26T07:34:24Z</time>
      </trkpt>
      <trkpt lat="44.34971" lon="2.59112">
        <ele>506.7520752</ele>
        <time>2014-03-26T07:34:28Z</time>
      </trkpt>
      <trkpt lat="44.34977" lon="2.59094">
        <ele>505.7908936</ele>
        <time>2014-03-26T07:34:34Z</time>
      </trkpt>
      <trkpt lat="44.34984" lon="2.59079">
        <ele>506.2714844</ele>
        <time>2014-03-26T07:34:39Z</time>
      </trkpt>
      <trkpt lat="44.34989" lon="2.5906">
        <ele>507.2327881</ele>
        <time>2014-03-26T07:34:45Z</time>
      </trkpt>
      <trkpt lat="44.34992" lon="2.59045">
        <ele>508.1940918</ele>
        <time>2014-03-26T07:34:50Z</time>
      </trkpt>
      <trkpt lat="44.35002" lon="2.59029">
        <ele>513.9620361</ele>
        <time>2014-03-26T07:34:56Z</time>
      </trkpt>
      <trkpt lat="44.35005" lon="2.59027">
        <ele>517.3266602</ele>
        <time>2014-03-26T07:34:57Z</time>
      </trkpt>
      <trkpt lat="44.35016" lon="2.59018">
        <ele>522.6138916</ele>
        <time>2014-03-26T07:35:02Z</time>
      </trkpt>
      <trkpt lat="44.35033" lon="2.59001">
        <ele>527.901001</ele>
        <time>2014-03-26T07:35:10Z</time>
      </trkpt>
      <trkpt lat="44.35042" lon="2.58984">
        <ele>528.8625488</ele>
        <time>2014-03-26T07:35:16Z</time>
      </trkpt>
      <trkpt lat="44.35049" lon="2.58964">
        <ele>530.7851563</ele>
        <time>2014-03-26T07:35:22Z</time>
      </trkpt>
      <trkpt lat="44.35054" lon="2.58945">
        <ele>531.7463379</ele>
        <time>2014-03-26T07:35:28Z</time>
      </trkpt>
      <trkpt lat="44.35061" lon="2.58927">
        <ele>536.0723877</ele>
        <time>2014-03-26T07:35:34Z</time>
      </trkpt>
      <trkpt lat="44.35067" lon="2.58907">
        <ele>537.0336914</ele>
        <time>2014-03-26T07:35:40Z</time>
      </trkpt>
      <trkpt lat="44.35069" lon="2.58885">
        <ele>533.6689453</ele>
        <time>2014-03-26T07:35:46Z</time>
      </trkpt>
      <trkpt lat="44.3507" lon="2.58878">
        <ele>534.6303711</ele>
        <time>2014-03-26T07:35:48Z</time>
      </trkpt>
      <trkpt lat="44.35064" lon="2.58871">
        <ele>538.475708</ele>
        <time>2014-03-26T07:35:52Z</time>
      </trkpt>
      <trkpt lat="44.35054" lon="2.58887">
        <ele>541.3594971</ele>
        <time>2014-03-26T07:35:58Z</time>
      </trkpt>
      <trkpt lat="44.35046" lon="2.589">
        <ele>542.8015137</ele>
        <time>2014-03-26T07:36:03Z</time>
      </trkpt>
      <trkpt lat="44.35041" lon="2.58911">
        <ele>544.2436523</ele>
        <time>2014-03-26T07:36:07Z</time>
      </trkpt>
      <trkpt lat="44.35031" lon="2.58927">
        <ele>547.6081543</ele>
        <time>2014-03-26T07:36:13Z</time>
      </trkpt>
      <trkpt lat="44.3502" lon="2.58943">
        <ele>549.0500488</ele>
        <time>2014-03-26T07:36:20Z</time>
      </trkpt>
      <trkpt lat="44.35012" lon="2.58951">
        <ele>549.5307617</ele>
        <time>2014-03-26T07:36:26Z</time>
      </trkpt>
      <trkpt lat="44.35006" lon="2.58957">
        <ele>548.5693359</ele>
        <time>2014-03-26T07:36:30Z</time>
      </trkpt>
      <trkpt lat="44.34996" lon="2.58966">
        <ele>546.6468506</ele>
        <time>2014-03-26T07:36:35Z</time>
      </trkpt>
      <trkpt lat="44.34986" lon="2.58977">
        <ele>547.6081543</ele>
        <time>2014-03-26T07:36:40Z</time>
      </trkpt>
      <trkpt lat="44.34981" lon="2.58983">
        <ele>548.0888672</ele>
        <time>2014-03-26T07:36:43Z</time>
      </trkpt>
      <trkpt lat="44.34976" lon="2.5898">
        <ele>548.0888672</ele>
        <time>2014-03-26T07:36:49Z</time>
      </trkpt>
      <trkpt lat="44.34978" lon="2.5897">
        <ele>546.6468506</ele>
        <time>2014-03-26T07:36:54Z</time>
      </trkpt>
      <trkpt lat="44.34979" lon="2.58962">
        <ele>546.6468506</ele>
        <time>2014-03-26T07:36:58Z</time>
      </trkpt>
      <trkpt lat="44.34983" lon="2.58952">
        <ele>545.6855469</ele>
        <time>2014-03-26T07:37:03Z</time>
      </trkpt>
      <trkpt lat="44.34983" lon="2.58943">
        <ele>546.1662598</ele>
        <time>2014-03-26T07:37:07Z</time>
      </trkpt>
      <trkpt lat="44.3498" lon="2.58928">
        <ele>544.2436523</ele>
        <time>2014-03-26T07:37:13Z</time>
      </trkpt>
      <trkpt lat="44.34979" lon="2.58925">
        <ele>543.7628174</ele>
        <time>2014-03-26T07:37:14Z</time>
      </trkpt>
      <trkpt lat="44.34978" lon="2.5891">
        <ele>545.204834</ele>
        <time>2014-03-26T07:37:20Z</time>
      </trkpt>
      <trkpt lat="44.34977" lon="2.58901">
        <ele>546.6468506</ele>
        <time>2014-03-26T07:37:23Z</time>
      </trkpt>
      <trkpt lat="44.34976" lon="2.58894">
        <ele>546.1662598</ele>
        <time>2014-03-26T07:37:25Z</time>
      </trkpt>
      <trkpt lat="44.34975" lon="2.58879">
        <ele>548.5693359</ele>
        <time>2014-03-26T07:37:30Z</time>
      </trkpt>
      <trkpt lat="44.34976" lon="2.58866">
        <ele>551.934082</ele>
        <time>2014-03-26T07:37:35Z</time>
      </trkpt>
      <trkpt lat="44.34976" lon="2.58855">
        <ele>554.8178711</ele>
        <time>2014-03-26T07:37:42Z</time>
      </trkpt>
      <trkpt lat="44.34978" lon="2.58849">
        <ele>555.298584</ele>
        <time>2014-03-26T07:37:45Z</time>
      </trkpt>
      <trkpt lat="44.34979" lon="2.58846">
        <ele>556.2600098</ele>
        <time>2014-03-26T07:37:47Z</time>
      </trkpt>
      <trkpt lat="44.34975" lon="2.58835">
        <ele>557.7021484</ele>
        <time>2014-03-26T07:37:53Z</time>
      </trkpt>
      <trkpt lat="44.34973" lon="2.58831">
        <ele>560.1052246</ele>
        <time>2014-03-26T07:37:56Z</time>
      </trkpt>
      <trkpt lat="44.34975" lon="2.58818">
        <ele>563.4699707</ele>
        <time>2014-03-26T07:38:03Z</time>
      </trkpt>
      <trkpt lat="44.34977" lon="2.58812">
        <ele>563.9504395</ele>
        <time>2014-03-26T07:38:06Z</time>
      </trkpt>
      <trkpt lat="44.34978" lon="2.58808">
        <ele>563.4699707</ele>
        <time>2014-03-26T07:38:10Z</time>
      </trkpt>
      <trkpt lat="44.3498" lon="2.58794">
        <ele>567.3151855</ele>
        <time>2014-03-26T07:38:18Z</time>
      </trkpt>
      <trkpt lat="44.3498" lon="2.5879">
        <ele>566.8344727</ele>
        <time>2014-03-26T07:38:22Z</time>
      </trkpt>
      <trkpt lat="44.3498" lon="2.58786">
        <ele>567.7956543</ele>
        <time>2014-03-26T07:38:25Z</time>
      </trkpt>
      <trkpt lat="44.34978" lon="2.58778">
        <ele>567.7956543</ele>
        <time>2014-03-26T07:38:30Z</time>
      </trkpt>
      <trkpt lat="44.34978" lon="2.58777">
        <ele>568.2763672</ele>
        <time>2014-03-26T07:38:31Z</time>
      </trkpt>
      <trkpt lat="44.34975" lon="2.58769">
        <ele>569.7185059</ele>
        <time>2014-03-26T07:38:39Z</time>
      </trkpt>
      <trkpt lat="44.34977" lon="2.5876">
        <ele>570.6796875</ele>
        <time>2014-03-26T07:38:45Z</time>
      </trkpt>
      <trkpt lat="44.34977" lon="2.58759">
        <ele>570.1989746</ele>
        <time>2014-03-26T07:38:46Z</time>
      </trkpt>
      <trkpt lat="44.34979" lon="2.58748">
        <ele>569.7185059</ele>
        <time>2014-03-26T07:38:52Z</time>
      </trkpt>
      <trkpt lat="44.34982" lon="2.5874">
        <ele>570.1989746</ele>
        <time>2014-03-26T07:38:56Z</time>
      </trkpt>
      <trkpt lat="44.34989" lon="2.58726">
        <ele>568.2763672</ele>
        <time>2014-03-26T07:39:03Z</time>
      </trkpt>
      <trkpt lat="44.34996" lon="2.58716">
        <ele>573.083252</ele>
        <time>2014-03-26T07:39:07Z</time>
      </trkpt>
      <trkpt lat="44.35" lon="2.58711">
        <ele>573.5639648</ele>
        <time>2014-03-26T07:39:12Z</time>
      </trkpt>
      <trkpt lat="44.35001" lon="2.58709">
        <ele>574.0444336</ele>
        <time>2014-03-26T07:39:13Z</time>
      </trkpt>
      <trkpt lat="44.35005" lon="2.58699">
        <ele>575.967041</ele>
        <time>2014-03-26T07:39:17Z</time>
      </trkpt>
      <trkpt lat="44.35008" lon="2.58684">
        <ele>578.3703613</ele>
        <time>2014-03-26T07:39:23Z</time>
      </trkpt>
      <trkpt lat="44.3501" lon="2.58674">
        <ele>576.4477539</ele>
        <time>2014-03-26T07:39:27Z</time>
      </trkpt>
      <trkpt lat="44.35012" lon="2.58664">
        <ele>575.0058594</ele>
        <time>2014-03-26T07:39:31Z</time>
      </trkpt>
      <trkpt lat="44.35013" lon="2.58644">
        <ele>575.0058594</ele>
        <time>2014-03-26T07:39:40Z</time>
      </trkpt>
      <trkpt lat="44.35013" lon="2.58641">
        <ele>575.4863281</ele>
        <time>2014-03-26T07:39:41Z</time>
      </trkpt>
      <trkpt lat="44.35016" lon="2.58627">
        <ele>574.5251465</ele>
        <time>2014-03-26T07:39:47Z</time>
      </trkpt>
      <trkpt lat="44.35016" lon="2.58617">
        <ele>575.4863281</ele>
        <time>2014-03-26T07:39:51Z</time>
      </trkpt>
      <trkpt lat="44.35017" lon="2.58612">
        <ele>579.8122559</ele>
        <time>2014-03-26T07:39:54Z</time>
      </trkpt>
      <trkpt lat="44.35014" lon="2.58593">
        <ele>576.9284668</ele>
        <time>2014-03-26T07:40:02Z</time>
      </trkpt>
      <trkpt lat="44.35016" lon="2.58586">
        <ele>577.4091797</ele>
        <time>2014-03-26T07:40:05Z</time>
      </trkpt>
      <trkpt lat="44.35017" lon="2.58577">
        <ele>575.967041</ele>
        <time>2014-03-26T07:40:09Z</time>
      </trkpt>
      <trkpt lat="44.35016" lon="2.58567">
        <ele>575.0058594</ele>
        <time>2014-03-26T07:40:13Z</time>
      </trkpt>
      <trkpt lat="44.35013" lon="2.58554">
        <ele>578.3703613</ele>
        <time>2014-03-26T07:40:20Z</time>
      </trkpt>
      <trkpt lat="44.35013" lon="2.58551">
        <ele>580.7736816</ele>
        <time>2014-03-26T07:40:22Z</time>
      </trkpt>
      <trkpt lat="44.3501" lon="2.58553">
        <ele>586.5415039</ele>
        <time>2014-03-26T07:40:26Z</time>
      </trkpt>
      <trkpt lat="44.35005" lon="2.58556">
        <ele>590.3869629</ele>
        <time>2014-03-26T07:40:31Z</time>
      </trkpt>
      <trkpt lat="44.35002" lon="2.58558">
        <ele>591.3481445</ele>
        <time>2014-03-26T07:40:33Z</time>
      </trkpt>
      <trkpt lat="44.34997" lon="2.58559">
        <ele>597.5966797</ele>
        <time>2014-03-26T07:40:41Z</time>
      </trkpt>
      <trkpt lat="44.34993" lon="2.58563">
        <ele>600</ele>
        <time>2014-03-26T07:40:47Z</time>
      </trkpt>
      <trkpt lat="44.34989" lon="2.58569">
        <ele>603.8452148</ele>
        <time>2014-03-26T07:40:54Z</time>
      </trkpt>
      <trkpt lat="44.34986" lon="2.58573">
        <ele>605.2873535</ele>
        <time>2014-03-26T07:40:59Z</time>
      </trkpt>
      <trkpt lat="44.34982" lon="2.58577">
        <ele>607.2099609</ele>
        <time>2014-03-26T07:41:02Z</time>
      </trkpt>
      <trkpt lat="44.3498" lon="2.5858">
        <ele>608.1713867</ele>
        <time>2014-03-26T07:41:05Z</time>
      </trkpt>
      <trkpt lat="44.34975" lon="2.58584">
        <ele>608.6518555</ele>
        <time>2014-03-26T07:41:11Z</time>
      </trkpt>
      <trkpt lat="44.34969" lon="2.58584">
        <ele>611.0551758</ele>
        <time>2014-03-26T07:41:17Z</time>
      </trkpt>
      <trkpt lat="44.34965" lon="2.58578">
        <ele>611.5358887</ele>
        <time>2014-03-26T07:41:24Z</time>
      </trkpt>
      <trkpt lat="44.34957" lon="2.58577">
        <ele>612.4970703</ele>
        <time>2014-03-26T07:41:30Z</time>
      </trkpt>
      <trkpt lat="44.34946" lon="2.58574">
        <ele>612.9777832</ele>
        <time>2014-03-26T07:41:36Z</time>
      </trkpt>
      <trkpt lat="44.34935" lon="2.58573">
        <ele>613.9389648</ele>
        <time>2014-03-26T07:41:42Z</time>
      </trkpt>
      <trkpt lat="44.34927" lon="2.58576">
        <ele>616.3422852</ele>
        <time>2014-03-26T07:41:48Z</time>
      </trkpt>
      <trkpt lat="44.34917" lon="2.58578">
        <ele>618.2648926</ele>
        <time>2014-03-26T07:41:55Z</time>
      </trkpt>
      <trkpt lat="44.34911" lon="2.58581">
        <ele>619.7070313</ele>
        <time>2014-03-26T07:42:01Z</time>
      </trkpt>
      <trkpt lat="44.34906" lon="2.58589">
        <ele>620.1877441</ele>
        <time>2014-03-26T07:42:05Z</time>
      </trkpt>
      <trkpt lat="44.34901" lon="2.586">
        <ele>622.1103516</ele>
        <time>2014-03-26T07:42:10Z</time>
      </trkpt>
      <trkpt lat="44.34892" lon="2.58612">
        <ele>624.032959</ele>
        <time>2014-03-26T07:42:16Z</time>
      </trkpt>
      <trkpt lat="44.34882" lon="2.58623">
        <ele>624.9943848</ele>
        <time>2014-03-26T07:42:21Z</time>
      </trkpt>
      <trkpt lat="44.34873" lon="2.58633">
        <ele>626.4362793</ele>
        <time>2014-03-26T07:42:26Z</time>
      </trkpt>
      <trkpt lat="44.34862" lon="2.5865">
        <ele>627.3977051</ele>
        <time>2014-03-26T07:42:33Z</time>
      </trkpt>
      <trkpt lat="44.34854" lon="2.58662">
        <ele>627.8781738</ele>
        <time>2014-03-26T07:42:38Z</time>
      </trkpt>
      <trkpt lat="44.34844" lon="2.5868">
        <ele>629.8007813</ele>
        <time>2014-03-26T07:42:45Z</time>
      </trkpt>
      <trkpt lat="44.34835" lon="2.58695">
        <ele>630.762207</ele>
        <time>2014-03-26T07:42:51Z</time>
      </trkpt>
      <trkpt lat="44.34825" lon="2.5871">
        <ele>632.2041016</ele>
        <time>2014-03-26T07:42:57Z</time>
      </trkpt>
      <trkpt lat="44.34816" lon="2.58726">
        <ele>632.6848145</ele>
        <time>2014-03-26T07:43:03Z</time>
      </trkpt>
      <trkpt lat="44.34813" lon="2.58731">
        <ele>633.1652832</ele>
        <time>2014-03-26T07:43:05Z</time>
      </trkpt>
      <trkpt lat="44.34804" lon="2.58742">
        <ele>633.6459961</ele>
        <time>2014-03-26T07:43:10Z</time>
      </trkpt>
      <trkpt lat="44.34789" lon="2.58762">
        <ele>634.126709</ele>
        <time>2014-03-26T07:43:18Z</time>
      </trkpt>
      <trkpt lat="44.34781" lon="2.58774">
        <ele>634.6074219</ele>
        <time>2014-03-26T07:43:23Z</time>
      </trkpt>
      <trkpt lat="44.34774" lon="2.58788">
        <ele>635.5686035</ele>
        <time>2014-03-26T07:43:28Z</time>
      </trkpt>
      <trkpt lat="44.34767" lon="2.58801">
        <ele>636.0495605</ele>
        <time>2014-03-26T07:43:33Z</time>
      </trkpt>
      <trkpt lat="44.34764" lon="2.58808">
        <ele>637.0107422</ele>
        <time>2014-03-26T07:43:38Z</time>
      </trkpt>
      <trkpt lat="44.34759" lon="2.58824">
        <ele>637.0107422</ele>
        <time>2014-03-26T07:43:44Z</time>
      </trkpt>
      <trkpt lat="44.34754" lon="2.58842">
        <ele>637.4914551</ele>
        <time>2014-03-26T07:43:50Z</time>
      </trkpt>
      <trkpt lat="44.34749" lon="2.58857">
        <ele>637.972168</ele>
        <time>2014-03-26T07:43:57Z</time>
      </trkpt>
      <trkpt lat="44.34748" lon="2.58859">
        <ele>637.4914551</ele>
        <time>2014-03-26T07:43:58Z</time>
      </trkpt>
      <trkpt lat="44.34743" lon="2.5887">
        <ele>636.0495605</ele>
        <time>2014-03-26T07:44:03Z</time>
      </trkpt>
      <trkpt lat="44.34741" lon="2.58872">
        <ele>635.5686035</ele>
        <time>2014-03-26T07:44:04Z</time>
      </trkpt>
      <trkpt lat="44.34733" lon="2.58887">
        <ele>635.0881348</ele>
        <time>2014-03-26T07:44:10Z</time>
      </trkpt>
      <trkpt lat="44.34729" lon="2.58896">
        <ele>634.126709</ele>
        <time>2014-03-26T07:44:14Z</time>
      </trkpt>
      <trkpt lat="44.3473" lon="2.58893">
        <ele>634.126709</ele>
        <time>2014-03-26T07:44:20Z</time>
      </trkpt>
      <trkpt lat="44.3473" lon="2.58894">
        <ele>634.126709</ele>
        <time>2014-03-26T07:44:21Z</time>
      </trkpt>
      <trkpt lat="44.34728" lon="2.58903">
        <ele>634.6074219</ele>
        <time>2014-03-26T07:44:26Z</time>
      </trkpt>
      <trkpt lat="44.34726" lon="2.58911">
        <ele>635.5686035</ele>
        <time>2014-03-26T07:44:33Z</time>
      </trkpt>
      <trkpt lat="44.34724" lon="2.5891">
        <ele>635.5686035</ele>
        <time>2014-03-26T07:44:35Z</time>
      </trkpt>
      <trkpt lat="44.34717" lon="2.58901">
        <ele>635.5686035</ele>
        <time>2014-03-26T07:44:45Z</time>
      </trkpt>
      <trkpt lat="44.34713" lon="2.58896">
        <ele>636.0495605</ele>
        <time>2014-03-26T07:44:53Z</time>
      </trkpt>
      <trkpt lat="44.34713" lon="2.58895">
        <ele>637.972168</ele>
        <time>2014-03-26T07:45:10Z</time>
      </trkpt>
      <trkpt lat="44.34711" lon="2.58893">
        <ele>637.972168</ele>
        <time>2014-03-26T07:45:15Z</time>
      </trkpt>
      <trkpt lat="44.34709" lon="2.5889">
        <ele>638.4528809</ele>
        <time>2014-03-26T07:45:20Z</time>
      </trkpt>
      <trkpt lat="44.34708" lon="2.58889">
        <ele>637.972168</ele>
        <time>2014-03-26T07:45:25Z</time>
      </trkpt>
      <trkpt lat="44.34711" lon="2.58893">
        <ele>637.972168</ele>
        <time>2014-03-26T07:45:29Z</time>
      </trkpt>
      <trkpt lat="44.3472" lon="2.58904">
        <ele>637.972168</ele>
        <time>2014-03-26T07:45:39Z</time>
      </trkpt>
      <trkpt lat="44.34724" lon="2.58912">
        <ele>637.972168</ele>
        <time>2014-03-26T07:45:44Z</time>
      </trkpt>
      <trkpt lat="44.34721" lon="2.58926">
        <ele>637.4914551</ele>
        <time>2014-03-26T07:45:50Z</time>
      </trkpt>
      <trkpt lat="44.34715" lon="2.58934">
        <ele>637.0107422</ele>
        <time>2014-03-26T07:45:53Z</time>
      </trkpt>
      <trkpt lat="44.34699" lon="2.58936">
        <ele>636.5302734</ele>
        <time>2014-03-26T07:45:59Z</time>
      </trkpt>
      <trkpt lat="44.34688" lon="2.58933">
        <ele>638.4528809</ele>
        <time>2014-03-26T07:46:04Z</time>
      </trkpt>
      <trkpt lat="44.3468" lon="2.5893">
        <ele>639.8947754</ele>
        <time>2014-03-26T07:46:08Z</time>
      </trkpt>
      <trkpt lat="44.34662" lon="2.58927">
        <ele>640.3754883</ele>
        <time>2014-03-26T07:46:15Z</time>
      </trkpt>
      <trkpt lat="44.34657" lon="2.58929">
        <ele>640.855957</ele>
        <time>2014-03-26T07:46:17Z</time>
      </trkpt>
      <trkpt lat="44.34654" lon="2.58938">
        <ele>640.855957</ele>
        <time>2014-03-26T07:46:22Z</time>
      </trkpt>
      <trkpt lat="44.34656" lon="2.58934">
        <ele>640.3754883</ele>
        <time>2014-03-26T07:46:26Z</time>
      </trkpt>
      <trkpt lat="44.34658" lon="2.58931">
        <ele>638.9335938</ele>
        <time>2014-03-26T07:46:31Z</time>
      </trkpt>
      <trkpt lat="44.34657" lon="2.58932">
        <ele>637.0107422</ele>
        <time>2014-03-26T07:46:43Z</time>
      </trkpt>
      <trkpt lat="44.34653" lon="2.58933">
        <ele>637.0107422</ele>
        <time>2014-03-26T07:46:49Z</time>
      </trkpt>
      <trkpt lat="44.34643" lon="2.58936">
        <ele>637.0107422</ele>
        <time>2014-03-26T07:46:53Z</time>
      </trkpt>
      <trkpt lat="44.34624" lon="2.5895">
        <ele>636.5302734</ele>
        <time>2014-03-26T07:47:01Z</time>
      </trkpt>
      <trkpt lat="44.34612" lon="2.58958">
        <ele>634.6074219</ele>
        <time>2014-03-26T07:47:06Z</time>
      </trkpt>
      <trkpt lat="44.34604" lon="2.58963">
        <ele>634.126709</ele>
        <time>2014-03-26T07:47:10Z</time>
      </trkpt>
      <trkpt lat="44.346" lon="2.58963">
        <ele>634.6074219</ele>
        <time>2014-03-26T07:47:13Z</time>
      </trkpt>
      <trkpt lat="44.34595" lon="2.5897">
        <ele>634.6074219</ele>
        <time>2014-03-26T07:47:18Z</time>
      </trkpt>
      <trkpt lat="44.34593" lon="2.58972">
        <ele>634.6074219</ele>
        <time>2014-03-26T07:47:19Z</time>
      </trkpt>
      <trkpt lat="44.34581" lon="2.58982">
        <ele>634.126709</ele>
        <time>2014-03-26T07:47:25Z</time>
      </trkpt>
      <trkpt lat="44.34581" lon="2.58984">
        <ele>633.6459961</ele>
        <time>2014-03-26T07:47:30Z</time>
      </trkpt>
      <trkpt lat="44.34579" lon="2.58985">
        <ele>633.6459961</ele>
        <time>2014-03-26T07:47:32Z</time>
      </trkpt>
      <trkpt lat="44.34569" lon="2.58993">
        <ele>632.6848145</ele>
        <time>2014-03-26T07:47:37Z</time>
      </trkpt>
      <trkpt lat="44.34558" lon="2.59003">
        <ele>632.2041016</ele>
        <time>2014-03-26T07:47:41Z</time>
      </trkpt>
      <trkpt lat="44.34546" lon="2.59015">
        <ele>629.8007813</ele>
        <time>2014-03-26T07:47:46Z</time>
      </trkpt>
      <trkpt lat="44.34535" lon="2.59025">
        <ele>628.3588867</ele>
        <time>2014-03-26T07:47:51Z</time>
      </trkpt>
      <trkpt lat="44.34518" lon="2.59039">
        <ele>627.3977051</ele>
        <time>2014-03-26T07:47:58Z</time>
      </trkpt>
      <trkpt lat="44.34504" lon="2.59051">
        <ele>625.9555664</ele>
        <time>2014-03-26T07:48:04Z</time>
      </trkpt>
      <trkpt lat="44.3449" lon="2.59063">
        <ele>625.9555664</ele>
        <time>2014-03-26T07:48:10Z</time>
      </trkpt>
      <trkpt lat="44.34479" lon="2.59072">
        <ele>624.9943848</ele>
        <time>2014-03-26T07:48:15Z</time>
      </trkpt>
      <trkpt lat="44.34466" lon="2.59084">
        <ele>624.5136719</ele>
        <time>2014-03-26T07:48:21Z</time>
      </trkpt>
      <trkpt lat="44.34451" lon="2.59095">
        <ele>624.032959</ele>
        <time>2014-03-26T07:48:28Z</time>
      </trkpt>
      <trkpt lat="44.34438" lon="2.59103">
        <ele>624.5136719</ele>
        <time>2014-03-26T07:48:34Z</time>
      </trkpt>
      <trkpt lat="44.34423" lon="2.59111">
        <ele>623.0717773</ele>
        <time>2014-03-26T07:48:40Z</time>
      </trkpt>
      <trkpt lat="44.34411" lon="2.59116">
        <ele>623.0717773</ele>
        <time>2014-03-26T07:48:45Z</time>
      </trkpt>
      <trkpt lat="44.34399" lon="2.59121">
        <ele>623.0717773</ele>
        <time>2014-03-26T07:48:50Z</time>
      </trkpt>
      <trkpt lat="44.34387" lon="2.59127">
        <ele>624.032959</ele>
        <time>2014-03-26T07:48:55Z</time>
      </trkpt>
      <trkpt lat="44.34369" lon="2.59131">
        <ele>624.9943848</ele>
        <time>2014-03-26T07:49:01Z</time>
      </trkpt>
      <trkpt lat="44.34353" lon="2.59135">
        <ele>626.9169922</ele>
        <time>2014-03-26T07:49:06Z</time>
      </trkpt>
      <trkpt lat="44.34338" lon="2.59139">
        <ele>627.3977051</ele>
        <time>2014-03-26T07:49:11Z</time>
      </trkpt>
      <trkpt lat="44.34328" lon="2.59143">
        <ele>628.8395996</ele>
        <time>2014-03-26T07:49:15Z</time>
      </trkpt>
      <trkpt lat="44.34314" lon="2.59148">
        <ele>628.8395996</ele>
        <time>2014-03-26T07:49:20Z</time>
      </trkpt>
      <trkpt lat="44.34301" lon="2.59153">
        <ele>628.3588867</ele>
        <time>2014-03-26T07:49:25Z</time>
      </trkpt>
      <trkpt lat="44.34289" lon="2.59161">
        <ele>626.4362793</ele>
        <time>2014-03-26T07:49:30Z</time>
      </trkpt>
      <trkpt lat="44.34276" lon="2.59166">
        <ele>624.9943848</ele>
        <time>2014-03-26T07:49:35Z</time>
      </trkpt>
      <trkpt lat="44.3426" lon="2.59164">
        <ele>625.4748535</ele>
        <time>2014-03-26T07:49:41Z</time>
      </trkpt>
      <trkpt lat="44.3425" lon="2.59165">
        <ele>626.4362793</ele>
        <time>2014-03-26T07:49:45Z</time>
      </trkpt>
      <trkpt lat="44.34235" lon="2.59168">
        <ele>626.4362793</ele>
        <time>2014-03-26T07:49:51Z</time>
      </trkpt>
      <trkpt lat="44.34225" lon="2.59167">
        <ele>625.4748535</ele>
        <time>2014-03-26T07:49:57Z</time>
      </trkpt>
      <trkpt lat="44.34226" lon="2.59168">
        <ele>625.9555664</ele>
        <time>2014-03-26T07:49:59Z</time>
      </trkpt>
      <trkpt lat="44.34226" lon="2.59183">
        <ele>625.9555664</ele>
        <time>2014-03-26T07:50:04Z</time>
      </trkpt>
      <trkpt lat="44.34222" lon="2.59207">
        <ele>626.4362793</ele>
        <time>2014-03-26T07:50:10Z</time>
      </trkpt>
      <trkpt lat="44.34217" lon="2.59229">
        <ele>625.4748535</ele>
        <time>2014-03-26T07:50:16Z</time>
      </trkpt>
      <trkpt lat="44.34212" lon="2.5925">
        <ele>624.032959</ele>
        <time>2014-03-26T07:50:22Z</time>
      </trkpt>
      <trkpt lat="44.34206" lon="2.59274">
        <ele>623.0717773</ele>
        <time>2014-03-26T07:50:29Z</time>
      </trkpt>
      <trkpt lat="44.34203" lon="2.59277">
        <ele>622.1103516</ele>
        <time>2014-03-26T07:50:34Z</time>
      </trkpt>
      <trkpt lat="44.34205" lon="2.59281">
        <ele>621.6296387</ele>
        <time>2014-03-26T07:50:41Z</time>
      </trkpt>
      <trkpt lat="44.34199" lon="2.59307">
        <ele>620.1877441</ele>
        <time>2014-03-26T07:50:48Z</time>
      </trkpt>
      <trkpt lat="44.34194" lon="2.59324">
        <ele>619.7070313</ele>
        <time>2014-03-26T07:50:53Z</time>
      </trkpt>
      <trkpt lat="44.34188" lon="2.59343">
        <ele>619.7070313</ele>
        <time>2014-03-26T07:50:58Z</time>
      </trkpt>
      <trkpt lat="44.34184" lon="2.59362">
        <ele>619.7070313</ele>
        <time>2014-03-26T07:51:03Z</time>
      </trkpt>
      <trkpt lat="44.34179" lon="2.59383">
        <ele>619.7070313</ele>
        <time>2014-03-26T07:51:09Z</time>
      </trkpt>
      <trkpt lat="44.34173" lon="2.59401">
        <ele>618.7456055</ele>
        <time>2014-03-26T07:51:14Z</time>
      </trkpt>
      <trkpt lat="44.34168" lon="2.59419">
        <ele>618.7456055</ele>
        <time>2014-03-26T07:51:19Z</time>
      </trkpt>
      <trkpt lat="44.34162" lon="2.59435">
        <ele>618.2648926</ele>
        <time>2014-03-26T07:51:24Z</time>
      </trkpt>
      <trkpt lat="44.34154" lon="2.59453">
        <ele>617.3037109</ele>
        <time>2014-03-26T07:51:30Z</time>
      </trkpt>
      <trkpt lat="44.3415" lon="2.59458">
        <ele>615.8618164</ele>
        <time>2014-03-26T07:51:35Z</time>
      </trkpt>
      <trkpt lat="44.3415" lon="2.59458">
        <ele>615.8618164</ele>
        <time>2014-03-26T07:51:36Z</time>
      </trkpt>
      <trkpt lat="44.34155" lon="2.59446">
        <ele>614.9003906</ele>
        <time>2014-03-26T07:51:41Z</time>
      </trkpt>
      <trkpt lat="44.34161" lon="2.59435">
        <ele>614.9003906</ele>
        <time>2014-03-26T07:51:45Z</time>
      </trkpt>
      <trkpt lat="44.34168" lon="2.59413">
        <ele>614.4196777</ele>
        <time>2014-03-26T07:51:52Z</time>
      </trkpt>
      <trkpt lat="44.34171" lon="2.59408">
        <ele>613.9389648</ele>
        <time>2014-03-26T07:51:54Z</time>
      </trkpt>
      <trkpt lat="44.34176" lon="2.5939">
        <ele>613.4584961</ele>
        <time>2014-03-26T07:52:00Z</time>
      </trkpt>
      <trkpt lat="44.34179" lon="2.59379">
        <ele>613.4584961</ele>
        <time>2014-03-26T07:52:04Z</time>
      </trkpt>
      <trkpt lat="44.34183" lon="2.59366">
        <ele>613.9389648</ele>
        <time>2014-03-26T07:52:08Z</time>
      </trkpt>
      <trkpt lat="44.34188" lon="2.59349">
        <ele>612.9777832</ele>
        <time>2014-03-26T07:52:13Z</time>
      </trkpt>
      <trkpt lat="44.34194" lon="2.59327">
        <ele>611.5358887</ele>
        <time>2014-03-26T07:52:19Z</time>
      </trkpt>
      <trkpt lat="44.34199" lon="2.59311">
        <ele>610.09375</ele>
        <time>2014-03-26T07:52:24Z</time>
      </trkpt>
      <trkpt lat="44.34203" lon="2.59298">
        <ele>609.1325684</ele>
        <time>2014-03-26T07:52:28Z</time>
      </trkpt>
      <trkpt lat="44.34208" lon="2.59274">
        <ele>611.5358887</ele>
        <time>2014-03-26T07:52:35Z</time>
      </trkpt>
      <trkpt lat="44.34212" lon="2.59252">
        <ele>613.4584961</ele>
        <time>2014-03-26T07:52:41Z</time>
      </trkpt>
      <trkpt lat="44.34216" lon="2.59235">
        <ele>614.4196777</ele>
        <time>2014-03-26T07:52:46Z</time>
      </trkpt>
      <trkpt lat="44.3422" lon="2.59219">
        <ele>615.8618164</ele>
        <time>2014-03-26T07:52:51Z</time>
      </trkpt>
      <trkpt lat="44.34223" lon="2.59197">
        <ele>618.2648926</ele>
        <time>2014-03-26T07:52:57Z</time>
      </trkpt>
      <trkpt lat="44.34225" lon="2.5918">
        <ele>619.7070313</ele>
        <time>2014-03-26T07:53:02Z</time>
      </trkpt>
      <trkpt lat="44.34227" lon="2.5917">
        <ele>621.1491699</ele>
        <time>2014-03-26T07:53:07Z</time>
      </trkpt>
      <trkpt lat="44.3423" lon="2.59169">
        <ele>621.6296387</ele>
        <time>2014-03-26T07:53:13Z</time>
      </trkpt>
      <trkpt lat="44.34242" lon="2.5917">
        <ele>622.5910645</ele>
        <time>2014-03-26T07:53:19Z</time>
      </trkpt>
      <trkpt lat="44.34254" lon="2.59167">
        <ele>623.0717773</ele>
        <time>2014-03-26T07:53:25Z</time>
      </trkpt>
      <trkpt lat="44.34257" lon="2.59167">
        <ele>624.032959</ele>
        <time>2014-03-26T07:53:31Z</time>
      </trkpt>
      <trkpt lat="44.34268" lon="2.5918">
        <ele>624.032959</ele>
        <time>2014-03-26T07:53:37Z</time>
      </trkpt>
      <trkpt lat="44.3427" lon="2.59186">
        <ele>624.5136719</ele>
        <time>2014-03-26T07:53:39Z</time>
      </trkpt>
      <trkpt lat="44.34275" lon="2.59212">
        <ele>625.4748535</ele>
        <time>2014-03-26T07:53:46Z</time>
      </trkpt>
      <trkpt lat="44.34279" lon="2.59237">
        <ele>625.9555664</ele>
        <time>2014-03-26T07:53:53Z</time>
      </trkpt>
      <trkpt lat="44.34283" lon="2.59255">
        <ele>625.9555664</ele>
        <time>2014-03-26T07:53:58Z</time>
      </trkpt>
      <trkpt lat="44.34287" lon="2.59272">
        <ele>626.4362793</ele>
        <time>2014-03-26T07:54:03Z</time>
      </trkpt>
      <trkpt lat="44.34292" lon="2.5929">
        <ele>626.9169922</ele>
        <time>2014-03-26T07:54:08Z</time>
      </trkpt>
      <trkpt lat="44.34297" lon="2.59311">
        <ele>627.3977051</ele>
        <time>2014-03-26T07:54:14Z</time>
      </trkpt>
      <trkpt lat="44.343" lon="2.59326">
        <ele>627.8781738</ele>
        <time>2014-03-26T07:54:18Z</time>
      </trkpt>
      <trkpt lat="44.34305" lon="2.59349">
        <ele>628.8395996</ele>
        <time>2014-03-26T07:54:24Z</time>
      </trkpt>
      <trkpt lat="44.34307" lon="2.59366">
        <ele>629.3200684</ele>
        <time>2014-03-26T07:54:29Z</time>
      </trkpt>
      <trkpt lat="44.3431" lon="2.59386">
        <ele>629.8007813</ele>
        <time>2014-03-26T07:54:35Z</time>
      </trkpt>
      <trkpt lat="44.34314" lon="2.59403">
        <ele>629.8007813</ele>
        <time>2014-03-26T07:54:40Z</time>
      </trkpt>
      <trkpt lat="44.34317" lon="2.59422">
        <ele>630.2814941</ele>
        <time>2014-03-26T07:54:45Z</time>
      </trkpt>
      <trkpt lat="44.34323" lon="2.5944">
        <ele>631.2429199</ele>
        <time>2014-03-26T07:54:50Z</time>
      </trkpt>
      <trkpt lat="44.34326" lon="2.59458">
        <ele>631.7233887</ele>
        <time>2014-03-26T07:54:55Z</time>
      </trkpt>
      <trkpt lat="44.3433" lon="2.59473">
        <ele>631.7233887</ele>
        <time>2014-03-26T07:54:59Z</time>
      </trkpt>
      <trkpt lat="44.34334" lon="2.59493">
        <ele>631.2429199</ele>
        <time>2014-03-26T07:55:05Z</time>
      </trkpt>
      <trkpt lat="44.34339" lon="2.59509">
        <ele>631.7233887</ele>
        <time>2014-03-26T07:55:10Z</time>
      </trkpt>
      <trkpt lat="44.34341" lon="2.59512">
        <ele>631.7233887</ele>
        <time>2014-03-26T07:55:11Z</time>
      </trkpt>
      <trkpt lat="44.34347" lon="2.59532">
        <ele>631.7233887</ele>
        <time>2014-03-26T07:55:17Z</time>
      </trkpt>
      <trkpt lat="44.34349" lon="2.59538">
        <ele>631.7233887</ele>
        <time>2014-03-26T07:55:19Z</time>
      </trkpt>
      <trkpt lat="44.34358" lon="2.59541">
        <ele>632.2041016</ele>
        <time>2014-03-26T07:55:24Z</time>
      </trkpt>
      <trkpt lat="44.34358" lon="2.59543">
        <ele>631.7233887</ele>
        <time>2014-03-26T07:55:29Z</time>
      </trkpt>
      <trkpt lat="44.34354" lon="2.59558">
        <ele>631.7233887</ele>
        <time>2014-03-26T07:55:34Z</time>
      </trkpt>
      <trkpt lat="44.34357" lon="2.59568">
        <ele>630.762207</ele>
        <time>2014-03-26T07:55:37Z</time>
      </trkpt>
      <trkpt lat="44.34366" lon="2.59587">
        <ele>629.3200684</ele>
        <time>2014-03-26T07:55:43Z</time>
      </trkpt>
      <trkpt lat="44.34371" lon="2.59605">
        <ele>628.3588867</ele>
        <time>2014-03-26T07:55:48Z</time>
      </trkpt>
      <trkpt lat="44.34375" lon="2.59619">
        <ele>628.3588867</ele>
        <time>2014-03-26T07:55:52Z</time>
      </trkpt>
      <trkpt lat="44.34382" lon="2.59636">
        <ele>628.3588867</ele>
        <time>2014-03-26T07:55:57Z</time>
      </trkpt>
      <trkpt lat="44.34391" lon="2.59656">
        <ele>627.8781738</ele>
        <time>2014-03-26T07:56:03Z</time>
      </trkpt>
      <trkpt lat="44.34398" lon="2.59678">
        <ele>627.8781738</ele>
        <time>2014-03-26T07:56:09Z</time>
      </trkpt>
      <trkpt lat="44.34401" lon="2.59698">
        <ele>627.8781738</ele>
        <time>2014-03-26T07:56:15Z</time>
      </trkpt>
      <trkpt lat="44.34398" lon="2.59715">
        <ele>628.3588867</ele>
        <time>2014-03-26T07:56:21Z</time>
      </trkpt>
      <trkpt lat="44.34398" lon="2.59717">
        <ele>627.3977051</ele>
        <time>2014-03-26T07:56:26Z</time>
      </trkpt>
      <trkpt lat="44.34401" lon="2.59722">
        <ele>627.3977051</ele>
        <time>2014-03-26T07:56:32Z</time>
      </trkpt>
      <trkpt lat="44.34401" lon="2.59722">
        <ele>626.9169922</ele>
        <time>2014-03-26T07:56:37Z</time>
      </trkpt>
      <trkpt lat="44.34401" lon="2.59723">
        <ele>626.9169922</ele>
        <time>2014-03-26T07:56:46Z</time>
      </trkpt>
      <trkpt lat="44.34401" lon="2.59724">
        <ele>626.9169922</ele>
        <time>2014-03-26T07:56:53Z</time>
      </trkpt>
      <trkpt lat="44.34402" lon="2.59726">
        <ele>627.3977051</ele>
        <time>2014-03-26T07:56:54Z</time>
      </trkpt>
      <trkpt lat="44.34402" lon="2.59737">
        <ele>627.3977051</ele>
        <time>2014-03-26T07:57:00Z</time>
      </trkpt>
      <trkpt lat="44.34404" lon="2.5975">
        <ele>628.3588867</ele>
        <time>2014-03-26T07:57:07Z</time>
      </trkpt>
      <trkpt lat="44.34406" lon="2.59766">
        <ele>628.3588867</ele>
        <time>2014-03-26T07:57:16Z</time>
      </trkpt>
      <trkpt lat="44.34405" lon="2.59772">
        <ele>628.3588867</ele>
        <time>2014-03-26T07:57:19Z</time>
      </trkpt>
      <trkpt lat="44.34394" lon="2.59787">
        <ele>626.9169922</ele>
        <time>2014-03-26T07:57:26Z</time>
      </trkpt>
      <trkpt lat="44.3439" lon="2.59788">
        <ele>626.9169922</ele>
        <time>2014-03-26T07:57:28Z</time>
      </trkpt>
      <trkpt lat="44.34388" lon="2.59787">
        <ele>626.9169922</ele>
        <time>2014-03-26T07:57:33Z</time>
      </trkpt>
      <trkpt lat="44.3439" lon="2.59789">
        <ele>626.4362793</ele>
        <time>2014-03-26T07:57:38Z</time>
      </trkpt>
      <trkpt lat="44.34391" lon="2.5979">
        <ele>626.4362793</ele>
        <time>2014-03-26T07:57:39Z</time>
      </trkpt>
      <trkpt lat="44.344" lon="2.59794">
        <ele>627.3977051</ele>
        <time>2014-03-26T07:57:43Z</time>
      </trkpt>
      <trkpt lat="44.34403" lon="2.59809">
        <ele>628.3588867</ele>
        <time>2014-03-26T07:57:48Z</time>
      </trkpt>
      <trkpt lat="44.34401" lon="2.59823">
        <ele>627.8781738</ele>
        <time>2014-03-26T07:57:52Z</time>
      </trkpt>
      <trkpt lat="44.34403" lon="2.59834">
        <ele>627.8781738</ele>
        <time>2014-03-26T07:57:55Z</time>
      </trkpt>
      <trkpt lat="44.34402" lon="2.59841">
        <ele>627.8781738</ele>
        <time>2014-03-26T07:57:57Z</time>
      </trkpt>
      <trkpt lat="44.34404" lon="2.59859">
        <ele>627.8781738</ele>
        <time>2014-03-26T07:58:02Z</time>
      </trkpt>
      <trkpt lat="44.34407" lon="2.59874">
        <ele>628.8395996</ele>
        <time>2014-03-26T07:58:07Z</time>
      </trkpt>
      <trkpt lat="44.34408" lon="2.59889">
        <ele>628.3588867</ele>
        <time>2014-03-26T07:58:11Z</time>
      </trkpt>
      <trkpt lat="44.34414" lon="2.59907">
        <ele>628.8395996</ele>
        <time>2014-03-26T07:58:16Z</time>
      </trkpt>
      <trkpt lat="44.34418" lon="2.59921">
        <ele>630.2814941</ele>
        <time>2014-03-26T07:58:20Z</time>
      </trkpt>
      <trkpt lat="44.34424" lon="2.59939">
        <ele>630.762207</ele>
        <time>2014-03-26T07:58:25Z</time>
      </trkpt>
      <trkpt lat="44.34428" lon="2.59953">
        <ele>631.7233887</ele>
        <time>2014-03-26T07:58:29Z</time>
      </trkpt>
      <trkpt lat="44.34431" lon="2.59979">
        <ele>632.6848145</ele>
        <time>2014-03-26T07:58:36Z</time>
      </trkpt>
      <trkpt lat="44.34432" lon="2.59999">
        <ele>633.1652832</ele>
        <time>2014-03-26T07:58:42Z</time>
      </trkpt>
      <trkpt lat="44.34431" lon="2.60008">
        <ele>633.1652832</ele>
        <time>2014-03-26T07:58:45Z</time>
      </trkpt>
      <trkpt lat="44.34428" lon="2.6001">
        <ele>632.2041016</ele>
        <time>2014-03-26T07:58:50Z</time>
      </trkpt>
      <trkpt lat="44.34429" lon="2.60016">
        <ele>631.2429199</ele>
        <time>2014-03-26T07:58:56Z</time>
      </trkpt>
      <trkpt lat="44.34433" lon="2.60031">
        <ele>631.2429199</ele>
        <time>2014-03-26T07:59:01Z</time>
      </trkpt>
      <trkpt lat="44.34436" lon="2.60053">
        <ele>632.2041016</ele>
        <time>2014-03-26T07:59:07Z</time>
      </trkpt>
      <trkpt lat="44.34438" lon="2.6008">
        <ele>634.126709</ele>
        <time>2014-03-26T07:59:14Z</time>
      </trkpt>
      <trkpt lat="44.34438" lon="2.60083">
        <ele>634.126709</ele>
        <time>2014-03-26T07:59:15Z</time>
      </trkpt>
      <trkpt lat="44.34442" lon="2.60104">
        <ele>634.6074219</ele>
        <time>2014-03-26T07:59:21Z</time>
      </trkpt>
      <trkpt lat="44.34444" lon="2.60118">
        <ele>634.6074219</ele>
        <time>2014-03-26T07:59:25Z</time>
      </trkpt>
      <trkpt lat="44.34446" lon="2.60124">
        <ele>634.126709</ele>
        <time>2014-03-26T07:59:31Z</time>
      </trkpt>
      <trkpt lat="44.34444" lon="2.60129">
        <ele>633.6459961</ele>
        <time>2014-03-26T07:59:36Z</time>
      </trkpt>
      <trkpt lat="44.34444" lon="2.6013">
        <ele>634.126709</ele>
        <time>2014-03-26T07:59:41Z</time>
      </trkpt>
      <trkpt lat="44.34443" lon="2.60132">
        <ele>633.6459961</ele>
        <time>2014-03-26T07:59:44Z</time>
      </trkpt>
      <trkpt lat="44.34447" lon="2.60148">
        <ele>632.2041016</ele>
        <time>2014-03-26T07:59:49Z</time>
      </trkpt>
      <trkpt lat="44.34453" lon="2.60166">
        <ele>631.7233887</ele>
        <time>2014-03-26T07:59:54Z</time>
      </trkpt>
      <trkpt lat="44.34454" lon="2.6017">
        <ele>631.7233887</ele>
        <time>2014-03-26T07:59:55Z</time>
      </trkpt>
      <trkpt lat="44.34462" lon="2.6019">
        <ele>631.7233887</ele>
        <time>2014-03-26T08:00:01Z</time>
      </trkpt>
      <trkpt lat="44.34468" lon="2.60207">
        <ele>633.6459961</ele>
        <time>2014-03-26T08:00:07Z</time>
      </trkpt>
      <trkpt lat="44.34469" lon="2.60209">
        <ele>633.6459961</ele>
        <time>2014-03-26T08:00:08Z</time>
      </trkpt>
      <trkpt lat="44.3447" lon="2.60211">
        <ele>633.1652832</ele>
        <time>2014-03-26T08:00:14Z</time>
      </trkpt>
      <trkpt lat="44.34469" lon="2.60213">
        <ele>632.6848145</ele>
        <time>2014-03-26T08:00:15Z</time>
      </trkpt>
      <trkpt lat="44.34458" lon="2.60228">
        <ele>632.2041016</ele>
        <time>2014-03-26T08:00:21Z</time>
      </trkpt>
      <trkpt lat="44.34454" lon="2.60232">
        <ele>631.7233887</ele>
        <time>2014-03-26T08:00:23Z</time>
      </trkpt>
      <trkpt lat="44.34443" lon="2.60249">
        <ele>631.2429199</ele>
        <time>2014-03-26T08:00:29Z</time>
      </trkpt>
      <trkpt lat="44.34432" lon="2.60266">
        <ele>629.8007813</ele>
        <time>2014-03-26T08:00:35Z</time>
      </trkpt>
      <trkpt lat="44.34419" lon="2.60285">
        <ele>629.3200684</ele>
        <time>2014-03-26T08:00:42Z</time>
      </trkpt>
      <trkpt lat="44.34412" lon="2.60296">
        <ele>628.3588867</ele>
        <time>2014-03-26T08:00:46Z</time>
      </trkpt>
      <trkpt lat="44.34403" lon="2.60312">
        <ele>627.8781738</ele>
        <time>2014-03-26T08:00:52Z</time>
      </trkpt>
      <trkpt lat="44.34395" lon="2.60327">
        <ele>628.3588867</ele>
        <time>2014-03-26T08:00:57Z</time>
      </trkpt>
      <trkpt lat="44.34386" lon="2.60344">
        <ele>628.8395996</ele>
        <time>2014-03-26T08:01:03Z</time>
      </trkpt>
      <trkpt lat="44.34376" lon="2.6036">
        <ele>629.8007813</ele>
        <time>2014-03-26T08:01:09Z</time>
      </trkpt>
      <trkpt lat="44.3437" lon="2.60362">
        <ele>630.762207</ele>
        <time>2014-03-26T08:01:12Z</time>
      </trkpt>
      <trkpt lat="44.3437" lon="2.60362">
        <ele>630.762207</ele>
        <time>2014-03-26T08:01:16Z</time>
      </trkpt>
      <trkpt lat="44.34376" lon="2.60371">
        <ele>631.7233887</ele>
        <time>2014-03-26T08:01:21Z</time>
      </trkpt>
      <trkpt lat="44.34373" lon="2.60383">
        <ele>631.7233887</ele>
        <time>2014-03-26T08:01:24Z</time>
      </trkpt>
      <trkpt lat="44.34361" lon="2.60404">
        <ele>631.7233887</ele>
        <time>2014-03-26T08:01:30Z</time>
      </trkpt>
      <trkpt lat="44.34351" lon="2.60422">
        <ele>631.7233887</ele>
        <time>2014-03-26T08:01:35Z</time>
      </trkpt>
      <trkpt lat="44.34339" lon="2.60443">
        <ele>631.2429199</ele>
        <time>2014-03-26T08:01:41Z</time>
      </trkpt>
      <trkpt lat="44.34329" lon="2.60458">
        <ele>630.762207</ele>
        <time>2014-03-26T08:01:46Z</time>
      </trkpt>
      <trkpt lat="44.34322" lon="2.60471">
        <ele>629.8007813</ele>
        <time>2014-03-26T08:01:50Z</time>
      </trkpt>
      <trkpt lat="44.3432" lon="2.60478">
        <ele>629.8007813</ele>
        <time>2014-03-26T08:01:52Z</time>
      </trkpt>
      <trkpt lat="44.34322" lon="2.60488">
        <ele>629.3200684</ele>
        <time>2014-03-26T08:01:57Z</time>
      </trkpt>
      <trkpt lat="44.34323" lon="2.60489">
        <ele>629.8007813</ele>
        <time>2014-03-26T08:02:04Z</time>
      </trkpt>
      <trkpt lat="44.34322" lon="2.60488">
        <ele>629.3200684</ele>
        <time>2014-03-26T08:02:05Z</time>
      </trkpt>
      <trkpt lat="44.34315" lon="2.60491">
        <ele>627.3977051</ele>
        <time>2014-03-26T08:02:09Z</time>
      </trkpt>
      <trkpt lat="44.34307" lon="2.60506">
        <ele>626.4362793</ele>
        <time>2014-03-26T08:02:14Z</time>
      </trkpt>
      <trkpt lat="44.34307" lon="2.60519">
        <ele>627.3977051</ele>
        <time>2014-03-26T08:02:19Z</time>
      </trkpt>
      <trkpt lat="44.34305" lon="2.6052">
        <ele>627.3977051</ele>
        <time>2014-03-26T08:02:26Z</time>
      </trkpt>
      <trkpt lat="44.34297" lon="2.6052">
        <ele>628.3588867</ele>
        <time>2014-03-26T08:02:31Z</time>
      </trkpt>
      <trkpt lat="44.34288" lon="2.60532">
        <ele>628.3588867</ele>
        <time>2014-03-26T08:02:35Z</time>
      </trkpt>
      <trkpt lat="44.34274" lon="2.60553">
        <ele>627.3977051</ele>
        <time>2014-03-26T08:02:42Z</time>
      </trkpt>
      <trkpt lat="44.34263" lon="2.60569">
        <ele>626.9169922</ele>
        <time>2014-03-26T08:02:47Z</time>
      </trkpt>
      <trkpt lat="44.3425" lon="2.60586">
        <ele>626.4362793</ele>
        <time>2014-03-26T08:02:53Z</time>
      </trkpt>
      <trkpt lat="44.3424" lon="2.60601">
        <ele>625.9555664</ele>
        <time>2014-03-26T08:02:58Z</time>
      </trkpt>
      <trkpt lat="44.34229" lon="2.60616">
        <ele>625.4748535</ele>
        <time>2014-03-26T08:03:03Z</time>
      </trkpt>
      <trkpt lat="44.34218" lon="2.60631">
        <ele>624.5136719</ele>
        <time>2014-03-26T08:03:08Z</time>
      </trkpt>
      <trkpt lat="44.34209" lon="2.60652">
        <ele>622.5910645</ele>
        <time>2014-03-26T08:03:14Z</time>
      </trkpt>
      <trkpt lat="44.34206" lon="2.60674">
        <ele>622.1103516</ele>
        <time>2014-03-26T08:03:19Z</time>
      </trkpt>
      <trkpt lat="44.34203" lon="2.60696">
        <ele>621.1491699</ele>
        <time>2014-03-26T08:03:24Z</time>
      </trkpt>
      <trkpt lat="44.34198" lon="2.60717">
        <ele>621.1491699</ele>
        <time>2014-03-26T08:03:29Z</time>
      </trkpt>
      <trkpt lat="44.34189" lon="2.60735">
        <ele>620.668457</ele>
        <time>2014-03-26T08:03:34Z</time>
      </trkpt>
      <trkpt lat="44.34184" lon="2.60747">
        <ele>619.7070313</ele>
        <time>2014-03-26T08:03:38Z</time>
      </trkpt>
      <trkpt lat="44.34176" lon="2.60764">
        <ele>620.1877441</ele>
        <time>2014-03-26T08:03:43Z</time>
      </trkpt>
      <trkpt lat="44.34165" lon="2.60784">
        <ele>619.7070313</ele>
        <time>2014-03-26T08:03:49Z</time>
      </trkpt>
      <trkpt lat="44.34157" lon="2.60796">
        <ele>618.7456055</ele>
        <time>2014-03-26T08:03:53Z</time>
      </trkpt>
      <trkpt lat="44.34146" lon="2.6081">
        <ele>617.3037109</ele>
        <time>2014-03-26T08:03:58Z</time>
      </trkpt>
      <trkpt lat="44.3413" lon="2.60828">
        <ele>615.3811035</ele>
        <time>2014-03-26T08:04:05Z</time>
      </trkpt>
      <trkpt lat="44.34119" lon="2.60838">
        <ele>615.3811035</ele>
        <time>2014-03-26T08:04:10Z</time>
      </trkpt>
      <trkpt lat="44.34106" lon="2.60852">
        <ele>613.4584961</ele>
        <time>2014-03-26T08:04:16Z</time>
      </trkpt>
      <trkpt lat="44.34094" lon="2.60865">
        <ele>613.4584961</ele>
        <time>2014-03-26T08:04:21Z</time>
      </trkpt>
      <trkpt lat="44.34078" lon="2.60882">
        <ele>611.0551758</ele>
        <time>2014-03-26T08:04:28Z</time>
      </trkpt>
      <trkpt lat="44.34076" lon="2.60883">
        <ele>610.09375</ele>
        <time>2014-03-26T08:04:29Z</time>
      </trkpt>
      <trkpt lat="44.34061" lon="2.60897">
        <ele>610.5744629</ele>
        <time>2014-03-26T08:04:35Z</time>
      </trkpt>
      <trkpt lat="44.3405" lon="2.6091">
        <ele>611.5358887</ele>
        <time>2014-03-26T08:04:40Z</time>
      </trkpt>
      <trkpt lat="44.3403" lon="2.60926">
        <ele>610.09375</ele>
        <time>2014-03-26T08:04:48Z</time>
      </trkpt>
      <trkpt lat="44.3402" lon="2.60935">
        <ele>609.6132813</ele>
        <time>2014-03-26T08:04:53Z</time>
      </trkpt>
      <trkpt lat="44.3401" lon="2.60943">
        <ele>607.2099609</ele>
        <time>2014-03-26T08:04:58Z</time>
      </trkpt>
      <trkpt lat="44.33995" lon="2.60953">
        <ele>605.7680664</ele>
        <time>2014-03-26T08:05:04Z</time>
      </trkpt>
      <trkpt lat="44.33982" lon="2.60961">
        <ele>606.2485352</ele>
        <time>2014-03-26T08:05:09Z</time>
      </trkpt>
      <trkpt lat="44.33972" lon="2.60969">
        <ele>607.2099609</ele>
        <time>2014-03-26T08:05:13Z</time>
      </trkpt>
      <trkpt lat="44.33957" lon="2.60979">
        <ele>606.729248</ele>
        <time>2014-03-26T08:05:19Z</time>
      </trkpt>
      <trkpt lat="44.33939" lon="2.6099">
        <ele>605.2873535</ele>
        <time>2014-03-26T08:05:25Z</time>
      </trkpt>
      <trkpt lat="44.33925" lon="2.61001">
        <ele>603.8452148</ele>
        <time>2014-03-26T08:05:30Z</time>
      </trkpt>
      <trkpt lat="44.3391" lon="2.61013">
        <ele>601.9226074</ele>
        <time>2014-03-26T08:05:36Z</time>
      </trkpt>
      <trkpt lat="44.33895" lon="2.61026">
        <ele>600</ele>
        <time>2014-03-26T08:05:42Z</time>
      </trkpt>
      <trkpt lat="44.3388" lon="2.61039">
        <ele>597.5966797</ele>
        <time>2014-03-26T08:05:48Z</time>
      </trkpt>
      <trkpt lat="44.33868" lon="2.61051">
        <ele>595.1933594</ele>
        <time>2014-03-26T08:05:54Z</time>
      </trkpt>
      <trkpt lat="44.33865" lon="2.61055">
        <ele>594.2321777</ele>
        <time>2014-03-26T08:05:56Z</time>
      </trkpt>
      <trkpt lat="44.3386" lon="2.61061">
        <ele>593.7514648</ele>
        <time>2014-03-26T08:06:02Z</time>
      </trkpt>
      <trkpt lat="44.33859" lon="2.61062">
        <ele>593.7514648</ele>
        <time>2014-03-26T08:06:05Z</time>
      </trkpt>
      <trkpt lat="44.33849" lon="2.6107">
        <ele>593.270752</ele>
        <time>2014-03-26T08:06:10Z</time>
      </trkpt>
      <trkpt lat="44.33847" lon="2.61072">
        <ele>593.270752</ele>
        <time>2014-03-26T08:06:11Z</time>
      </trkpt>
      <trkpt lat="44.33835" lon="2.61086">
        <ele>590.3869629</ele>
        <time>2014-03-26T08:06:18Z</time>
      </trkpt>
      <trkpt lat="44.33834" lon="2.61086">
        <ele>591.3481445</ele>
        <time>2014-03-26T08:06:19Z</time>
      </trkpt>
      <trkpt lat="44.33833" lon="2.61087">
        <ele>592.7902832</ele>
        <time>2014-03-26T08:06:21Z</time>
      </trkpt>
      <trkpt lat="44.33823" lon="2.61096">
        <ele>591.8288574</ele>
        <time>2014-03-26T08:06:26Z</time>
      </trkpt>
      <trkpt lat="44.33813" lon="2.61108">
        <ele>590.8674316</ele>
        <time>2014-03-26T08:06:31Z</time>
      </trkpt>
      <trkpt lat="44.33802" lon="2.61115">
        <ele>590.3869629</ele>
        <time>2014-03-26T08:06:35Z</time>
      </trkpt>
      <trkpt lat="44.33789" lon="2.61114">
        <ele>590.3869629</ele>
        <time>2014-03-26T08:06:39Z</time>
      </trkpt>
      <trkpt lat="44.33777" lon="2.61109">
        <ele>589.4255371</ele>
        <time>2014-03-26T08:06:43Z</time>
      </trkpt>
      <trkpt lat="44.33762" lon="2.61103">
        <ele>591.3481445</ele>
        <time>2014-03-26T08:06:49Z</time>
      </trkpt>
      <trkpt lat="44.33748" lon="2.61098">
        <ele>591.8288574</ele>
        <time>2014-03-26T08:06:54Z</time>
      </trkpt>
      <trkpt lat="44.33737" lon="2.61092">
        <ele>591.3481445</ele>
        <time>2014-03-26T08:06:59Z</time>
      </trkpt>
      <trkpt lat="44.33725" lon="2.61084">
        <ele>592.7902832</ele>
        <time>2014-03-26T08:07:04Z</time>
      </trkpt>
      <trkpt lat="44.33713" lon="2.61079">
        <ele>593.7514648</ele>
        <time>2014-03-26T08:07:09Z</time>
      </trkpt>
      <trkpt lat="44.337" lon="2.61076">
        <ele>592.3095703</ele>
        <time>2014-03-26T08:07:14Z</time>
      </trkpt>
      <trkpt lat="44.33685" lon="2.61072">
        <ele>593.270752</ele>
        <time>2014-03-26T08:07:19Z</time>
      </trkpt>
      <trkpt lat="44.33683" lon="2.61071">
        <ele>593.7514648</ele>
        <time>2014-03-26T08:07:20Z</time>
      </trkpt>
      <trkpt lat="44.33668" lon="2.6107">
        <ele>595.6740723</ele>
        <time>2014-03-26T08:07:26Z</time>
      </trkpt>
      <trkpt lat="44.33652" lon="2.61076">
        <ele>598.0773926</ele>
        <time>2014-03-26T08:07:33Z</time>
      </trkpt>
      <trkpt lat="44.33639" lon="2.61072">
        <ele>598.0773926</ele>
        <time>2014-03-26T08:07:37Z</time>
      </trkpt>
      <trkpt lat="44.33626" lon="2.61065">
        <ele>597.1159668</ele>
        <time>2014-03-26T08:07:42Z</time>
      </trkpt>
      <trkpt lat="44.33615" lon="2.6106">
        <ele>595.6740723</ele>
        <time>2014-03-26T08:07:47Z</time>
      </trkpt>
      <trkpt lat="44.33604" lon="2.61049">
        <ele>595.1933594</ele>
        <time>2014-03-26T08:07:52Z</time>
      </trkpt>
      <trkpt lat="44.33595" lon="2.61041">
        <ele>595.1933594</ele>
        <time>2014-03-26T08:07:56Z</time>
      </trkpt>
      <trkpt lat="44.33583" lon="2.61032">
        <ele>595.6740723</ele>
        <time>2014-03-26T08:08:01Z</time>
      </trkpt>
      <trkpt lat="44.33573" lon="2.61017">
        <ele>596.635498</ele>
        <time>2014-03-26T08:08:06Z</time>
      </trkpt>
      <trkpt lat="44.33564" lon="2.60999">
        <ele>598.0773926</ele>
        <time>2014-03-26T08:08:12Z</time>
      </trkpt>
      <trkpt lat="44.3356" lon="2.60984">
        <ele>598.5578613</ele>
        <time>2014-03-26T08:08:17Z</time>
      </trkpt>
      <trkpt lat="44.33553" lon="2.60968">
        <ele>600.4807129</ele>
        <time>2014-03-26T08:08:22Z</time>
      </trkpt>
      <trkpt lat="44.33545" lon="2.60948">
        <ele>602.8837891</ele>
        <time>2014-03-26T08:08:28Z</time>
      </trkpt>
      <trkpt lat="44.33541" lon="2.60926">
        <ele>604.3261719</ele>
        <time>2014-03-26T08:08:34Z</time>
      </trkpt>
      <trkpt lat="44.33536" lon="2.60909">
        <ele>604.3261719</ele>
        <time>2014-03-26T08:08:39Z</time>
      </trkpt>
      <trkpt lat="44.3353" lon="2.60889">
        <ele>605.2873535</ele>
        <time>2014-03-26T08:08:45Z</time>
      </trkpt>
      <trkpt lat="44.33522" lon="2.6087">
        <ele>606.729248</ele>
        <time>2014-03-26T08:08:51Z</time>
      </trkpt>
      <trkpt lat="44.33514" lon="2.60851">
        <ele>608.6518555</ele>
        <time>2014-03-26T08:08:57Z</time>
      </trkpt>
      <trkpt lat="44.3351" lon="2.60832">
        <ele>608.6518555</ele>
        <time>2014-03-26T08:09:02Z</time>
      </trkpt>
      <trkpt lat="44.33507" lon="2.60812">
        <ele>608.6518555</ele>
        <time>2014-03-26T08:09:07Z</time>
      </trkpt>
      <trkpt lat="44.33506" lon="2.60791">
        <ele>608.6518555</ele>
        <time>2014-03-26T08:09:12Z</time>
      </trkpt>
      <trkpt lat="44.33502" lon="2.60767">
        <ele>608.1713867</ele>
        <time>2014-03-26T08:09:18Z</time>
      </trkpt>
      <trkpt lat="44.33493" lon="2.60756">
        <ele>608.1713867</ele>
        <time>2014-03-26T08:09:23Z</time>
      </trkpt>
      <trkpt lat="44.33483" lon="2.60749">
        <ele>608.1713867</ele>
        <time>2014-03-26T08:09:28Z</time>
      </trkpt>
      <trkpt lat="44.33474" lon="2.60742">
        <ele>608.1713867</ele>
        <time>2014-03-26T08:09:32Z</time>
      </trkpt>
      <trkpt lat="44.3346" lon="2.6073">
        <ele>608.1713867</ele>
        <time>2014-03-26T08:09:38Z</time>
      </trkpt>
      <trkpt lat="44.33454" lon="2.60714">
        <ele>608.1713867</ele>
        <time>2014-03-26T08:09:43Z</time>
      </trkpt>
      <trkpt lat="44.3345" lon="2.60689">
        <ele>608.1713867</ele>
        <time>2014-03-26T08:09:49Z</time>
      </trkpt>
      <trkpt lat="44.33448" lon="2.60669">
        <ele>607.6906738</ele>
        <time>2014-03-26T08:09:54Z</time>
      </trkpt>
      <trkpt lat="44.33446" lon="2.60654">
        <ele>607.6906738</ele>
        <time>2014-03-26T08:09:58Z</time>
      </trkpt>
      <trkpt lat="44.33443" lon="2.60635">
        <ele>608.1713867</ele>
        <time>2014-03-26T08:10:03Z</time>
      </trkpt>
      <trkpt lat="44.33438" lon="2.60618">
        <ele>607.6906738</ele>
        <time>2014-03-26T08:10:08Z</time>
      </trkpt>
      <trkpt lat="44.33429" lon="2.60615">
        <ele>606.729248</ele>
        <time>2014-03-26T08:10:13Z</time>
      </trkpt>
      <trkpt lat="44.33408" lon="2.60616">
        <ele>609.1325684</ele>
        <time>2014-03-26T08:10:20Z</time>
      </trkpt>
      <trkpt lat="44.33396" lon="2.60612">
        <ele>610.09375</ele>
        <time>2014-03-26T08:10:26Z</time>
      </trkpt>
      <trkpt lat="44.33378" lon="2.60609">
        <ele>612.4970703</ele>
        <time>2014-03-26T08:10:33Z</time>
      </trkpt>
      <trkpt lat="44.33364" lon="2.60612">
        <ele>612.9777832</ele>
        <time>2014-03-26T08:10:39Z</time>
      </trkpt>
      <trkpt lat="44.33347" lon="2.60615">
        <ele>611.0551758</ele>
        <time>2014-03-26T08:10:45Z</time>
      </trkpt>
      <trkpt lat="44.33335" lon="2.60619">
        <ele>612.0166016</ele>
        <time>2014-03-26T08:10:50Z</time>
      </trkpt>
      <trkpt lat="44.33322" lon="2.60622">
        <ele>614.4196777</ele>
        <time>2014-03-26T08:10:56Z</time>
      </trkpt>
      <trkpt lat="44.33311" lon="2.60625">
        <ele>618.2648926</ele>
        <time>2014-03-26T08:11:01Z</time>
      </trkpt>
      <trkpt lat="44.33299" lon="2.60631">
        <ele>620.668457</ele>
        <time>2014-03-26T08:11:07Z</time>
      </trkpt>
      <trkpt lat="44.33285" lon="2.60642">
        <ele>623.0717773</ele>
        <time>2014-03-26T08:11:13Z</time>
      </trkpt>
      <trkpt lat="44.33276" lon="2.60651">
        <ele>624.032959</ele>
        <time>2014-03-26T08:11:18Z</time>
      </trkpt>
      <trkpt lat="44.33274" lon="2.60652">
        <ele>624.5136719</ele>
        <time>2014-03-26T08:11:19Z</time>
      </trkpt>
      <trkpt lat="44.33264" lon="2.60667">
        <ele>625.4748535</ele>
        <time>2014-03-26T08:11:25Z</time>
      </trkpt>
      <trkpt lat="44.33254" lon="2.60683">
        <ele>626.9169922</ele>
        <time>2014-03-26T08:11:31Z</time>
      </trkpt>
      <trkpt lat="44.3324" lon="2.60701">
        <ele>631.2429199</ele>
        <time>2014-03-26T08:11:38Z</time>
      </trkpt>
      <trkpt lat="44.33228" lon="2.6072">
        <ele>633.6459961</ele>
        <time>2014-03-26T08:11:45Z</time>
      </trkpt>
      <trkpt lat="44.33221" lon="2.60739">
        <ele>635.0881348</ele>
        <time>2014-03-26T08:11:51Z</time>
      </trkpt>
      <trkpt lat="44.33215" lon="2.60755">
        <ele>637.0107422</ele>
        <time>2014-03-26T08:11:56Z</time>
      </trkpt>
      <trkpt lat="44.33206" lon="2.60773">
        <ele>638.4528809</ele>
        <time>2014-03-26T08:12:02Z</time>
      </trkpt>
      <trkpt lat="44.33195" lon="2.60788">
        <ele>640.3754883</ele>
        <time>2014-03-26T08:12:08Z</time>
      </trkpt>
      <trkpt lat="44.33185" lon="2.6081">
        <ele>640.855957</ele>
        <time>2014-03-26T08:12:15Z</time>
      </trkpt>
      <trkpt lat="44.33173" lon="2.60823">
        <ele>642.2980957</ele>
        <time>2014-03-26T08:12:21Z</time>
      </trkpt>
      <trkpt lat="44.33159" lon="2.60834">
        <ele>644.2207031</ele>
        <time>2014-03-26T08:12:27Z</time>
      </trkpt>
      <trkpt lat="44.33147" lon="2.60846">
        <ele>645.1818848</ele>
        <time>2014-03-26T08:12:32Z</time>
      </trkpt>
      <trkpt lat="44.33132" lon="2.60859">
        <ele>645.6625977</ele>
        <time>2014-03-26T08:12:38Z</time>
      </trkpt>
      <trkpt lat="44.33123" lon="2.60869">
        <ele>645.6625977</ele>
        <time>2014-03-26T08:12:43Z</time>
      </trkpt>
      <trkpt lat="44.33111" lon="2.6088">
        <ele>646.1433105</ele>
        <time>2014-03-26T08:12:48Z</time>
      </trkpt>
      <trkpt lat="44.33104" lon="2.60889">
        <ele>646.1433105</ele>
        <time>2014-03-26T08:12:52Z</time>
      </trkpt>
      <trkpt lat="44.33095" lon="2.60902">
        <ele>646.1433105</ele>
        <time>2014-03-26T08:12:57Z</time>
      </trkpt>
      <trkpt lat="44.33085" lon="2.60918">
        <ele>646.1433105</ele>
        <time>2014-03-26T08:13:03Z</time>
      </trkpt>
      <trkpt lat="44.33074" lon="2.60931">
        <ele>648.065918</ele>
        <time>2014-03-26T08:13:08Z</time>
      </trkpt>
      <trkpt lat="44.33063" lon="2.6094">
        <ele>648.5463867</ele>
        <time>2014-03-26T08:13:13Z</time>
      </trkpt>
      <trkpt lat="44.33054" lon="2.60949">
        <ele>647.5852051</ele>
        <time>2014-03-26T08:13:18Z</time>
      </trkpt>
      <trkpt lat="44.33042" lon="2.60955">
        <ele>646.6240234</ele>
        <time>2014-03-26T08:13:23Z</time>
      </trkpt>
      <trkpt lat="44.33031" lon="2.6096">
        <ele>646.1433105</ele>
        <time>2014-03-26T08:13:28Z</time>
      </trkpt>
      <trkpt lat="44.33019" lon="2.60967">
        <ele>646.6240234</ele>
        <time>2014-03-26T08:13:33Z</time>
      </trkpt>
      <trkpt lat="44.33006" lon="2.60977">
        <ele>645.6625977</ele>
        <time>2014-03-26T08:13:39Z</time>
      </trkpt>
      <trkpt lat="44.32993" lon="2.60989">
        <ele>646.1433105</ele>
        <time>2014-03-26T08:13:45Z</time>
      </trkpt>
      <trkpt lat="44.32982" lon="2.61001">
        <ele>647.1044922</ele>
        <time>2014-03-26T08:13:50Z</time>
      </trkpt>
      <trkpt lat="44.32968" lon="2.61016">
        <ele>648.5463867</ele>
        <time>2014-03-26T08:13:56Z</time>
      </trkpt>
      <trkpt lat="44.32957" lon="2.61027">
        <ele>649.5078125</ele>
        <time>2014-03-26T08:14:01Z</time>
      </trkpt>
      <trkpt lat="44.32949" lon="2.61035">
        <ele>649.0270996</ele>
        <time>2014-03-26T08:14:05Z</time>
      </trkpt>
      <trkpt lat="44.3294" lon="2.61045">
        <ele>649.5078125</ele>
        <time>2014-03-26T08:14:09Z</time>
      </trkpt>
      <trkpt lat="44.32928" lon="2.6106">
        <ele>650.4692383</ele>
        <time>2014-03-26T08:14:15Z</time>
      </trkpt>
      <trkpt lat="44.32916" lon="2.61075">
        <ele>652.8725586</ele>
        <time>2014-03-26T08:14:21Z</time>
      </trkpt>
      <trkpt lat="44.32902" lon="2.61095">
        <ele>653.8339844</ele>
        <time>2014-03-26T08:14:28Z</time>
      </trkpt>
      <trkpt lat="44.3289" lon="2.61112">
        <ele>655.7565918</ele>
        <time>2014-03-26T08:14:34Z</time>
      </trkpt>
      <trkpt lat="44.32883" lon="2.61124">
        <ele>656.7177734</ele>
        <time>2014-03-26T08:14:38Z</time>
      </trkpt>
      <trkpt lat="44.32873" lon="2.61142">
        <ele>658.6403809</ele>
        <time>2014-03-26T08:14:44Z</time>
      </trkpt>
      <trkpt lat="44.32865" lon="2.61157">
        <ele>660.0822754</ele>
        <time>2014-03-26T08:14:49Z</time>
      </trkpt>
      <trkpt lat="44.32856" lon="2.61172">
        <ele>662.005127</ele>
        <time>2014-03-26T08:14:54Z</time>
      </trkpt>
      <trkpt lat="44.32847" lon="2.61185">
        <ele>662.4855957</ele>
        <time>2014-03-26T08:14:59Z</time>
      </trkpt>
      <trkpt lat="44.32838" lon="2.61199">
        <ele>663.4470215</ele>
        <time>2014-03-26T08:15:04Z</time>
      </trkpt>
      <trkpt lat="44.3283" lon="2.61214">
        <ele>662.9663086</ele>
        <time>2014-03-26T08:15:09Z</time>
      </trkpt>
      <trkpt lat="44.32821" lon="2.61228">
        <ele>662.005127</ele>
        <time>2014-03-26T08:15:14Z</time>
      </trkpt>
      <trkpt lat="44.32812" lon="2.61249">
        <ele>661.0437012</ele>
        <time>2014-03-26T08:15:21Z</time>
      </trkpt>
      <trkpt lat="44.32802" lon="2.61267">
        <ele>661.5244141</ele>
        <time>2014-03-26T08:15:27Z</time>
      </trkpt>
      <trkpt lat="44.32793" lon="2.61292">
        <ele>661.5244141</ele>
        <time>2014-03-26T08:15:34Z</time>
      </trkpt>
      <trkpt lat="44.32787" lon="2.61306">
        <ele>662.005127</ele>
        <time>2014-03-26T08:15:38Z</time>
      </trkpt>
      <trkpt lat="44.32781" lon="2.61322">
        <ele>663.4470215</ele>
        <time>2014-03-26T08:15:43Z</time>
      </trkpt>
      <trkpt lat="44.32775" lon="2.61338">
        <ele>663.9274902</ele>
        <time>2014-03-26T08:15:48Z</time>
      </trkpt>
      <trkpt lat="44.32769" lon="2.61358">
        <ele>663.4470215</ele>
        <time>2014-03-26T08:15:54Z</time>
      </trkpt>
      <trkpt lat="44.32762" lon="2.61374">
        <ele>663.4470215</ele>
        <time>2014-03-26T08:15:59Z</time>
      </trkpt>
      <trkpt lat="44.32756" lon="2.61393">
        <ele>663.9274902</ele>
        <time>2014-03-26T08:16:04Z</time>
      </trkpt>
      <trkpt lat="44.32753" lon="2.61405">
        <ele>663.4470215</ele>
        <time>2014-03-26T08:16:07Z</time>
      </trkpt>
      <trkpt lat="44.32749" lon="2.61431">
        <ele>662.4855957</ele>
        <time>2014-03-26T08:16:14Z</time>
      </trkpt>
      <trkpt lat="44.32747" lon="2.61446">
        <ele>662.9663086</ele>
        <time>2014-03-26T08:16:18Z</time>
      </trkpt>
      <trkpt lat="44.32746" lon="2.61461">
        <ele>662.9663086</ele>
        <time>2014-03-26T08:16:22Z</time>
      </trkpt>
      <trkpt lat="44.32739" lon="2.61486">
        <ele>663.9274902</ele>
        <time>2014-03-26T08:16:29Z</time>
      </trkpt>
      <trkpt lat="44.32735" lon="2.61505">
        <ele>663.9274902</ele>
        <time>2014-03-26T08:16:34Z</time>
      </trkpt>
      <trkpt lat="44.32729" lon="2.61523">
        <ele>665.3696289</ele>
        <time>2014-03-26T08:16:39Z</time>
      </trkpt>
      <trkpt lat="44.32724" lon="2.61543">
        <ele>665.8503418</ele>
        <time>2014-03-26T08:16:44Z</time>
      </trkpt>
      <trkpt lat="44.32717" lon="2.61566">
        <ele>666.8115234</ele>
        <time>2014-03-26T08:16:50Z</time>
      </trkpt>
      <trkpt lat="44.3271" lon="2.61593">
        <ele>668.2536621</ele>
        <time>2014-03-26T08:16:57Z</time>
      </trkpt>
      <trkpt lat="44.32703" lon="2.6162">
        <ele>668.2536621</ele>
        <time>2014-03-26T08:17:04Z</time>
      </trkpt>
      <trkpt lat="44.32698" lon="2.61643">
        <ele>668.734375</ele>
        <time>2014-03-26T08:17:10Z</time>
      </trkpt>
      <trkpt lat="44.32695" lon="2.61658">
        <ele>668.2536621</ele>
        <time>2014-03-26T08:17:14Z</time>
      </trkpt>
      <trkpt lat="44.3269" lon="2.61676">
        <ele>667.2922363</ele>
        <time>2014-03-26T08:17:19Z</time>
      </trkpt>
      <trkpt lat="44.32688" lon="2.61695">
        <ele>666.3308105</ele>
        <time>2014-03-26T08:17:24Z</time>
      </trkpt>
      <trkpt lat="44.32685" lon="2.61713">
        <ele>664.888916</ele>
        <time>2014-03-26T08:17:29Z</time>
      </trkpt>
      <trkpt lat="44.3268" lon="2.61734">
        <ele>661.0437012</ele>
        <time>2014-03-26T08:17:35Z</time>
      </trkpt>
      <trkpt lat="44.32675" lon="2.61756">
        <ele>660.0822754</ele>
        <time>2014-03-26T08:17:41Z</time>
      </trkpt>
      <trkpt lat="44.32673" lon="2.61771">
        <ele>659.1210938</ele>
        <time>2014-03-26T08:17:45Z</time>
      </trkpt>
      <trkpt lat="44.32672" lon="2.61789">
        <ele>660.0822754</ele>
        <time>2014-03-26T08:17:50Z</time>
      </trkpt>
      <trkpt lat="44.32668" lon="2.61812">
        <ele>660.5629883</ele>
        <time>2014-03-26T08:17:56Z</time>
      </trkpt>
      <trkpt lat="44.32664" lon="2.61832">
        <ele>662.005127</ele>
        <time>2014-03-26T08:18:01Z</time>
      </trkpt>
      <trkpt lat="44.32657" lon="2.61859">
        <ele>662.4855957</ele>
        <time>2014-03-26T08:18:08Z</time>
      </trkpt>
      <trkpt lat="44.32653" lon="2.61877">
        <ele>662.9663086</ele>
        <time>2014-03-26T08:18:13Z</time>
      </trkpt>
      <trkpt lat="44.32651" lon="2.61899">
        <ele>662.4855957</ele>
        <time>2014-03-26T08:18:19Z</time>
      </trkpt>
      <trkpt lat="44.32648" lon="2.61917">
        <ele>661.0437012</ele>
        <time>2014-03-26T08:18:24Z</time>
      </trkpt>
      <trkpt lat="44.32643" lon="2.61934">
        <ele>660.5629883</ele>
        <time>2014-03-26T08:18:29Z</time>
      </trkpt>
      <trkpt lat="44.32635" lon="2.61953">
        <ele>661.0437012</ele>
        <time>2014-03-26T08:18:35Z</time>
      </trkpt>
      <trkpt lat="44.32627" lon="2.61971">
        <ele>661.0437012</ele>
        <time>2014-03-26T08:18:40Z</time>
      </trkpt>
      <trkpt lat="44.32621" lon="2.61987">
        <ele>662.005127</ele>
        <time>2014-03-26T08:18:45Z</time>
      </trkpt>
      <trkpt lat="44.32617" lon="2.6201">
        <ele>661.5244141</ele>
        <time>2014-03-26T08:18:51Z</time>
      </trkpt>
      <trkpt lat="44.32611" lon="2.62032">
        <ele>661.0437012</ele>
        <time>2014-03-26T08:18:57Z</time>
      </trkpt>
      <trkpt lat="44.32605" lon="2.62047">
        <ele>660.0822754</ele>
        <time>2014-03-26T08:19:02Z</time>
      </trkpt>
      <trkpt lat="44.32596" lon="2.62064">
        <ele>660.0822754</ele>
        <time>2014-03-26T08:19:08Z</time>
      </trkpt>
      <trkpt lat="44.32587" lon="2.62083">
        <ele>662.005127</ele>
        <time>2014-03-26T08:19:14Z</time>
      </trkpt>
      <trkpt lat="44.32583" lon="2.62102">
        <ele>663.9274902</ele>
        <time>2014-03-26T08:19:19Z</time>
      </trkpt>
      <trkpt lat="44.32583" lon="2.62125">
        <ele>664.4082031</ele>
        <time>2014-03-26T08:19:25Z</time>
      </trkpt>
      <trkpt lat="44.32586" lon="2.62149">
        <ele>663.4470215</ele>
        <time>2014-03-26T08:19:31Z</time>
      </trkpt>
      <trkpt lat="44.32588" lon="2.62166">
        <ele>662.9663086</ele>
        <time>2014-03-26T08:19:35Z</time>
      </trkpt>
      <trkpt lat="44.32591" lon="2.62194">
        <ele>663.4470215</ele>
        <time>2014-03-26T08:19:42Z</time>
      </trkpt>
      <trkpt lat="44.32593" lon="2.62214">
        <ele>663.9274902</ele>
        <time>2014-03-26T08:19:47Z</time>
      </trkpt>
      <trkpt lat="44.32593" lon="2.62221">
        <ele>663.4470215</ele>
        <time>2014-03-26T08:19:49Z</time>
      </trkpt>
      <trkpt lat="44.32598" lon="2.62237">
        <ele>662.9663086</ele>
        <time>2014-03-26T08:19:54Z</time>
      </trkpt>
      <trkpt lat="44.32602" lon="2.62255">
        <ele>662.005127</ele>
        <time>2014-03-26T08:19:59Z</time>
      </trkpt>
      <trkpt lat="44.32605" lon="2.62273">
        <ele>662.4855957</ele>
        <time>2014-03-26T08:20:04Z</time>
      </trkpt>
      <trkpt lat="44.32608" lon="2.62288">
        <ele>662.4855957</ele>
        <time>2014-03-26T08:20:08Z</time>
      </trkpt>
      <trkpt lat="44.32607" lon="2.62312">
        <ele>662.9663086</ele>
        <time>2014-03-26T08:20:15Z</time>
      </trkpt>
      <trkpt lat="44.32606" lon="2.62331">
        <ele>663.4470215</ele>
        <time>2014-03-26T08:20:20Z</time>
      </trkpt>
      <trkpt lat="44.32605" lon="2.62346">
        <ele>663.9274902</ele>
        <time>2014-03-26T08:20:24Z</time>
      </trkpt>
      <trkpt lat="44.32602" lon="2.62369">
        <ele>665.8503418</ele>
        <time>2014-03-26T08:20:30Z</time>
      </trkpt>
      <trkpt lat="44.326" lon="2.6239">
        <ele>667.7727051</ele>
        <time>2014-03-26T08:20:36Z</time>
      </trkpt>
      <trkpt lat="44.32598" lon="2.62407">
        <ele>668.734375</ele>
        <time>2014-03-26T08:20:41Z</time>
      </trkpt>
      <trkpt lat="44.326" lon="2.62429">
        <ele>670.1762695</ele>
        <time>2014-03-26T08:20:47Z</time>
      </trkpt>
      <trkpt lat="44.326" lon="2.62447">
        <ele>670.1762695</ele>
        <time>2014-03-26T08:20:52Z</time>
      </trkpt>
      <trkpt lat="44.326" lon="2.62466">
        <ele>671.1376953</ele>
        <time>2014-03-26T08:20:57Z</time>
      </trkpt>
      <trkpt lat="44.326" lon="2.62484">
        <ele>671.1376953</ele>
        <time>2014-03-26T08:21:02Z</time>
      </trkpt>
      <trkpt lat="44.32598" lon="2.62502">
        <ele>672.098877</ele>
        <time>2014-03-26T08:21:07Z</time>
      </trkpt>
      <trkpt lat="44.32598" lon="2.62521">
        <ele>672.5795898</ele>
        <time>2014-03-26T08:21:12Z</time>
      </trkpt>
      <trkpt lat="44.32598" lon="2.6254">
        <ele>674.0214844</ele>
        <time>2014-03-26T08:21:17Z</time>
      </trkpt>
      <trkpt lat="44.32595" lon="2.62562">
        <ele>675.4633789</ele>
        <time>2014-03-26T08:21:23Z</time>
      </trkpt>
      <trkpt lat="44.32592" lon="2.62584">
        <ele>676.4248047</ele>
        <time>2014-03-26T08:21:29Z</time>
      </trkpt>
      <trkpt lat="44.32588" lon="2.6261">
        <ele>677.3862305</ele>
        <time>2014-03-26T08:21:36Z</time>
      </trkpt>
      <trkpt lat="44.32582" lon="2.62631">
        <ele>677.8666992</ele>
        <time>2014-03-26T08:21:42Z</time>
      </trkpt>
      <trkpt lat="44.32574" lon="2.62651">
        <ele>679.3085938</ele>
        <time>2014-03-26T08:21:48Z</time>
      </trkpt>
      <trkpt lat="44.32567" lon="2.62671">
        <ele>678.828125</ele>
        <time>2014-03-26T08:21:54Z</time>
      </trkpt>
      <trkpt lat="44.32561" lon="2.62696">
        <ele>679.7893066</ele>
        <time>2014-03-26T08:22:01Z</time>
      </trkpt>
      <trkpt lat="44.32556" lon="2.62719">
        <ele>679.3085938</ele>
        <time>2014-03-26T08:22:07Z</time>
      </trkpt>
      <trkpt lat="44.3255" lon="2.62741">
        <ele>680.2700195</ele>
        <time>2014-03-26T08:22:13Z</time>
      </trkpt>
      <trkpt lat="44.32545" lon="2.62762">
        <ele>680.7507324</ele>
        <time>2014-03-26T08:22:19Z</time>
      </trkpt>
      <trkpt lat="44.32539" lon="2.62787">
        <ele>681.7119141</ele>
        <time>2014-03-26T08:22:26Z</time>
      </trkpt>
      <trkpt lat="44.32533" lon="2.62809">
        <ele>681.2314453</ele>
        <time>2014-03-26T08:22:32Z</time>
      </trkpt>
      <trkpt lat="44.32528" lon="2.62823">
        <ele>681.7119141</ele>
        <time>2014-03-26T08:22:36Z</time>
      </trkpt>
      <trkpt lat="44.32523" lon="2.6284">
        <ele>681.2314453</ele>
        <time>2014-03-26T08:22:41Z</time>
      </trkpt>
      <trkpt lat="44.32516" lon="2.6286">
        <ele>679.7893066</ele>
        <time>2014-03-26T08:22:47Z</time>
      </trkpt>
      <trkpt lat="44.32508" lon="2.62881">
        <ele>679.3085938</ele>
        <time>2014-03-26T08:22:53Z</time>
      </trkpt>
      <trkpt lat="44.325" lon="2.62906">
        <ele>679.7893066</ele>
        <time>2014-03-26T08:23:00Z</time>
      </trkpt>
      <trkpt lat="44.32496" lon="2.62924">
        <ele>679.7893066</ele>
        <time>2014-03-26T08:23:05Z</time>
      </trkpt>
      <trkpt lat="44.32492" lon="2.62943">
        <ele>679.7893066</ele>
        <time>2014-03-26T08:23:10Z</time>
      </trkpt>
      <trkpt lat="44.32489" lon="2.6296">
        <ele>679.7893066</ele>
        <time>2014-03-26T08:23:15Z</time>
      </trkpt>
      <trkpt lat="44.32484" lon="2.6298">
        <ele>681.7119141</ele>
        <time>2014-03-26T08:23:21Z</time>
      </trkpt>
      <trkpt lat="44.32483" lon="2.63002">
        <ele>681.7119141</ele>
        <time>2014-03-26T08:23:27Z</time>
      </trkpt>
      <trkpt lat="44.32481" lon="2.63015">
        <ele>680.2700195</ele>
        <time>2014-03-26T08:23:31Z</time>
      </trkpt>
      <trkpt lat="44.32479" lon="2.63034">
        <ele>679.7893066</ele>
        <time>2014-03-26T08:23:37Z</time>
      </trkpt>
      <trkpt lat="44.32477" lon="2.63047">
        <ele>678.828125</ele>
        <time>2014-03-26T08:23:41Z</time>
      </trkpt>
      <trkpt lat="44.32473" lon="2.63063">
        <ele>678.828125</ele>
        <time>2014-03-26T08:23:46Z</time>
      </trkpt>
      <trkpt lat="44.32472" lon="2.63067">
        <ele>678.828125</ele>
        <time>2014-03-26T08:23:47Z</time>
      </trkpt>
      <trkpt lat="44.32465" lon="2.63086">
        <ele>679.7893066</ele>
        <time>2014-03-26T08:23:53Z</time>
      </trkpt>
      <trkpt lat="44.32462" lon="2.63103">
        <ele>678.828125</ele>
        <time>2014-03-26T08:23:58Z</time>
      </trkpt>
      <trkpt lat="44.32456" lon="2.63118">
        <ele>678.828125</ele>
        <time>2014-03-26T08:24:03Z</time>
      </trkpt>
      <trkpt lat="44.32449" lon="2.63131">
        <ele>678.828125</ele>
        <time>2014-03-26T08:24:07Z</time>
      </trkpt>
      <trkpt lat="44.32442" lon="2.63147">
        <ele>680.2700195</ele>
        <time>2014-03-26T08:24:12Z</time>
      </trkpt>
      <trkpt lat="44.32436" lon="2.63161">
        <ele>680.7507324</ele>
        <time>2014-03-26T08:24:16Z</time>
      </trkpt>
      <trkpt lat="44.32428" lon="2.63175">
        <ele>680.7507324</ele>
        <time>2014-03-26T08:24:21Z</time>
      </trkpt>
      <trkpt lat="44.32416" lon="2.63203">
        <ele>681.2314453</ele>
        <time>2014-03-26T08:24:30Z</time>
      </trkpt>
      <trkpt lat="44.32408" lon="2.63221">
        <ele>679.3085938</ele>
        <time>2014-03-26T08:24:36Z</time>
      </trkpt>
      <trkpt lat="44.32401" lon="2.63238">
        <ele>678.3474121</ele>
        <time>2014-03-26T08:24:41Z</time>
      </trkpt>
      <trkpt lat="44.32395" lon="2.63257">
        <ele>679.3085938</ele>
        <time>2014-03-26T08:24:47Z</time>
      </trkpt>
      <trkpt lat="44.3239" lon="2.63266">
        <ele>679.7893066</ele>
        <time>2014-03-26T08:24:50Z</time>
      </trkpt>
      <trkpt lat="44.32381" lon="2.63284">
        <ele>681.7119141</ele>
        <time>2014-03-26T08:24:56Z</time>
      </trkpt>
      <trkpt lat="44.32372" lon="2.63303">
        <ele>682.192627</ele>
        <time>2014-03-26T08:25:02Z</time>
      </trkpt>
      <trkpt lat="44.32364" lon="2.63318">
        <ele>681.7119141</ele>
        <time>2014-03-26T08:25:07Z</time>
      </trkpt>
      <trkpt lat="44.32355" lon="2.63337">
        <ele>682.6733398</ele>
        <time>2014-03-26T08:25:13Z</time>
      </trkpt>
      <trkpt lat="44.3235" lon="2.6335">
        <ele>681.7119141</ele>
        <time>2014-03-26T08:25:17Z</time>
      </trkpt>
      <trkpt lat="44.32342" lon="2.6337">
        <ele>680.2700195</ele>
        <time>2014-03-26T08:25:23Z</time>
      </trkpt>
      <trkpt lat="44.32334" lon="2.63384">
        <ele>680.7507324</ele>
        <time>2014-03-26T08:25:28Z</time>
      </trkpt>
      <trkpt lat="44.32325" lon="2.63402">
        <ele>681.7119141</ele>
        <time>2014-03-26T08:25:34Z</time>
      </trkpt>
      <trkpt lat="44.32318" lon="2.63417">
        <ele>682.192627</ele>
        <time>2014-03-26T08:25:39Z</time>
      </trkpt>
      <trkpt lat="44.32311" lon="2.63433">
        <ele>682.192627</ele>
        <time>2014-03-26T08:25:44Z</time>
      </trkpt>
      <trkpt lat="44.32303" lon="2.6345">
        <ele>683.1538086</ele>
        <time>2014-03-26T08:25:50Z</time>
      </trkpt>
      <trkpt lat="44.32293" lon="2.63468">
        <ele>684.5961914</ele>
        <time>2014-03-26T08:25:56Z</time>
      </trkpt>
      <trkpt lat="44.32286" lon="2.63483">
        <ele>684.5961914</ele>
        <time>2014-03-26T08:26:01Z</time>
      </trkpt>
      <trkpt lat="44.32278" lon="2.635">
        <ele>685.557373</ele>
        <time>2014-03-26T08:26:06Z</time>
      </trkpt>
      <trkpt lat="44.3227" lon="2.63515">
        <ele>686.9992676</ele>
        <time>2014-03-26T08:26:11Z</time>
      </trkpt>
      <trkpt lat="44.32263" lon="2.6353">
        <ele>687.4799805</ele>
        <time>2014-03-26T08:26:16Z</time>
      </trkpt>
      <trkpt lat="44.32253" lon="2.63548">
        <ele>688.4414063</ele>
        <time>2014-03-26T08:26:22Z</time>
      </trkpt>
      <trkpt lat="44.32245" lon="2.63564">
        <ele>688.9221191</ele>
        <time>2014-03-26T08:26:27Z</time>
      </trkpt>
      <trkpt lat="44.32238" lon="2.63579">
        <ele>688.9221191</ele>
        <time>2014-03-26T08:26:32Z</time>
      </trkpt>
      <trkpt lat="44.32228" lon="2.636">
        <ele>687.9606934</ele>
        <time>2014-03-26T08:26:39Z</time>
      </trkpt>
      <trkpt lat="44.32219" lon="2.63618">
        <ele>688.4414063</ele>
        <time>2014-03-26T08:26:45Z</time>
      </trkpt>
      <trkpt lat="44.3221" lon="2.63633">
        <ele>687.9606934</ele>
        <time>2014-03-26T08:26:50Z</time>
      </trkpt>
      <trkpt lat="44.32202" lon="2.63646">
        <ele>686.9992676</ele>
        <time>2014-03-26T08:26:55Z</time>
      </trkpt>
      <trkpt lat="44.322" lon="2.63649">
        <ele>687.4799805</ele>
        <time>2014-03-26T08:26:56Z</time>
      </trkpt>
      <trkpt lat="44.32192" lon="2.63664">
        <ele>687.9606934</ele>
        <time>2014-03-26T08:27:01Z</time>
      </trkpt>
      <trkpt lat="44.32189" lon="2.63669">
        <ele>687.9606934</ele>
        <time>2014-03-26T08:27:03Z</time>
      </trkpt>
      <trkpt lat="44.32183" lon="2.63681">
        <ele>688.4414063</ele>
        <time>2014-03-26T08:27:07Z</time>
      </trkpt>
      <trkpt lat="44.32174" lon="2.63697">
        <ele>690.3640137</ele>
        <time>2014-03-26T08:27:12Z</time>
      </trkpt>
      <trkpt lat="44.32164" lon="2.63716">
        <ele>690.8444824</ele>
        <time>2014-03-26T08:27:18Z</time>
      </trkpt>
      <trkpt lat="44.32158" lon="2.63729">
        <ele>690.8444824</ele>
        <time>2014-03-26T08:27:22Z</time>
      </trkpt>
      <trkpt lat="44.32157" lon="2.63732">
        <ele>690.8444824</ele>
        <time>2014-03-26T08:27:23Z</time>
      </trkpt>
      <trkpt lat="44.32147" lon="2.63745">
        <ele>690.3640137</ele>
        <time>2014-03-26T08:27:29Z</time>
      </trkpt>
      <trkpt lat="44.32144" lon="2.63747">
        <ele>689.8833008</ele>
        <time>2014-03-26T08:27:31Z</time>
      </trkpt>
      <trkpt lat="44.32139" lon="2.63745">
        <ele>689.4025879</ele>
        <time>2014-03-26T08:27:37Z</time>
      </trkpt>
      <trkpt lat="44.32139" lon="2.63744">
        <ele>688.9221191</ele>
        <time>2014-03-26T08:27:43Z</time>
      </trkpt>
      <trkpt lat="44.32139" lon="2.63745">
        <ele>688.4414063</ele>
        <time>2014-03-26T08:27:46Z</time>
      </trkpt>
      <trkpt lat="44.32144" lon="2.63743">
        <ele>688.4414063</ele>
        <time>2014-03-26T08:27:52Z</time>
      </trkpt>
      <trkpt lat="44.32142" lon="2.63739">
        <ele>688.4414063</ele>
        <time>2014-03-26T08:27:57Z</time>
      </trkpt>
      <trkpt lat="44.32143" lon="2.6374">
        <ele>688.9221191</ele>
        <time>2014-03-26T08:28:04Z</time>
      </trkpt>
      <trkpt lat="44.3215" lon="2.63753">
        <ele>689.8833008</ele>
        <time>2014-03-26T08:28:09Z</time>
      </trkpt>
      <trkpt lat="44.32151" lon="2.63757">
        <ele>689.8833008</ele>
        <time>2014-03-26T08:28:10Z</time>
      </trkpt>
      <trkpt lat="44.32147" lon="2.63772">
        <ele>688.4414063</ele>
        <time>2014-03-26T08:28:14Z</time>
      </trkpt>
      <trkpt lat="44.32144" lon="2.63794">
        <ele>687.9606934</ele>
        <time>2014-03-26T08:28:20Z</time>
      </trkpt>
      <trkpt lat="44.32144" lon="2.63798">
        <ele>687.9606934</ele>
        <time>2014-03-26T08:28:21Z</time>
      </trkpt>
      <trkpt lat="44.32142" lon="2.63828">
        <ele>689.4025879</ele>
        <time>2014-03-26T08:28:29Z</time>
      </trkpt>
      <trkpt lat="44.32142" lon="2.63852">
        <ele>688.4414063</ele>
        <time>2014-03-26T08:28:35Z</time>
      </trkpt>
      <trkpt lat="44.3214" lon="2.63868">
        <ele>687.9606934</ele>
        <time>2014-03-26T08:28:39Z</time>
      </trkpt>
      <trkpt lat="44.32137" lon="2.63892">
        <ele>688.4414063</ele>
        <time>2014-03-26T08:28:45Z</time>
      </trkpt>
      <trkpt lat="44.32135" lon="2.63912">
        <ele>688.9221191</ele>
        <time>2014-03-26T08:28:50Z</time>
      </trkpt>
      <trkpt lat="44.32134" lon="2.63933">
        <ele>689.4025879</ele>
        <time>2014-03-26T08:28:55Z</time>
      </trkpt>
      <trkpt lat="44.32134" lon="2.6396">
        <ele>688.4414063</ele>
        <time>2014-03-26T08:29:02Z</time>
      </trkpt>
      <trkpt lat="44.32133" lon="2.63975">
        <ele>688.4414063</ele>
        <time>2014-03-26T08:29:06Z</time>
      </trkpt>
      <trkpt lat="44.32131" lon="2.6399">
        <ele>688.4414063</ele>
        <time>2014-03-26T08:29:10Z</time>
      </trkpt>
      <trkpt lat="44.32131" lon="2.64018">
        <ele>688.4414063</ele>
        <time>2014-03-26T08:29:17Z</time>
      </trkpt>
      <trkpt lat="44.32128" lon="2.64038">
        <ele>688.4414063</ele>
        <time>2014-03-26T08:29:22Z</time>
      </trkpt>
      <trkpt lat="44.32127" lon="2.64055">
        <ele>687.9606934</ele>
        <time>2014-03-26T08:29:26Z</time>
      </trkpt>
      <trkpt lat="44.32126" lon="2.64081">
        <ele>687.4799805</ele>
        <time>2014-03-26T08:29:33Z</time>
      </trkpt>
      <trkpt lat="44.32127" lon="2.64095">
        <ele>687.4799805</ele>
        <time>2014-03-26T08:29:37Z</time>
      </trkpt>
      <trkpt lat="44.32128" lon="2.64114">
        <ele>686.5187988</ele>
        <time>2014-03-26T08:29:42Z</time>
      </trkpt>
      <trkpt lat="44.32131" lon="2.64137">
        <ele>686.9992676</ele>
        <time>2014-03-26T08:29:48Z</time>
      </trkpt>
      <trkpt lat="44.32133" lon="2.64156">
        <ele>686.9992676</ele>
        <time>2014-03-26T08:29:53Z</time>
      </trkpt>
      <trkpt lat="44.32134" lon="2.64179">
        <ele>686.9992676</ele>
        <time>2014-03-26T08:29:59Z</time>
      </trkpt>
      <trkpt lat="44.32136" lon="2.64201">
        <ele>686.9992676</ele>
        <time>2014-03-26T08:30:05Z</time>
      </trkpt>
      <trkpt lat="44.32138" lon="2.64224">
        <ele>685.557373</ele>
        <time>2014-03-26T08:30:11Z</time>
      </trkpt>
      <trkpt lat="44.32139" lon="2.64246">
        <ele>685.0769043</ele>
        <time>2014-03-26T08:30:17Z</time>
      </trkpt>
      <trkpt lat="44.32142" lon="2.64269">
        <ele>684.1154785</ele>
        <time>2014-03-26T08:30:23Z</time>
      </trkpt>
      <trkpt lat="44.32142" lon="2.64293">
        <ele>684.1154785</ele>
        <time>2014-03-26T08:30:29Z</time>
      </trkpt>
      <trkpt lat="44.32142" lon="2.64312">
        <ele>685.0769043</ele>
        <time>2014-03-26T08:30:34Z</time>
      </trkpt>
      <trkpt lat="44.32144" lon="2.64331">
        <ele>684.1154785</ele>
        <time>2014-03-26T08:30:39Z</time>
      </trkpt>
      <trkpt lat="44.32144" lon="2.6435">
        <ele>684.1154785</ele>
        <time>2014-03-26T08:30:44Z</time>
      </trkpt>
      <trkpt lat="44.32143" lon="2.64373">
        <ele>684.1154785</ele>
        <time>2014-03-26T08:30:50Z</time>
      </trkpt>
      <trkpt lat="44.32143" lon="2.64393">
        <ele>683.6345215</ele>
        <time>2014-03-26T08:30:55Z</time>
      </trkpt>
      <trkpt lat="44.32144" lon="2.64416">
        <ele>683.6345215</ele>
        <time>2014-03-26T08:31:01Z</time>
      </trkpt>
      <trkpt lat="44.32144" lon="2.64441">
        <ele>683.6345215</ele>
        <time>2014-03-26T08:31:07Z</time>
      </trkpt>
      <trkpt lat="44.32145" lon="2.64457">
        <ele>683.1538086</ele>
        <time>2014-03-26T08:31:11Z</time>
      </trkpt>
      <trkpt lat="44.32148" lon="2.64473">
        <ele>682.6733398</ele>
        <time>2014-03-26T08:31:15Z</time>
      </trkpt>
      <trkpt lat="44.32151" lon="2.64493">
        <ele>682.6733398</ele>
        <time>2014-03-26T08:31:20Z</time>
      </trkpt>
      <trkpt lat="44.32154" lon="2.64512">
        <ele>683.1538086</ele>
        <time>2014-03-26T08:31:25Z</time>
      </trkpt>
      <trkpt lat="44.32153" lon="2.64531">
        <ele>683.1538086</ele>
        <time>2014-03-26T08:31:30Z</time>
      </trkpt>
      <trkpt lat="44.3215" lon="2.64553">
        <ele>684.1154785</ele>
        <time>2014-03-26T08:31:36Z</time>
      </trkpt>
      <trkpt lat="44.32146" lon="2.64575">
        <ele>686.5187988</ele>
        <time>2014-03-26T08:31:42Z</time>
      </trkpt>
      <trkpt lat="44.3215" lon="2.64591">
        <ele>686.5187988</ele>
        <time>2014-03-26T08:31:47Z</time>
      </trkpt>
      <trkpt lat="44.32153" lon="2.64597">
        <ele>686.5187988</ele>
        <time>2014-03-26T08:31:49Z</time>
      </trkpt>
      <trkpt lat="44.32155" lon="2.6462">
        <ele>685.557373</ele>
        <time>2014-03-26T08:31:55Z</time>
      </trkpt>
      <trkpt lat="44.32155" lon="2.64631">
        <ele>685.0769043</ele>
        <time>2014-03-26T08:31:58Z</time>
      </trkpt>
      <trkpt lat="44.32163" lon="2.64644">
        <ele>684.1154785</ele>
        <time>2014-03-26T08:32:03Z</time>
      </trkpt>
      <trkpt lat="44.3218" lon="2.64651">
        <ele>682.6733398</ele>
        <time>2014-03-26T08:32:09Z</time>
      </trkpt>
      <trkpt lat="44.32194" lon="2.64654">
        <ele>682.192627</ele>
        <time>2014-03-26T08:32:14Z</time>
      </trkpt>
      <trkpt lat="44.32208" lon="2.64658">
        <ele>681.2314453</ele>
        <time>2014-03-26T08:32:19Z</time>
      </trkpt>
      <trkpt lat="44.32218" lon="2.64662">
        <ele>680.2700195</ele>
        <time>2014-03-26T08:32:23Z</time>
      </trkpt>
      <trkpt lat="44.32232" lon="2.64672">
        <ele>678.3474121</ele>
        <time>2014-03-26T08:32:29Z</time>
      </trkpt>
      <trkpt lat="44.32244" lon="2.64683">
        <ele>676.9055176</ele>
        <time>2014-03-26T08:32:34Z</time>
      </trkpt>
      <trkpt lat="44.32256" lon="2.647">
        <ele>676.9055176</ele>
        <time>2014-03-26T08:32:40Z</time>
      </trkpt>
      <trkpt lat="44.32262" lon="2.64709">
        <ele>676.4248047</ele>
        <time>2014-03-26T08:32:43Z</time>
      </trkpt>
      <trkpt lat="44.32267" lon="2.64726">
        <ele>674.9829102</ele>
        <time>2014-03-26T08:32:48Z</time>
      </trkpt>
      <trkpt lat="44.32271" lon="2.64738">
        <ele>674.5021973</ele>
        <time>2014-03-26T08:32:51Z</time>
      </trkpt>
      <trkpt lat="44.32274" lon="2.6476">
        <ele>672.098877</ele>
        <time>2014-03-26T08:32:57Z</time>
      </trkpt>
      <trkpt lat="44.32278" lon="2.64777">
        <ele>672.098877</ele>
        <time>2014-03-26T08:33:02Z</time>
      </trkpt>
      <trkpt lat="44.32283" lon="2.6479">
        <ele>671.6181641</ele>
        <time>2014-03-26T08:33:06Z</time>
      </trkpt>
      <trkpt lat="44.32291" lon="2.6481">
        <ele>671.1376953</ele>
        <time>2014-03-26T08:33:12Z</time>
      </trkpt>
      <trkpt lat="44.32294" lon="2.64816">
        <ele>671.1376953</ele>
        <time>2014-03-26T08:33:14Z</time>
      </trkpt>
      <trkpt lat="44.32303" lon="2.64819">
        <ele>669.6958008</ele>
        <time>2014-03-26T08:33:18Z</time>
      </trkpt>
      <trkpt lat="44.3231" lon="2.64812">
        <ele>669.2150879</ele>
        <time>2014-03-26T08:33:21Z</time>
      </trkpt>
      <trkpt lat="44.32319" lon="2.64794">
        <ele>668.734375</ele>
        <time>2014-03-26T08:33:27Z</time>
      </trkpt>
      <trkpt lat="44.32328" lon="2.64778">
        <ele>667.7727051</ele>
        <time>2014-03-26T08:33:32Z</time>
      </trkpt>
      <trkpt lat="44.32336" lon="2.64765">
        <ele>667.2922363</ele>
        <time>2014-03-26T08:33:36Z</time>
      </trkpt>
      <trkpt lat="44.32346" lon="2.64754">
        <ele>666.8115234</ele>
        <time>2014-03-26T08:33:41Z</time>
      </trkpt>
      <trkpt lat="44.32359" lon="2.64748">
        <ele>665.8503418</ele>
        <time>2014-03-26T08:33:46Z</time>
      </trkpt>
      <trkpt lat="44.32372" lon="2.64748">
        <ele>666.3308105</ele>
        <time>2014-03-26T08:33:51Z</time>
      </trkpt>
      <trkpt lat="44.32384" lon="2.64748">
        <ele>666.3308105</ele>
        <time>2014-03-26T08:33:55Z</time>
      </trkpt>
      <trkpt lat="44.32399" lon="2.64752">
        <ele>665.8503418</ele>
        <time>2014-03-26T08:34:00Z</time>
      </trkpt>
      <trkpt lat="44.32412" lon="2.64758">
        <ele>666.3308105</ele>
        <time>2014-03-26T08:34:05Z</time>
      </trkpt>
      <trkpt lat="44.32423" lon="2.64766">
        <ele>666.3308105</ele>
        <time>2014-03-26T08:34:10Z</time>
      </trkpt>
      <trkpt lat="44.32437" lon="2.64773">
        <ele>664.888916</ele>
        <time>2014-03-26T08:34:15Z</time>
      </trkpt>
      <trkpt lat="44.32448" lon="2.64777">
        <ele>663.9274902</ele>
        <time>2014-03-26T08:34:19Z</time>
      </trkpt>
      <trkpt lat="44.32462" lon="2.64782">
        <ele>661.5244141</ele>
        <time>2014-03-26T08:34:24Z</time>
      </trkpt>
      <trkpt lat="44.32475" lon="2.6479">
        <ele>659.6018066</ele>
        <time>2014-03-26T08:34:29Z</time>
      </trkpt>
      <trkpt lat="44.32485" lon="2.64796">
        <ele>657.1984863</ele>
        <time>2014-03-26T08:34:33Z</time>
      </trkpt>
      <trkpt lat="44.32496" lon="2.64799">
        <ele>655.7565918</ele>
        <time>2014-03-26T08:34:37Z</time>
      </trkpt>
      <trkpt lat="44.32507" lon="2.648">
        <ele>655.7565918</ele>
        <time>2014-03-26T08:34:41Z</time>
      </trkpt>
      <trkpt lat="44.32524" lon="2.64802">
        <ele>654.795166</ele>
        <time>2014-03-26T08:34:46Z</time>
      </trkpt>
      <trkpt lat="44.32539" lon="2.64801">
        <ele>653.3532715</ele>
        <time>2014-03-26T08:34:51Z</time>
      </trkpt>
      <trkpt lat="44.32551" lon="2.64801">
        <ele>651.9111328</ele>
        <time>2014-03-26T08:34:55Z</time>
      </trkpt>
      <trkpt lat="44.32566" lon="2.64802">
        <ele>651.4304199</ele>
        <time>2014-03-26T08:35:00Z</time>
      </trkpt>
      <trkpt lat="44.32569" lon="2.64802">
        <ele>650.949707</ele>
        <time>2014-03-26T08:35:01Z</time>
      </trkpt>
      <trkpt lat="44.32585" lon="2.64798">
        <ele>649.9885254</ele>
        <time>2014-03-26T08:35:07Z</time>
      </trkpt>
      <trkpt lat="44.32596" lon="2.64798">
        <ele>649.9885254</ele>
        <time>2014-03-26T08:35:11Z</time>
      </trkpt>
      <trkpt lat="44.32612" lon="2.64797">
        <ele>649.0270996</ele>
        <time>2014-03-26T08:35:16Z</time>
      </trkpt>
      <trkpt lat="44.32621" lon="2.64792">
        <ele>648.5463867</ele>
        <time>2014-03-26T08:35:20Z</time>
      </trkpt>
      <trkpt lat="44.32635" lon="2.64787">
        <ele>647.1044922</ele>
        <time>2014-03-26T08:35:25Z</time>
      </trkpt>
      <trkpt lat="44.32649" lon="2.64784">
        <ele>645.6625977</ele>
        <time>2014-03-26T08:35:30Z</time>
      </trkpt>
      <trkpt lat="44.32663" lon="2.64783">
        <ele>645.1818848</ele>
        <time>2014-03-26T08:35:35Z</time>
      </trkpt>
      <trkpt lat="44.32677" lon="2.64784">
        <ele>644.7011719</ele>
        <time>2014-03-26T08:35:40Z</time>
      </trkpt>
      <trkpt lat="44.32692" lon="2.64781">
        <ele>644.2207031</ele>
        <time>2014-03-26T08:35:46Z</time>
      </trkpt>
      <trkpt lat="44.32706" lon="2.64783">
        <ele>645.6625977</ele>
        <time>2014-03-26T08:35:52Z</time>
      </trkpt>
      <trkpt lat="44.32716" lon="2.64787">
        <ele>646.1433105</ele>
        <time>2014-03-26T08:35:57Z</time>
      </trkpt>
      <trkpt lat="44.32727" lon="2.64785">
        <ele>645.1818848</ele>
        <time>2014-03-26T08:36:02Z</time>
      </trkpt>
      <trkpt lat="44.32735" lon="2.64785">
        <ele>646.1433105</ele>
        <time>2014-03-26T08:36:06Z</time>
      </trkpt>
      <trkpt lat="44.32748" lon="2.64788">
        <ele>648.065918</ele>
        <time>2014-03-26T08:36:12Z</time>
      </trkpt>
      <trkpt lat="44.32758" lon="2.64789">
        <ele>649.5078125</ele>
        <time>2014-03-26T08:36:17Z</time>
      </trkpt>
      <trkpt lat="44.32773" lon="2.64789">
        <ele>653.3532715</ele>
        <time>2014-03-26T08:36:24Z</time>
      </trkpt>
      <trkpt lat="44.32784" lon="2.6479">
        <ele>654.795166</ele>
        <time>2014-03-26T08:36:29Z</time>
      </trkpt>
      <trkpt lat="44.32802" lon="2.64794">
        <ele>655.7565918</ele>
        <time>2014-03-26T08:36:37Z</time>
      </trkpt>
      <trkpt lat="44.3281" lon="2.64796">
        <ele>656.7177734</ele>
        <time>2014-03-26T08:36:41Z</time>
      </trkpt>
      <trkpt lat="44.32821" lon="2.64801">
        <ele>656.7177734</ele>
        <time>2014-03-26T08:36:46Z</time>
      </trkpt>
      <trkpt lat="44.3283" lon="2.64803">
        <ele>657.1984863</ele>
        <time>2014-03-26T08:36:50Z</time>
      </trkpt>
      <trkpt lat="44.32843" lon="2.64803">
        <ele>658.1599121</ele>
        <time>2014-03-26T08:36:55Z</time>
      </trkpt>
      <trkpt lat="44.32858" lon="2.64806">
        <ele>659.1210938</ele>
        <time>2014-03-26T08:37:01Z</time>
      </trkpt>
      <trkpt lat="44.32873" lon="2.64807">
        <ele>660.5629883</ele>
        <time>2014-03-26T08:37:07Z</time>
      </trkpt>
      <trkpt lat="44.32887" lon="2.6481">
        <ele>661.0437012</ele>
        <time>2014-03-26T08:37:13Z</time>
      </trkpt>
      <trkpt lat="44.32904" lon="2.64815">
        <ele>662.005127</ele>
        <time>2014-03-26T08:37:20Z</time>
      </trkpt>
      <trkpt lat="44.32918" lon="2.64818">
        <ele>662.4855957</ele>
        <time>2014-03-26T08:37:26Z</time>
      </trkpt>
      <trkpt lat="44.32932" lon="2.64819">
        <ele>664.888916</ele>
        <time>2014-03-26T08:37:32Z</time>
      </trkpt>
      <trkpt lat="44.32942" lon="2.64821">
        <ele>665.3696289</ele>
        <time>2014-03-26T08:37:36Z</time>
      </trkpt>
      <trkpt lat="44.32956" lon="2.64824">
        <ele>666.8115234</ele>
        <time>2014-03-26T08:37:41Z</time>
      </trkpt>
      <trkpt lat="44.3297" lon="2.64827">
        <ele>667.2922363</ele>
        <time>2014-03-26T08:37:47Z</time>
      </trkpt>
      <trkpt lat="44.32983" lon="2.64831">
        <ele>667.7727051</ele>
        <time>2014-03-26T08:37:52Z</time>
      </trkpt>
      <trkpt lat="44.32992" lon="2.64834">
        <ele>667.2922363</ele>
        <time>2014-03-26T08:37:56Z</time>
      </trkpt>
      <trkpt lat="44.33004" lon="2.64839">
        <ele>666.8115234</ele>
        <time>2014-03-26T08:38:01Z</time>
      </trkpt>
      <trkpt lat="44.33015" lon="2.64841">
        <ele>667.2922363</ele>
        <time>2014-03-26T08:38:06Z</time>
      </trkpt>
      <trkpt lat="44.33031" lon="2.64844">
        <ele>667.7727051</ele>
        <time>2014-03-26T08:38:12Z</time>
      </trkpt>
      <trkpt lat="44.33043" lon="2.64846">
        <ele>668.2536621</ele>
        <time>2014-03-26T08:38:17Z</time>
      </trkpt>
      <trkpt lat="44.33054" lon="2.64847">
        <ele>669.2150879</ele>
        <time>2014-03-26T08:38:22Z</time>
      </trkpt>
      <trkpt lat="44.33064" lon="2.64839">
        <ele>669.2150879</ele>
        <time>2014-03-26T08:38:28Z</time>
      </trkpt>
      <trkpt lat="44.33067" lon="2.64823">
        <ele>672.098877</ele>
        <time>2014-03-26T08:38:34Z</time>
      </trkpt>
      <trkpt lat="44.33067" lon="2.6482">
        <ele>672.098877</ele>
        <time>2014-03-26T08:38:35Z</time>
      </trkpt>
      <trkpt lat="44.3307" lon="2.648">
        <ele>673.0603027</ele>
        <time>2014-03-26T08:38:41Z</time>
      </trkpt>
      <trkpt lat="44.33071" lon="2.64778">
        <ele>674.0214844</ele>
        <time>2014-03-26T08:38:48Z</time>
      </trkpt>
      <trkpt lat="44.33074" lon="2.64753">
        <ele>674.9829102</ele>
        <time>2014-03-26T08:38:56Z</time>
      </trkpt>
      <trkpt lat="44.33077" lon="2.64738">
        <ele>674.5021973</ele>
        <time>2014-03-26T08:39:01Z</time>
      </trkpt>
      <trkpt lat="44.33084" lon="2.64712">
        <ele>674.9829102</ele>
        <time>2014-03-26T08:39:09Z</time>
      </trkpt>
      <trkpt lat="44.33089" lon="2.64691">
        <ele>677.3862305</ele>
        <time>2014-03-26T08:39:16Z</time>
      </trkpt>
      <trkpt lat="44.33091" lon="2.64674">
        <ele>678.3474121</ele>
        <time>2014-03-26T08:39:21Z</time>
      </trkpt>
      <trkpt lat="44.33095" lon="2.6465">
        <ele>677.8666992</ele>
        <time>2014-03-26T08:39:28Z</time>
      </trkpt>
      <trkpt lat="44.331" lon="2.64631">
        <ele>677.8666992</ele>
        <time>2014-03-26T08:39:34Z</time>
      </trkpt>
      <trkpt lat="44.33101" lon="2.64613">
        <ele>678.828125</ele>
        <time>2014-03-26T08:39:39Z</time>
      </trkpt>
      <trkpt lat="44.33103" lon="2.64591">
        <ele>679.7893066</ele>
        <time>2014-03-26T08:39:45Z</time>
      </trkpt>
      <trkpt lat="44.33107" lon="2.64579">
        <ele>679.3085938</ele>
        <time>2014-03-26T08:39:49Z</time>
      </trkpt>
      <trkpt lat="44.33114" lon="2.64568">
        <ele>678.3474121</ele>
        <time>2014-03-26T08:39:53Z</time>
      </trkpt>
      <trkpt lat="44.33121" lon="2.64553">
        <ele>676.9055176</ele>
        <time>2014-03-26T08:39:58Z</time>
      </trkpt>
      <trkpt lat="44.33127" lon="2.64535">
        <ele>676.9055176</ele>
        <time>2014-03-26T08:40:03Z</time>
      </trkpt>
      <trkpt lat="44.33135" lon="2.64515">
        <ele>676.9055176</ele>
        <time>2014-03-26T08:40:09Z</time>
      </trkpt>
      <trkpt lat="44.33141" lon="2.64497">
        <ele>676.9055176</ele>
        <time>2014-03-26T08:40:14Z</time>
      </trkpt>
      <trkpt lat="44.33147" lon="2.64484">
        <ele>676.9055176</ele>
        <time>2014-03-26T08:40:18Z</time>
      </trkpt>
      <trkpt lat="44.33156" lon="2.64465">
        <ele>676.4248047</ele>
        <time>2014-03-26T08:40:24Z</time>
      </trkpt>
      <trkpt lat="44.33161" lon="2.64444">
        <ele>675.9440918</ele>
        <time>2014-03-26T08:40:30Z</time>
      </trkpt>
      <trkpt lat="44.33165" lon="2.64421">
        <ele>676.4248047</ele>
        <time>2014-03-26T08:40:36Z</time>
      </trkpt>
      <trkpt lat="44.33171" lon="2.64398">
        <ele>675.9440918</ele>
        <time>2014-03-26T08:40:42Z</time>
      </trkpt>
      <trkpt lat="44.33177" lon="2.64381">
        <ele>675.4633789</ele>
        <time>2014-03-26T08:40:47Z</time>
      </trkpt>
      <trkpt lat="44.33182" lon="2.64364">
        <ele>674.5021973</ele>
        <time>2014-03-26T08:40:52Z</time>
      </trkpt>
      <trkpt lat="44.3319" lon="2.64342">
        <ele>674.0214844</ele>
        <time>2014-03-26T08:40:58Z</time>
      </trkpt>
      <trkpt lat="44.332" lon="2.64319">
        <ele>673.0603027</ele>
        <time>2014-03-26T08:41:05Z</time>
      </trkpt>
      <trkpt lat="44.33208" lon="2.64299">
        <ele>673.0603027</ele>
        <time>2014-03-26T08:41:11Z</time>
      </trkpt>
      <trkpt lat="44.33218" lon="2.64275">
        <ele>672.5795898</ele>
        <time>2014-03-26T08:41:18Z</time>
      </trkpt>
      <trkpt lat="44.33225" lon="2.64258">
        <ele>672.098877</ele>
        <time>2014-03-26T08:41:23Z</time>
      </trkpt>
      <trkpt lat="44.33233" lon="2.64237">
        <ele>670.6569824</ele>
        <time>2014-03-26T08:41:29Z</time>
      </trkpt>
      <trkpt lat="44.3324" lon="2.64216">
        <ele>670.1762695</ele>
        <time>2014-03-26T08:41:35Z</time>
      </trkpt>
      <trkpt lat="44.33248" lon="2.64196">
        <ele>669.6958008</ele>
        <time>2014-03-26T08:41:41Z</time>
      </trkpt>
      <trkpt lat="44.33255" lon="2.64174">
        <ele>668.734375</ele>
        <time>2014-03-26T08:41:47Z</time>
      </trkpt>
      <trkpt lat="44.3326" lon="2.64147">
        <ele>668.2536621</ele>
        <time>2014-03-26T08:41:54Z</time>
      </trkpt>
      <trkpt lat="44.33265" lon="2.64124">
        <ele>667.2922363</ele>
        <time>2014-03-26T08:42:00Z</time>
      </trkpt>
      <trkpt lat="44.3327" lon="2.64102">
        <ele>666.8115234</ele>
        <time>2014-03-26T08:42:06Z</time>
      </trkpt>
      <trkpt lat="44.33274" lon="2.64078">
        <ele>666.8115234</ele>
        <time>2014-03-26T08:42:12Z</time>
      </trkpt>
      <trkpt lat="44.33277" lon="2.64058">
        <ele>667.7727051</ele>
        <time>2014-03-26T08:42:17Z</time>
      </trkpt>
      <trkpt lat="44.33278" lon="2.64036">
        <ele>666.3308105</ele>
        <time>2014-03-26T08:42:23Z</time>
      </trkpt>
      <trkpt lat="44.33283" lon="2.64014">
        <ele>665.8503418</ele>
        <time>2014-03-26T08:42:29Z</time>
      </trkpt>
      <trkpt lat="44.33288" lon="2.63996">
        <ele>665.8503418</ele>
        <time>2014-03-26T08:42:34Z</time>
      </trkpt>
      <trkpt lat="44.33294" lon="2.63971">
        <ele>664.4082031</ele>
        <time>2014-03-26T08:42:41Z</time>
      </trkpt>
      <trkpt lat="44.33297" lon="2.63949">
        <ele>662.005127</ele>
        <time>2014-03-26T08:42:47Z</time>
      </trkpt>
      <trkpt lat="44.333" lon="2.63922">
        <ele>662.4855957</ele>
        <time>2014-03-26T08:42:54Z</time>
      </trkpt>
      <trkpt lat="44.33305" lon="2.63899">
        <ele>662.4855957</ele>
        <time>2014-03-26T08:43:00Z</time>
      </trkpt>
      <trkpt lat="44.33307" lon="2.63883">
        <ele>662.4855957</ele>
        <time>2014-03-26T08:43:04Z</time>
      </trkpt>
      <trkpt lat="44.33312" lon="2.6386">
        <ele>660.5629883</ele>
        <time>2014-03-26T08:43:10Z</time>
      </trkpt>
      <trkpt lat="44.33317" lon="2.63842">
        <ele>659.1210938</ele>
        <time>2014-03-26T08:43:15Z</time>
      </trkpt>
      <trkpt lat="44.33321" lon="2.63824">
        <ele>657.1984863</ele>
        <time>2014-03-26T08:43:20Z</time>
      </trkpt>
      <trkpt lat="44.33329" lon="2.63798">
        <ele>654.795166</ele>
        <time>2014-03-26T08:43:27Z</time>
      </trkpt>
      <trkpt lat="44.33335" lon="2.6378">
        <ele>653.8339844</ele>
        <time>2014-03-26T08:43:32Z</time>
      </trkpt>
      <trkpt lat="44.33343" lon="2.63758">
        <ele>651.9111328</ele>
        <time>2014-03-26T08:43:38Z</time>
      </trkpt>
      <trkpt lat="44.33348" lon="2.6374">
        <ele>650.4692383</ele>
        <time>2014-03-26T08:43:43Z</time>
      </trkpt>
      <trkpt lat="44.33354" lon="2.63718">
        <ele>648.065918</ele>
        <time>2014-03-26T08:43:49Z</time>
      </trkpt>
      <trkpt lat="44.3336" lon="2.63701">
        <ele>645.1818848</ele>
        <time>2014-03-26T08:43:54Z</time>
      </trkpt>
      <trkpt lat="44.33367" lon="2.63681">
        <ele>643.2592773</ele>
        <time>2014-03-26T08:43:59Z</time>
      </trkpt>
      <trkpt lat="44.33376" lon="2.63665">
        <ele>641.3366699</ele>
        <time>2014-03-26T08:44:04Z</time>
      </trkpt>
      <trkpt lat="44.33388" lon="2.63646">
        <ele>636.5302734</ele>
        <time>2014-03-26T08:44:10Z</time>
      </trkpt>
      <trkpt lat="44.33396" lon="2.63631">
        <ele>633.6459961</ele>
        <time>2014-03-26T08:44:14Z</time>
      </trkpt>
      <trkpt lat="44.33406" lon="2.63618">
        <ele>630.2814941</ele>
        <time>2014-03-26T08:44:18Z</time>
      </trkpt>
      <trkpt lat="44.3342" lon="2.63603">
        <ele>626.4362793</ele>
        <time>2014-03-26T08:44:23Z</time>
      </trkpt>
      <trkpt lat="44.33434" lon="2.63587">
        <ele>624.5136719</ele>
        <time>2014-03-26T08:44:29Z</time>
      </trkpt>
      <trkpt lat="44.33442" lon="2.63576">
        <ele>624.032959</ele>
        <time>2014-03-26T08:44:33Z</time>
      </trkpt>
      <trkpt lat="44.33447" lon="2.63558">
        <ele>624.5136719</ele>
        <time>2014-03-26T08:44:38Z</time>
      </trkpt>
      <trkpt lat="44.33449" lon="2.63537">
        <ele>627.8781738</ele>
        <time>2014-03-26T08:44:44Z</time>
      </trkpt>
      <trkpt lat="44.33451" lon="2.63516">
        <ele>630.2814941</ele>
        <time>2014-03-26T08:44:50Z</time>
      </trkpt>
      <trkpt lat="44.33456" lon="2.63498">
        <ele>631.7233887</ele>
        <time>2014-03-26T08:44:56Z</time>
      </trkpt>
      <trkpt lat="44.33459" lon="2.63489">
        <ele>632.6848145</ele>
        <time>2014-03-26T08:45:01Z</time>
      </trkpt>
      <trkpt lat="44.33464" lon="2.63473">
        <ele>633.1652832</ele>
        <time>2014-03-26T08:45:06Z</time>
      </trkpt>
      <trkpt lat="44.33469" lon="2.63453">
        <ele>634.6074219</ele>
        <time>2014-03-26T08:45:12Z</time>
      </trkpt>
      <trkpt lat="44.33475" lon="2.63436">
        <ele>634.6074219</ele>
        <time>2014-03-26T08:45:18Z</time>
      </trkpt>
      <trkpt lat="44.33477" lon="2.63421">
        <ele>634.6074219</ele>
        <time>2014-03-26T08:45:23Z</time>
      </trkpt>
      <trkpt lat="44.33479" lon="2.63405">
        <ele>634.126709</ele>
        <time>2014-03-26T08:45:28Z</time>
      </trkpt>
      <trkpt lat="44.33481" lon="2.63385">
        <ele>634.6074219</ele>
        <time>2014-03-26T08:45:34Z</time>
      </trkpt>
      <trkpt lat="44.33482" lon="2.63366">
        <ele>635.0881348</ele>
        <time>2014-03-26T08:45:40Z</time>
      </trkpt>
      <trkpt lat="44.33485" lon="2.63349">
        <ele>635.0881348</ele>
        <time>2014-03-26T08:45:45Z</time>
      </trkpt>
      <trkpt lat="44.3349" lon="2.63325">
        <ele>635.5686035</ele>
        <time>2014-03-26T08:45:52Z</time>
      </trkpt>
      <trkpt lat="44.33494" lon="2.6331">
        <ele>636.0495605</ele>
        <time>2014-03-26T08:45:57Z</time>
      </trkpt>
      <trkpt lat="44.33497" lon="2.63291">
        <ele>637.972168</ele>
        <time>2014-03-26T08:46:03Z</time>
      </trkpt>
      <trkpt lat="44.33499" lon="2.63274">
        <ele>640.3754883</ele>
        <time>2014-03-26T08:46:08Z</time>
      </trkpt>
      <trkpt lat="44.335" lon="2.6327">
        <ele>640.855957</ele>
        <time>2014-03-26T08:46:09Z</time>
      </trkpt>
      <trkpt lat="44.33506" lon="2.63253">
        <ele>643.7399902</ele>
        <time>2014-03-26T08:46:15Z</time>
      </trkpt>
      <trkpt lat="44.3351" lon="2.63234">
        <ele>644.7011719</ele>
        <time>2014-03-26T08:46:20Z</time>
      </trkpt>
      <trkpt lat="44.33516" lon="2.63212">
        <ele>645.6625977</ele>
        <time>2014-03-26T08:46:26Z</time>
      </trkpt>
      <trkpt lat="44.3352" lon="2.63196">
        <ele>645.6625977</ele>
        <time>2014-03-26T08:46:31Z</time>
      </trkpt>
      <trkpt lat="44.33524" lon="2.6318">
        <ele>645.6625977</ele>
        <time>2014-03-26T08:46:36Z</time>
      </trkpt>
      <trkpt lat="44.33527" lon="2.63166">
        <ele>645.1818848</ele>
        <time>2014-03-26T08:46:40Z</time>
      </trkpt>
      <trkpt lat="44.33533" lon="2.63151">
        <ele>644.2207031</ele>
        <time>2014-03-26T08:46:45Z</time>
      </trkpt>
      <trkpt lat="44.3354" lon="2.63135">
        <ele>644.2207031</ele>
        <time>2014-03-26T08:46:50Z</time>
      </trkpt>
      <trkpt lat="44.33547" lon="2.63124">
        <ele>643.2592773</ele>
        <time>2014-03-26T08:46:54Z</time>
      </trkpt>
      <trkpt lat="44.33553" lon="2.6311">
        <ele>642.7788086</ele>
        <time>2014-03-26T08:46:59Z</time>
      </trkpt>
      <trkpt lat="44.33558" lon="2.63087">
        <ele>642.7788086</ele>
        <time>2014-03-26T08:47:06Z</time>
      </trkpt>
      <trkpt lat="44.33561" lon="2.6306">
        <ele>644.7011719</ele>
        <time>2014-03-26T08:47:14Z</time>
      </trkpt>
      <trkpt lat="44.33562" lon="2.63044">
        <ele>645.1818848</ele>
        <time>2014-03-26T08:47:19Z</time>
      </trkpt>
      <trkpt lat="44.33568" lon="2.63036">
        <ele>646.6240234</ele>
        <time>2014-03-26T08:47:24Z</time>
      </trkpt>
      <trkpt lat="44.33569" lon="2.63034">
        <ele>647.1044922</ele>
        <time>2014-03-26T08:47:25Z</time>
      </trkpt>
      <trkpt lat="44.33567" lon="2.63016">
        <ele>649.0270996</ele>
        <time>2014-03-26T08:47:31Z</time>
      </trkpt>
      <trkpt lat="44.33565" lon="2.62991">
        <ele>649.9885254</ele>
        <time>2014-03-26T08:47:38Z</time>
      </trkpt>
      <trkpt lat="44.33564" lon="2.62971">
        <ele>651.9111328</ele>
        <time>2014-03-26T08:47:44Z</time>
      </trkpt>
      <trkpt lat="44.33563" lon="2.62944">
        <ele>653.3532715</ele>
        <time>2014-03-26T08:47:52Z</time>
      </trkpt>
      <trkpt lat="44.33565" lon="2.62931">
        <ele>653.8339844</ele>
        <time>2014-03-26T08:47:56Z</time>
      </trkpt>
    </trkseg>
  </trk>
</gpx>